Provisional Data: Baldwin Run near Wellsboro Junction, PA


Please select a monitoring station.
Please select start date.
Please select start date.

Toggle Unit: C/F Toggle Unit: C/F
Sample Time Temperature (C) Temperature (F) Specific Conductivity (mS/cm) pH   Turbidity (NTU+) DO (mg/L)
6/22/2021 12:00:00 AM 16.71 62.078 0.08 10.34 10.95 9
6/22/2021 12:15:00 AM 16.68 62.024 0.08 10.31 11.25 9
6/22/2021 12:30:00 AM 16.65 61.97 0.08 10.3 11.34 9.01
6/22/2021 12:45:00 AM 16.62 61.916 0.08 10.36 10.86 9.03
6/22/2021 1:00:00 AM 16.58 61.844 0.08 10.4 11.11 9.03
6/22/2021 1:15:00 AM 16.54 61.772 0.08 10.4 11.36 9.04
6/22/2021 1:30:00 AM 16.5 61.7 0.08 10.41 11.49 9.06
6/22/2021 1:45:00 AM 16.45 61.61 0.08 10.41 11.01 9.06
6/22/2021 2:00:00 AM 16.4 61.52 0.08 10.41 11.32 9.08
6/22/2021 2:15:00 AM 16.34 61.412 0.08 10.41 11.13 9.09
6/22/2021 2:30:00 AM 16.29 61.322 0.08 10.41 11.03 9.11
6/22/2021 2:45:00 AM 16.23 61.214 0.08 10.41 10.92 9.12
6/22/2021 3:00:00 AM 16.17 61.106 0.08 10.41 11.34 9.13
6/22/2021 3:15:00 AM 16.13 61.034 0.08 10.42 10.89 9.14
6/22/2021 3:30:00 AM 16.09 60.962 0.079 10.27 11.01 9.15
6/22/2021 3:45:00 AM 16.04 60.872 0.079 10.43 11.89 9.16
6/22/2021 4:00:00 AM 15.99 60.782 0.079 10.41 11.62 9.17
6/22/2021 4:15:00 AM 15.95 60.71 0.079 10.41 11.68 9.17
6/22/2021 4:30:00 AM 15.9 60.62 0.079 10.41 11.6 9.19
6/22/2021 4:45:00 AM 15.86 60.548 0.079 10.41 11.38 9.2
6/22/2021 5:00:00 AM 15.82 60.476 0.079 10.41 11.93 9.21
6/22/2021 5:15:00 AM 15.78 60.404 0.079 10.41 11.72 9.22
6/22/2021 5:30:00 AM 15.73 60.314 0.079 10.41 12.26 9.23
6/22/2021 5:45:00 AM 15.68 60.224 0.079 10.41 12.22 9.24
6/22/2021 6:00:00 AM 15.63 60.134 0.079 10.41 12.56 9.25
6/22/2021 6:15:00 AM 15.59 60.062 0.077 10.38 12.8 9.27
6/22/2021 6:30:00 AM 15.54 59.972 0.079 10.41 12.47 9.29
6/22/2021 6:45:00 AM 15.5 59.9 0.079 10.41 12.57 9.31
6/22/2021 7:00:00 AM 15.45 59.81 0.079 10.41 12.42 9.32
6/22/2021 7:15:00 AM 15.41 59.738 0.078 10.41 13.38 9.33
6/22/2021 7:30:00 AM 15.35 59.63 0.078 10.41 14.82 9.34
6/22/2021 7:45:00 AM 15.3 59.54 0.078 10.28 18.84 9.37
6/22/2021 8:00:00 AM 15.25 59.45 0.079 10.44 17.71 9.39
6/22/2021 8:15:00 AM 15.22 59.396 0.079 10.44 18.42 9.43
6/22/2021 8:30:00 AM 15.18 59.324 0.079 10.44 15.47 9.44
6/22/2021 8:45:00 AM 15.15 59.27 0.079 10.41 14.1 9.46
6/22/2021 9:00:00 AM 15.12 59.216 0.076 10.44 13 9.48
6/22/2021 9:15:00 AM 15.1 59.18 0.08 10.46 12.85 9.49
6/22/2021 9:30:00 AM 15.09 59.162 0.08 10.46 12.43 9.51
6/22/2021 9:45:00 AM 15.06 59.108 0.08 10.47 12.41 9.53
6/22/2021 10:00:00 AM 15.03 59.054 0.08 10.47 12.25 9.52
6/22/2021 10:15:00 AM 14.99 58.982 0.079 10.46 11.92 9.52
6/22/2021 10:30:00 AM 15 59 0.076 10.44 14.19 9.57
6/22/2021 10:45:00 AM 14.99 58.982 0.079 10.48 11.91 9.58
6/22/2021 11:00:00 AM 14.98 58.964 0.079 10.48 11.87 9.58
6/22/2021 11:15:00 AM 14.94 58.892 0.079 10.47 12.18 9.56
6/22/2021 11:30:00 AM 14.9 58.82 0.078 10.48 12.12 9.57
6/22/2021 11:45:00 AM 14.86 58.748 0.078 10.47 11.81 9.57
6/22/2021 12:00:00 PM 14.85 58.73 0.078 10.48 12.25 9.61
6/22/2021 12:15:00 PM 14.83 58.694 0.078 10.48 11.62 9.61
6/22/2021 12:30:00 PM 14.8 58.64 0.078 10.49 11.57 9.63
6/22/2021 12:45:00 PM 14.76 58.568 0.078 10.48 11.73 9.62
6/22/2021 1:00:00 PM 14.72 58.496 0.078 10.48 11.79 9.62
6/22/2021 1:15:00 PM 14.69 58.442 0.078 10.48 11.55 9.65
6/22/2021 1:30:00 PM 14.66 58.388 0.078 10.48 11.69 9.66
6/22/2021 1:45:00 PM 14.65 58.37 0.078 10.48 11.77 9.67
6/22/2021 2:00:00 PM 14.61 58.298 0.078 10.48 11.64 9.67
6/22/2021 2:15:00 PM 14.61 58.298 0.078 10.49 11.74 9.7
6/22/2021 2:30:00 PM 14.61 58.298 0.077 10.5 11.44 9.72
6/22/2021 2:45:00 PM 14.57 58.226 0.078 10.42 12.08 9.67
6/22/2021 3:00:00 PM 14.55 58.19 0.077 10.39 11.7 9.7
6/22/2021 3:15:00 PM 14.54 58.172 0.077 10.52 11.55 9.72
6/22/2021 3:30:00 PM 14.5 58.1 0.077 10.35 11.55 9.68
6/22/2021 3:45:00 PM 14.44 57.992 0.077 10.5 11.56 9.71
6/22/2021 4:00:00 PM 14.43 57.974 0.077 10.49 11.19 9.73
6/22/2021 4:15:00 PM 14.39 57.902 0.077 10.49 11.71 9.74
6/22/2021 4:30:00 PM 14.43 57.974 0.077 10.49 11.22 9.74
6/22/2021 4:45:00 PM 14.4 57.92 0.077 10.49 11.43 9.74
6/22/2021 5:00:00 PM 14.39 57.902 0.077 10.49 11.73 9.74
6/22/2021 5:15:00 PM 14.34 57.812 0.077 10.48 11.5 9.71
6/22/2021 5:30:00 PM 14.3 57.74 0.077 10.47 12.17 9.71
6/22/2021 5:45:00 PM 14.3 57.74 0.077 10.47 11.66 9.74
6/22/2021 6:00:00 PM 14.24 57.632 0.077 10.46 11.83 9.72
6/22/2021 6:15:00 PM 14.21 57.578 0.077 10.46 11.66 9.72
6/22/2021 6:30:00 PM 14.18 57.524 0.077 10.46 11.53 9.73
6/22/2021 6:45:00 PM 14.15 57.47 0.077 10.45 11.44 9.73
6/22/2021 7:00:00 PM 14.12 57.416 0.077 10.45 11.92 9.73
6/22/2021 7:15:00 PM 14.09 57.362 0.077 10.29 11.69 9.72
6/22/2021 7:30:00 PM 14.05 57.29 0.077 10.45 11.85 9.71
6/22/2021 7:45:00 PM 14.02 57.236 0.074 10.4 14.09 9.72
6/22/2021 8:00:00 PM 13.98 57.164 0.077 10.43 11.97 9.72
6/22/2021 8:15:00 PM 13.92 57.056 0.077 10.42 15.13 9.71
6/22/2021 8:30:00 PM 13.85 56.93 0.077 10.42 11.95 9.73
6/22/2021 8:45:00 PM 13.77 56.786 0.077 10.41 12.24 9.74
6/22/2021 9:00:00 PM 13.69 56.642 0.077 10.27 12.21 9.76
6/22/2021 9:15:00 PM 13.6 56.48 0.077 10.34 12.32 9.78
6/22/2021 9:30:00 PM 13.52 56.336 0.077 10.42 12.8 9.8
6/22/2021 9:45:00 PM 13.44 56.192 0.077 10.4 12.6 9.82
6/22/2021 10:00:00 PM 13.36 56.048 0.077 10.39 12.04 9.84
6/22/2021 10:15:00 PM 13.28 55.904 0.077 10.39 12.07 9.86
6/22/2021 10:30:00 PM 13.2 55.76 0.077 10.38 12.18 9.88
6/22/2021 10:45:00 PM 13.12 55.616 0.077 10.27 11.79 9.9
6/22/2021 11:00:00 PM 13.05 55.49 0.077 10.39 11.32 9.92
6/22/2021 11:15:00 PM 12.97 55.346 0.077 10.38 11.36 9.94
6/22/2021 11:30:00 PM 12.89 55.202 0.077 10.38 11.43 9.96
6/22/2021 11:45:00 PM 12.82 55.076 0.077 10.38 11.17 9.98
6/23/2021 12:00:00 AM 12.74 54.932 0.077 10.22 11.16 10
6/23/2021 12:15:00 AM 12.67 54.806 0.077 10.39 11.21 10.02
6/23/2021 12:30:00 AM 12.59 54.662 0.077 10.37 10.94 10.03
6/23/2021 12:45:00 AM 12.51 54.518 0.077 10.37 10.69 10.06
6/23/2021 1:00:00 AM 12.43 54.374 0.077 10.37 10.69 10.08
6/23/2021 1:15:00 AM 12.36 54.248 0.077 10.37 10.34 10.1
6/23/2021 1:30:00 AM 12.3 54.14 0.077 10.36 10.4 10.11
6/23/2021 1:45:00 AM 12.23 54.014 0.077 10.36 10.22 10.13
6/23/2021 2:00:00 AM 12.16 53.888 0.077 10.36 10.2 10.15
6/23/2021 2:15:00 AM 12.08 53.744 0.077 10.36 10.22 10.17
6/23/2021 2:30:00 AM 12.01 53.618 0.077 10.36 10.2 10.18
6/23/2021 2:45:00 AM 11.95 53.51 0.077 10.36 10.07 10.21
6/23/2021 3:00:00 AM 11.89 53.402 0.077 10.36 10.06 10.22
6/23/2021 3:15:00 AM 11.83 53.294 0.077 10.36 9.82 10.24
6/23/2021 3:30:00 AM 11.76 53.168 0.077 10.36 9.77 10.26
6/23/2021 3:45:00 AM 11.7 53.06 0.077 10.36 9.78 10.27
6/23/2021 4:00:00 AM 11.65 52.97 0.077 10.36 9.71 10.29
6/23/2021 4:15:00 AM 11.59 52.862 0.077 10.35 9.59 10.3
6/23/2021 4:30:00 AM 11.53 52.754 0.077 10.35 10.12 10.32
6/23/2021 4:45:00 AM 11.48 52.664 0.077 10.35 10.48 10.33
6/23/2021 5:00:00 AM 11.43 52.574 0.077 10.35 9.8 10.36
6/23/2021 5:15:00 AM 11.39 52.502 0.077 10.35 9.7 10.36
6/23/2021 5:30:00 AM 11.34 52.412 0.077 10.35 10.01 10.37
6/23/2021 5:45:00 AM 11.31 52.358 0.077 10.35 9.7 10.39
6/23/2021 6:00:00 AM 11.27 52.286 0.077 10.35 9.74 10.42
6/23/2021 6:15:00 AM 11.24 52.232 0.077 10.36 9.73 10.43
6/23/2021 6:30:00 AM 11.21 52.178 0.077 10.36 9.61 10.44
6/23/2021 6:45:00 AM 11.18 52.124 0.077 10.36 9.88 10.47
6/23/2021 7:00:00 AM 11.15 52.07 0.077 10.35 9.71 10.5
6/23/2021 7:15:00 AM 11.13 52.034 0.076 10.37 10.59 10.51
6/23/2021 7:30:00 AM 11.12 52.016 0.076 10.38 9.89 10.53
6/23/2021 7:45:00 AM 11.12 52.016 0.076 10.38 10.07 10.53
6/23/2021 8:00:00 AM 11.16 52.088 0.076 10.38 9.89 10.52
6/23/2021 8:15:00 AM 11.2 52.16 0.076 10.37 10.04 10.51
6/23/2021 8:30:00 AM 11.26 52.268 0.076 10.39 9.98 10.52
6/23/2021 8:45:00 AM 11.34 52.412 0.076 10.39 10.18 10.52
6/23/2021 9:00:00 AM 11.45 52.61 0.076 10.4 10.24 10.51
6/23/2021 9:15:00 AM 11.58 52.844 0.076 10.4 10.02 10.5
6/23/2021 9:30:00 AM 11.71 53.078 0.076 10.41 10.23 10.49
6/23/2021 9:45:00 AM 11.8 53.24 0.076 10.42 9.97 10.47
6/23/2021 10:00:00 AM 11.99 53.582 0.076 10.43 10.11 10.46
6/23/2021 10:15:00 AM 12.17 53.906 0.076 10.44 10.16 10.43
6/23/2021 10:30:00 AM 12.23 54.014 0.076 10.44 10.35 10.41
6/23/2021 10:45:00 AM 12.36 54.248 0.076 10.45 10.61 10.39
6/23/2021 11:00:00 AM 12.46 54.428 0.076 10.45 10.17 10.35
6/23/2021 11:15:00 AM 12.52 54.536 0.076 10.46 10.63 10.33
6/23/2021 11:30:00 AM 12.79 55.022 0.076 10.31 10.53 10.32
6/23/2021 11:45:00 AM 12.99 55.382 0.076 10.39 10.71 10.26
6/23/2021 12:00:00 PM 13.21 55.778 0.076 10.5 10.93 10.22
6/23/2021 12:15:00 PM 13.19 55.742 0.076 10.48 10.81 10.2
6/23/2021 12:30:00 PM 13.32 55.976 0.076 10.49 11.07 10.18
6/23/2021 12:45:00 PM 13.39 56.102 0.076 10.48 11.21 10.17
6/23/2021 1:00:00 PM 13.25 55.85 0.076 10.48 11.34 10.11
6/23/2021 1:15:00 PM 13.25 55.85 0.076 10.47 11.8 10.12
6/23/2021 1:30:00 PM 13.45 56.21 0.076 10.33 11.65 10.14
6/23/2021 1:45:00 PM 13.5 56.3 0.076 10.5 11 10.1
6/23/2021 2:00:00 PM 13.6 56.48 0.076 10.49 11.39 10.1
6/23/2021 2:15:00 PM 13.71 56.678 0.075 10.48 11.26 10.07
6/23/2021 2:30:00 PM 13.81 56.858 0.075 10.49 11.5 10.04
6/23/2021 2:45:00 PM 13.81 56.858 0.075 10.34 11.47 10.01
6/23/2021 3:00:00 PM 13.9 57.02 0.075 10.5 11.38 10.02
6/23/2021 3:15:00 PM 13.97 57.146 0.075 10.49 11.51 9.98
6/23/2021 3:30:00 PM 13.98 57.164 0.075 10.48 11.5 9.97
6/23/2021 3:45:00 PM 13.97 57.146 0.075 10.47 12.03 9.97
6/23/2021 4:00:00 PM 14.03 57.254 0.075 10.48 13.87 9.95
6/23/2021 4:15:00 PM 14.02 57.236 0.076 10.33 11.67 9.92
6/23/2021 4:30:00 PM 13.95 57.11 0.076 10.43 12 9.9
6/23/2021 4:45:00 PM 13.92 57.056 0.076 10.46 11.96 9.92
6/23/2021 5:00:00 PM 13.95 57.11 0.076 10.45 11.92 9.93
6/23/2021 5:15:00 PM 13.94 57.092 0.076 10.44 12.19 9.92
6/23/2021 5:30:00 PM 13.91 57.038 0.076 10.31 11.65 9.92
6/23/2021 5:45:00 PM 13.92 57.056 0.076 10.42 12.28 9.92
6/23/2021 6:00:00 PM 13.91 57.038 0.076 10.45 12.21 9.9
6/23/2021 6:15:00 PM 13.87 56.966 0.076 10.43 11.87 9.89
6/23/2021 6:30:00 PM 13.86 56.948 0.076 10.42 11.58 9.88
6/23/2021 6:45:00 PM 13.81 56.858 0.076 10.4 12.14 9.86
6/23/2021 7:00:00 PM 13.79 56.822 0.076 10.39 12.44 9.88
6/23/2021 7:15:00 PM 13.77 56.786 0.076 10.38 12.35 9.86
6/23/2021 7:30:00 PM 13.75 56.75 0.091 10.36 11.81 9.86
6/23/2021 7:45:00 PM 13.74 56.732 0.083 10.37 12.16 9.87
6/23/2021 8:00:00 PM 13.72 56.696 0.078 10.37 12.24 9.87
6/23/2021 8:15:00 PM 13.7 56.66 0.077 10.37 11.74 9.85
6/23/2021 8:30:00 PM 13.66 56.588 0.098 10.35 12.07 9.85
6/23/2021 8:45:00 PM 13.62 56.516 0.085 10.37 12.01 9.85
6/23/2021 9:00:00 PM 13.58 56.444 0.079 10.37 12.89 9.86
6/23/2021 9:15:00 PM 13.53 56.354 0.088 10.37 12.8 9.87
6/23/2021 9:30:00 PM 13.48 56.264 0.081 10.37 12.06 9.88
6/23/2021 9:45:00 PM 13.43 56.174 0.078 10.37 12.36 9.89
6/23/2021 10:00:00 PM 13.38 56.084 0.078 10.37 12.15 9.91
6/23/2021 10:15:00 PM 13.33 55.994 0.078 10.37 12.45 9.92
6/23/2021 10:30:00 PM 13.27 55.886 0.078 10.37 12.32 9.94
6/23/2021 10:45:00 PM 13.21 55.778 0.077 10.37 12.04 9.95
6/23/2021 11:00:00 PM 13.16 55.688 0.077 10.37 12.44 9.96
6/23/2021 11:15:00 PM 13.11 55.598 0.077 10.37 11.81 9.98
6/23/2021 11:30:00 PM 13.06 55.508 0.077 10.37 11.87 9.99
6/23/2021 11:45:00 PM 13 55.4 0.077 10.37 11.95 10
6/24/2021 12:00:00 AM 12.94 55.292 0.077 10.36 11.6 10.02
6/24/2021 12:15:00 AM 12.88 55.184 0.077 10.21 11.33 10.03
6/24/2021 12:30:00 AM 12.83 55.094 0.077 10.38 11.68 10.05
6/24/2021 12:45:00 AM 12.77 54.986 0.077 10.36 11.54 10.06
6/24/2021 1:00:00 AM 12.72 54.896 0.077 10.36 11.14 10.08
6/24/2021 1:15:00 AM 12.66 54.788 0.077 10.36 11.01 10.09
6/24/2021 1:30:00 AM 12.6 54.68 0.077 10.36 11.47 10.11
6/24/2021 1:45:00 AM 12.54 54.572 0.077 10.36 11.33 10.12
6/24/2021 2:00:00 AM 12.49 54.482 0.077 10.21 11.01 10.14
6/24/2021 2:15:00 AM 12.43 54.374 0.077 10.37 10.95 10.15
6/24/2021 2:30:00 AM 12.38 54.284 0.077 10.36 10.92 10.17
6/24/2021 2:45:00 AM 12.32 54.176 0.077 10.35 11.35 10.18
6/24/2021 3:00:00 AM 12.26 54.068 0.077 10.35 11.19 10.19
6/24/2021 3:15:00 AM 12.21 53.978 0.077 10.35 10.9 10.21
6/24/2021 3:30:00 AM 12.15 53.87 0.077 10.35 10.58 10.23
6/24/2021 3:45:00 AM 12.1 53.78 0.077 10.35 10.36 10.24
6/24/2021 4:00:00 AM 12.04 53.672 0.077 10.35 10.56 10.25
6/24/2021 4:15:00 AM 11.99 53.582 0.077 10.34 11.03 10.26
6/24/2021 4:30:00 AM 11.94 53.492 0.077 10.34 10.23 10.28
6/24/2021 4:45:00 AM 11.88 53.384 0.074 10.37 12.62 10.29
6/24/2021 5:00:00 AM 11.83 53.294 0.077 10.34 10.7 10.31
6/24/2021 5:15:00 AM 11.78 53.204 0.077 10.34 10.19 10.32
6/24/2021 5:30:00 AM 11.73 53.114 0.077 10.34 9.98 10.33
6/24/2021 5:45:00 AM 11.68 53.024 0.077 10.34 10.22 10.35
6/24/2021 6:00:00 AM 11.63 52.934 0.077 10.34 10.21 10.38
6/24/2021 6:15:00 AM 11.6 52.88 0.077 10.34 10.52 10.39
6/24/2021 6:30:00 AM 11.58 52.844 0.077 10.35 10.41 10.4
6/24/2021 6:45:00 AM 11.56 52.808 0.077 10.35 11.16 10.42
6/24/2021 7:00:00 AM 11.55 52.79 0.077 10.35 10.68 10.43
6/24/2021 7:15:00 AM 11.55 52.79 0.077 10.36 10.97 10.45
6/24/2021 7:30:00 AM 11.56 52.808 0.077 10.36 10.3 10.44
6/24/2021 7:45:00 AM 11.59 52.862 0.077 10.36 10.62 10.44
6/24/2021 8:00:00 AM 11.65 52.97 0.077 10.37 10.56 10.45
6/24/2021 8:15:00 AM 11.71 53.078 0.077 10.37 10.39 10.44
6/24/2021 8:30:00 AM 11.79 53.222 0.077 10.38 10.41 10.43
6/24/2021 8:45:00 AM 11.89 53.402 0.076 10.39 10.25 10.42
6/24/2021 9:00:00 AM 12.02 53.636 0.076 10.39 10.69 10.42
6/24/2021 9:15:00 AM 12.15 53.87 0.076 10.4 10.28 10.41
6/24/2021 9:30:00 AM 12.31 54.158 0.076 10.41 10.6 10.39
6/24/2021 9:45:00 AM 12.49 54.482 0.076 10.43 10.36 10.37
6/24/2021 10:00:00 AM 12.69 54.842 0.076 10.44 10.72 10.34
6/24/2021 10:15:00 AM 12.88 55.184 0.076 10.29 14.34 10.31
6/24/2021 10:30:00 AM 13.08 55.544 0.076 10.47 11.2 10.28
6/24/2021 10:45:00 AM 13.29 55.922 0.076 10.47 11.35 10.24
6/24/2021 11:00:00 AM 13.53 56.354 0.076 10.47 10.95 10.2
6/24/2021 11:15:00 AM 13.77 56.786 0.076 10.33 11.22 10.15
6/24/2021 11:30:00 AM 14 57.2 0.076 10.51 11.25 10.1
6/24/2021 11:45:00 AM 14.19 57.542 0.076 10.5 11.08 10.06
6/24/2021 12:00:00 PM 14.34 57.812 0.076 10.5 11.71 10.02
6/24/2021 12:15:00 PM 14.48 58.064 0.076 10.46 11.94 9.99
6/24/2021 12:30:00 PM 14.6 58.28 0.076 10.52 12.01 9.96
6/24/2021 12:45:00 PM 14.72 58.496 0.076 10.51 12.19 9.93
6/24/2021 1:00:00 PM 14.79 58.622 0.076 10.51 11.6 9.9
6/24/2021 1:15:00 PM 14.85 58.73 0.076 10.48 11.47 9.87
6/24/2021 1:30:00 PM 14.92 58.856 0.076 10.52 11.75 9.85
6/24/2021 1:45:00 PM 14.97 58.946 0.076 10.51 11.74 9.82
6/24/2021 2:00:00 PM 15.01 59.018 0.076 10.51 11.83 9.81
6/24/2021 2:15:00 PM 15.05 59.09 0.076 10.51 12.02 9.79
6/24/2021 2:30:00 PM 15.08 59.144 0.076 10.5 11.9 9.77
6/24/2021 2:45:00 PM 15.09 59.162 0.076 10.5 11.6 9.76
6/24/2021 3:00:00 PM 15.1 59.18 0.076 10.5 11.43 9.75
6/24/2021 3:15:00 PM 15.1 59.18 0.076 10.5 11.13 9.73
6/24/2021 3:30:00 PM 15.1 59.18 0.076 10.49 11.26 9.73
6/24/2021 3:45:00 PM 15.11 59.198 0.076 10.49 11.35 9.71
6/24/2021 4:00:00 PM 15.1 59.18 0.076 10.49 11.05 9.71
6/24/2021 4:15:00 PM 15.08 59.144 0.076 10.49 11.41 9.7
6/24/2021 4:30:00 PM 15.05 59.09 0.076 10.48 11.25 9.69
6/24/2021 4:45:00 PM 15.01 59.018 0.077 10.48 11.95 9.69
6/24/2021 5:00:00 PM 14.98 58.964 0.077 10.32 11.81 9.69
6/24/2021 5:15:00 PM 14.93 58.874 0.077 10.48 11.7 9.69
6/24/2021 5:30:00 PM 14.88 58.784 0.077 10.46 12.58 9.69
6/24/2021 5:45:00 PM 14.83 58.694 0.077 10.45 11.98 9.68
6/24/2021 6:00:00 PM 14.78 58.604 0.077 10.45 11.68 9.68
6/24/2021 6:15:00 PM 14.73 58.514 0.077 10.44 11.93 9.68
6/24/2021 6:30:00 PM 14.7 58.46 0.077 10.44 11.96 9.69
6/24/2021 6:45:00 PM 14.65 58.37 0.077 10.43 12.04 9.68
6/24/2021 7:00:00 PM 14.6 58.28 0.077 10.42 11.76 9.67
6/24/2021 7:15:00 PM 14.57 58.226 0.077 10.41 12.47 9.67
6/24/2021 7:30:00 PM 14.54 58.172 0.077 10.39 12.24 9.67
6/24/2021 7:45:00 PM 14.51 58.118 0.077 10.38 12.95 9.67
6/24/2021 8:00:00 PM 14.48 58.064 0.077 10.23 11.64 9.67
6/24/2021 8:15:00 PM 14.44 57.992 0.077 10.37 11.56 9.66
6/24/2021 8:30:00 PM 14.41 57.938 0.078 10.38 11.37 9.67
6/24/2021 8:45:00 PM 14.36 57.848 0.078 10.37 11.23 9.66
6/24/2021 9:00:00 PM 14.32 57.776 0.078 10.37 11.44 9.67
6/24/2021 9:15:00 PM 14.28 57.704 0.078 10.36 11.62 9.67
6/24/2021 9:30:00 PM 14.24 57.632 0.078 10.36 12.03 9.69
6/24/2021 9:45:00 PM 14.2 57.56 0.078 10.36 12.2 9.7
6/24/2021 10:00:00 PM 14.16 57.488 0.078 10.36 11.65 9.7
6/24/2021 10:15:00 PM 14.12 57.416 0.078 10.36 11.9 9.72
6/24/2021 10:30:00 PM 14.07 57.326 0.078 10.36 11.63 9.73
6/24/2021 10:45:00 PM 14.03 57.254 0.078 10.37 11.71 9.73
6/24/2021 11:00:00 PM 13.98 57.164 0.078 10.37 11.21 9.75
6/24/2021 11:15:00 PM 13.93 57.074 0.078 10.37 11.34 9.75
6/24/2021 11:30:00 PM 13.89 57.002 0.078 10.37 11.33 9.77
6/24/2021 11:45:00 PM 13.84 56.912 0.078 10.37 10.97 9.77
6/25/2021 12:00:00 AM 13.8 56.84 0.078 10.37 10.69 9.79
6/25/2021 12:15:00 AM 13.75 56.75 0.078 10.37 10.64 9.8
6/25/2021 12:30:00 AM 13.71 56.678 0.078 10.37 10.65 9.82
6/25/2021 12:45:00 AM 13.67 56.606 0.078 10.36 10.52 9.82
6/25/2021 1:00:00 AM 13.63 56.534 0.078 10.36 10.56 9.83
6/25/2021 1:15:00 AM 13.59 56.462 0.078 10.36 10.75 9.83
6/25/2021 1:30:00 AM 13.55 56.39 0.078 10.36 10.66 9.85
6/25/2021 1:45:00 AM 13.52 56.336 0.078 10.36 10.48 9.86
6/25/2021 2:00:00 AM 13.49 56.282 0.078 10.36 10.59 9.86
6/25/2021 2:15:00 AM 13.45 56.21 0.078 10.36 10.62 9.87
6/25/2021 2:30:00 AM 13.41 56.138 0.078 10.36 10.66 9.88
6/25/2021 2:45:00 AM 13.37 56.066 0.078 10.36 10.84 9.89
6/25/2021 3:00:00 AM 13.33 55.994 0.078 10.21 11.15 9.9
6/25/2021 3:15:00 AM 13.29 55.922 0.078 10.38 11.03 9.91
6/25/2021 3:30:00 AM 13.24 55.832 0.078 10.37 10.77 9.92
6/25/2021 3:45:00 AM 13.2 55.76 0.078 10.36 10.21 9.93
6/25/2021 4:00:00 AM 13.16 55.688 0.078 10.36 10.6 9.94
6/25/2021 4:15:00 AM 13.12 55.616 0.078 10.36 10.16 9.96
6/25/2021 4:30:00 AM 13.08 55.544 0.078 10.31 10.51 9.97
6/25/2021 4:45:00 AM 13.04 55.472 0.078 10.36 10.44 9.97
6/25/2021 5:00:00 AM 13.02 55.436 0.078 10.36 10.3 9.98
6/25/2021 5:15:00 AM 13 55.4 0.078 10.36 10.59 9.99
6/25/2021 5:30:00 AM 12.98 55.364 0.078 10.35 10.18 10
6/25/2021 5:45:00 AM 12.96 55.328 0.078 10.36 10.34 10.01
6/25/2021 6:00:00 AM 12.92 55.256 0.078 10.36 10.28 10.02
6/25/2021 6:15:00 AM 12.92 55.256 0.078 10.36 10.79 10.04
6/25/2021 6:30:00 AM 12.91 55.238 0.078 10.37 10.62 10.05
6/25/2021 6:45:00 AM 12.91 55.238 0.078 10.37 10.8 10.07
6/25/2021 7:00:00 AM 12.91 55.238 0.078 10.38 10.25 10.08
6/25/2021 7:15:00 AM 12.94 55.292 0.078 10.39 10.94 10.09
6/25/2021 7:30:00 AM 12.98 55.364 0.078 10.24 10.86 10.09
6/25/2021 7:45:00 AM 13.04 55.472 0.078 10.41 10.96 10.1
6/25/2021 8:00:00 AM 13.1 55.58 0.078 10.41 11.08 10.1
6/25/2021 8:15:00 AM 13.16 55.688 0.078 10.42 10.57 10.1
6/25/2021 8:30:00 AM 13.22 55.796 0.078 10.42 10.91 10.1
6/25/2021 8:45:00 AM 13.3 55.94 0.077 10.28 11.01 10.1
6/25/2021 9:00:00 AM 13.39 56.102 0.077 10.46 10.65 10.1
6/25/2021 9:15:00 AM 13.49 56.282 0.077 10.45 10.87 10.09
6/25/2021 9:30:00 AM 13.6 56.48 0.077 10.46 11.04 10.09
6/25/2021 9:45:00 AM 13.73 56.714 0.077 10.33 11.31 10.08
6/25/2021 10:00:00 AM 13.89 57.002 0.077 10.5 11.15 10.07
6/25/2021 10:15:00 AM 14.05 57.29 0.077 10.5 11.46 10.05
6/25/2021 10:30:00 AM 14.2 57.56 0.077 10.51 10.92 10.03
6/25/2021 10:45:00 AM 14.37 57.866 0.077 10.38 11.5 10
6/25/2021 11:00:00 AM 14.54 58.172 0.077 10.51 11.47 9.97
6/25/2021 11:15:00 AM 14.63 58.334 0.077 10.54 11.26 9.95
6/25/2021 11:30:00 AM 14.9 58.82 0.077 10.55 10.92 9.92
6/25/2021 11:45:00 AM 15.11 59.198 0.077 10.55 11.2 9.87
6/25/2021 12:00:00 PM 15.25 59.45 0.073 10.53 13.38 9.84
6/25/2021 12:15:00 PM 15.39 59.702 0.077 10.56 11.16 9.81
6/25/2021 12:30:00 PM 15.52 59.936 0.077 10.56 11.15 9.77
6/25/2021 12:45:00 PM 15.63 60.134 0.077 10.56 11.12 9.73
6/25/2021 1:00:00 PM 15.69 60.242 0.077 10.56 11.06 9.72
6/25/2021 1:15:00 PM 15.82 60.476 0.077 10.58 10.9 9.71
6/25/2021 1:30:00 PM 15.9 60.62 0.077 10.58 11.29 9.68
6/25/2021 1:45:00 PM 15.9 60.62 0.077 10.58 11.42 9.67
6/25/2021 2:00:00 PM 15.95 60.71 0.077 10.58 11.21 9.67
6/25/2021 2:15:00 PM 15.95 60.71 0.077 10.58 10.84 9.64
6/25/2021 2:30:00 PM 15.99 60.782 0.077 10.57 11.1 9.64
6/25/2021 2:45:00 PM 16.01 60.818 0.077 10.57 10.97 9.61
6/25/2021 3:00:00 PM 16.07 60.926 0.077 10.56 11.04 9.58
6/25/2021 3:15:00 PM 16.15 61.07 0.077 10.55 11.1 9.53
6/25/2021 3:30:00 PM 16.19 61.142 0.077 10.54 10.9 9.49
6/25/2021 3:45:00 PM 16.2 61.16 0.077 10.53 11.07 9.46
6/25/2021 4:00:00 PM 16.2 61.16 0.077 10.52 11.11 9.46
6/25/2021 4:15:00 PM 16.19 61.142 0.077 10.52 11.1 9.46
6/25/2021 4:30:00 PM 16.16 61.088 0.077 10.37 10.72 9.45
6/25/2021 4:45:00 PM 16.1 60.98 0.077 10.43 11.1 9.45
6/25/2021 5:00:00 PM 16.06 60.908 0.077 10.52 11.97 9.47
6/25/2021 5:15:00 PM 16.04 60.872 0.077 10.51 11.37 9.48
6/25/2021 5:30:00 PM 16.02 60.836 0.078 10.51 11.72 9.47
6/25/2021 5:45:00 PM 15.98 60.764 0.078 10.36 11.67 9.47
6/25/2021 6:00:00 PM 15.92 60.656 0.078 10.5 11.21 9.44
6/25/2021 6:15:00 PM 15.88 60.584 0.078 10.48 11.54 9.43
6/25/2021 6:30:00 PM 15.85 60.53 0.078 10.47 11.53 9.44
6/25/2021 6:45:00 PM 15.83 60.494 0.078 10.46 11.81 9.44
6/25/2021 7:00:00 PM 15.8 60.44 0.078 10.46 11.54 9.41
6/25/2021 7:15:00 PM 15.75 60.35 0.078 10.43 11.21 9.37
6/25/2021 7:30:00 PM 15.68 60.224 0.078 10.27 11.2 9.36
6/25/2021 7:45:00 PM 15.64 60.152 0.078 10.42 11.62 9.36
6/25/2021 8:00:00 PM 15.59 60.062 0.078 10.4 11.6 9.37
6/25/2021 8:15:00 PM 15.55 59.99 0.079 10.39 12.27 9.38
6/25/2021 8:30:00 PM 15.51 59.918 0.079 10.38 11.83 9.38
6/25/2021 8:45:00 PM 15.46 59.828 0.079 10.37 12.08 9.37
6/25/2021 9:00:00 PM 15.42 59.756 0.079 10.37 11.84 9.38
6/25/2021 9:15:00 PM 15.37 59.666 0.079 10.37 12 9.39
6/25/2021 9:30:00 PM 15.33 59.594 0.079 10.37 12.08 9.39
6/25/2021 9:45:00 PM 15.29 59.522 0.079 10.37 11.91 9.4
6/25/2021 10:00:00 PM 15.26 59.468 0.079 10.37 11.98 9.4
6/25/2021 10:15:00 PM 15.22 59.396 0.079 10.37 12.21 9.41
6/25/2021 10:30:00 PM 15.19 59.342 0.079 10.37 11.47 9.42
6/25/2021 10:45:00 PM 15.15 59.27 0.079 10.37 11.44 9.42
6/25/2021 11:00:00 PM 15.12 59.216 0.079 10.37 11.77 9.44
6/25/2021 11:15:00 PM 15.09 59.162 0.079 10.37 11.09 9.44
6/25/2021 11:30:00 PM 15.06 59.108 0.079 10.37 11.1 9.45
6/25/2021 11:45:00 PM 15.04 59.072 0.079 10.22 11.55 9.45
6/26/2021 12:00:00 AM 15.02 59.036 0.079 10.38 10.95 9.45
6/26/2021 12:15:00 AM 15 59 0.079 10.37 11.22 9.46
6/26/2021 12:30:00 AM 14.99 58.982 0.079 10.36 10.86 9.47
6/26/2021 12:45:00 AM 14.99 58.982 0.079 10.36 10.89 9.47
6/26/2021 1:00:00 AM 14.98 58.964 0.079 10.35 11.19 9.47
6/26/2021 1:15:00 AM 14.97 58.946 0.08 10.35 11.45 9.47
6/26/2021 1:30:00 AM 14.97 58.946 0.08 10.35 11.3 9.47
6/26/2021 1:45:00 AM 14.96 58.928 0.08 10.35 10.89 9.48
6/26/2021 2:00:00 AM 14.95 58.91 0.076 10.31 13.08 9.47
6/26/2021 2:15:00 AM 14.94 58.892 0.08 10.34 11.12 9.47
6/26/2021 2:30:00 AM 14.93 58.874 0.08 10.34 12.04 9.47
6/26/2021 2:45:00 AM 14.92 58.856 0.08 10.34 10.58 9.48
6/26/2021 3:00:00 AM 14.91 58.838 0.08 10.34 11.34 9.48
6/26/2021 3:15:00 AM 14.9 58.82 0.08 10.34 10.69 9.48
6/26/2021 3:30:00 AM 14.89 58.802 0.08 10.34 10.74 9.48
6/26/2021 3:45:00 AM 14.88 58.784 0.08 10.33 10.59 9.48
6/26/2021 4:00:00 AM 14.87 58.766 0.08 10.33 10.6 9.49
6/26/2021 4:15:00 AM 14.86 58.748 0.08 10.34 10.54 9.49
6/26/2021 4:30:00 AM 14.86 58.748 0.08 10.35 10.36 9.49
6/26/2021 4:45:00 AM 14.86 58.748 0.08 10.36 10.54 9.5
6/26/2021 5:00:00 AM 14.86 58.748 0.08 10.36 10.78 9.49
6/26/2021 5:15:00 AM 14.87 58.766 0.08 10.36 10.59 9.49
6/26/2021 5:30:00 AM 14.88 58.784 0.08 10.21 10.53 9.49
6/26/2021 5:45:00 AM 14.88 58.784 0.08 10.38 10.83 9.49
6/26/2021 6:00:00 AM 14.88 58.784 0.08 10.36 10.74 9.5
6/26/2021 6:15:00 AM 14.9 58.82 0.08 10.36 10.88 9.51
6/26/2021 6:30:00 AM 14.91 58.838 0.079 10.36 11.19 9.51
6/26/2021 6:45:00 AM 14.93 58.874 0.079 10.37 11.5 9.52
6/26/2021 7:00:00 AM 14.95 58.91 0.079 10.37 11.42 9.54
6/26/2021 7:15:00 AM 14.97 58.946 0.079 10.37 11.25 9.54
6/26/2021 7:30:00 AM 15 59 0.079 10.38 11.28 9.54
6/26/2021 7:45:00 AM 15.02 59.036 0.079 10.38 11.53 9.55
6/26/2021 8:00:00 AM 15.06 59.108 0.079 10.4 11.52 9.58
6/26/2021 8:15:00 AM 15.1 59.18 0.079 10.4 11.22 9.6
6/26/2021 8:30:00 AM 15.15 59.27 0.079 10.41 11.11 9.59
6/26/2021 8:45:00 AM 15.19 59.342 0.079 10.43 11.59 9.58
6/26/2021 9:00:00 AM 15.25 59.45 0.079 10.44 11.42 9.61
6/26/2021 9:15:00 AM 15.3 59.54 0.079 10.45 11.32 9.62
6/26/2021 9:30:00 AM 15.36 59.648 0.079 10.47 11.76 9.62
6/26/2021 9:45:00 AM 15.49 59.882 0.079 10.48 11.02 9.64
6/26/2021 10:00:00 AM 15.67 60.206 0.079 10.52 11.14 9.66
6/26/2021 10:15:00 AM 15.78 60.404 0.079 10.53 11.51 9.64
6/26/2021 10:30:00 AM 15.89 60.602 0.078 10.53 11.39 9.6
6/26/2021 10:45:00 AM 15.94 60.692 0.078 10.39 11.06 9.57
6/26/2021 11:00:00 AM 15.99 60.782 0.078 10.55 11.14 9.56
6/26/2021 11:15:00 AM 16.13 61.034 0.078 10.54 11.05 9.58
6/26/2021 11:30:00 AM 16.47 61.646 0.078 10.57 11.07 9.55
6/26/2021 11:45:00 AM 16.77 62.186 0.078 10.58 11.5 9.5
6/26/2021 12:00:00 PM 16.93 62.474 0.078 10.45 11.44 9.45
6/26/2021 12:15:00 PM 17.14 62.852 0.078 10.6 11.38 9.4
6/26/2021 12:30:00 PM 17.36 63.248 0.078 10.59 10.67 9.36
6/26/2021 12:45:00 PM 17.53 63.554 0.078 10.6 10.78 9.31
6/26/2021 1:00:00 PM 17.65 63.77 0.078 10.61 10.81 9.32
6/26/2021 1:15:00 PM 17.79 64.022 0.078 10.62 10.74 9.32
6/26/2021 1:30:00 PM 17.78 64.004 0.078 10.62 11.79 9.25
6/26/2021 1:45:00 PM 17.68 63.824 0.078 10.58 11.2 9.21
6/26/2021 2:00:00 PM 17.72 63.896 0.078 10.59 11.05 9.26
6/26/2021 2:15:00 PM 17.65 63.77 0.078 10.58 11.38 9.23
6/26/2021 2:30:00 PM 17.84 64.112 0.078 10.6 12.33 9.26
6/26/2021 2:45:00 PM 17.9 64.22 0.078 10.61 11.52 9.23
6/26/2021 3:00:00 PM 17.98 64.364 0.078 10.61 11.83 9.2
6/26/2021 3:15:00 PM 18.07 64.526 0.078 10.49 11.56 9.19
6/26/2021 3:30:00 PM 18.06 64.508 0.079 10.61 11.85 9.13
6/26/2021 3:45:00 PM 18.09 64.562 0.079 10.59 11.47 9.1
6/26/2021 4:00:00 PM 18.09 64.562 0.079 10.59 11.3 9.11
6/26/2021 4:15:00 PM 18.08 64.544 0.079 10.59 11.6 9.1
6/26/2021 4:30:00 PM 18.07 64.526 0.076 10.56 13.61 9.1
6/26/2021 4:45:00 PM 18.02 64.436 0.079 10.57 12.11 9.08
6/26/2021 5:00:00 PM 17.99 64.382 0.079 10.43 11.88 9.07
6/26/2021 5:15:00 PM 18 64.4 0.079 10.57 11.74 9.07
6/26/2021 5:30:00 PM 17.96 64.328 0.079 10.54 11.6 9.02
6/26/2021 5:45:00 PM 17.93 64.274 0.079 10.53 11.68 9.01
6/26/2021 6:00:00 PM 17.89 64.202 0.08 10.39 11.64 9
6/26/2021 6:15:00 PM 17.83 64.094 0.08 10.51 11.72 8.97
6/26/2021 6:30:00 PM 17.79 64.022 0.08 10.49 11.83 8.97
6/26/2021 6:45:00 PM 17.74 63.932 0.08 10.48 11.69 8.95
6/26/2021 7:00:00 PM 17.69 63.842 0.08 10.47 12.43 8.94
6/26/2021 7:15:00 PM 17.64 63.752 0.08 10.45 12.47 8.94
6/26/2021 7:30:00 PM 17.59 63.662 0.08 10.43 12.73 8.94
6/26/2021 7:45:00 PM 17.54 63.572 0.08 10.42 21.56 8.93
6/26/2021 8:00:00 PM 17.48 63.464 0.08 10.4 12.64 8.93
6/26/2021 8:15:00 PM 17.44 63.392 0.08 10.4 12.54 8.94
6/26/2021 8:30:00 PM 17.39 63.302 0.08 10.39 12.45 8.94
6/26/2021 8:45:00 PM 17.34 63.212 0.08 10.38 12.69 8.94
6/26/2021 9:00:00 PM 17.3 63.14 0.081 10.38 12.5 8.94
6/26/2021 9:15:00 PM 17.26 63.068 0.081 10.24 13.39 8.94
6/26/2021 9:30:00 PM 17.22 62.996 0.081 10.38 13.43 8.95
6/26/2021 9:45:00 PM 17.18 62.924 0.081 10.37 13.59 8.96
6/26/2021 10:00:00 PM 17.13 62.834 0.081 10.36 13.95 8.97
6/26/2021 10:15:00 PM 17.1 62.78 0.081 10.36 13.25 8.98
6/26/2021 10:30:00 PM 17.06 62.708 0.081 10.36 13.27 8.99
6/26/2021 10:45:00 PM 17.02 62.636 0.081 10.36 12.65 9
6/26/2021 11:00:00 PM 16.99 62.582 0.081 10.36 12.47 9.01
6/26/2021 11:15:00 PM 16.96 62.528 0.081 10.36 12.1 9.01
6/26/2021 11:30:00 PM 16.93 62.474 0.081 10.36 12.53 9.02
6/26/2021 11:45:00 PM 16.9 62.42 0.081 10.36 12.81 9.02
6/27/2021 12:00:00 AM 16.87 62.366 0.081 10.36 13.1 9.03
6/27/2021 12:15:00 AM 16.84 62.312 0.081 10.33 12.82 9.04
6/27/2021 12:30:00 AM 16.81 62.258 0.081 10.36 14.34 9.04
6/27/2021 12:45:00 AM 16.78 62.204 0.081 10.36 12.46 9.04
6/27/2021 1:00:00 AM 16.76 62.168 0.081 10.36 11.81 9.05
6/27/2021 1:15:00 AM 16.73 62.114 0.081 10.35 12.33 9.06
6/27/2021 1:30:00 AM 16.71 62.078 0.081 10.35 12.61 9.06
6/27/2021 1:45:00 AM 16.68 62.024 0.082 10.35 12.75 9.07
6/27/2021 2:00:00 AM 16.66 61.988 0.082 10.35 12.45 9.07
6/27/2021 2:15:00 AM 16.64 61.952 0.082 10.35 12.49 9.08
6/27/2021 2:30:00 AM 16.62 61.916 0.082 10.35 12.51 9.08
6/27/2021 2:45:00 AM 16.59 61.862 0.082 10.35 12.5 9.09
6/27/2021 3:00:00 AM 16.58 61.844 0.082 10.35 12.29 9.09
6/27/2021 3:15:00 AM 16.55 61.79 0.082 10.35 12.61 9.1
6/27/2021 3:30:00 AM 16.53 61.754 0.082 10.34 12.98 9.1
6/27/2021 3:45:00 AM 16.51 61.718 0.082 10.34 12.44 9.11
6/27/2021 4:00:00 AM 16.49 61.682 0.082 10.25 12.39 9.12
6/27/2021 4:15:00 AM 16.47 61.646 0.082 10.36 12.13 9.12
6/27/2021 4:30:00 AM 16.45 61.61 0.082 10.35 12.35 9.13
6/27/2021 4:45:00 AM 16.43 61.574 0.082 10.34 12.45 9.13
6/27/2021 5:00:00 AM 16.41 61.538 0.082 10.34 12.63 9.13
6/27/2021 5:15:00 AM 16.39 61.502 0.082 10.35 13.18 9.13
6/27/2021 5:30:00 AM 16.37 61.466 0.082 10.35 13.44 9.15
6/27/2021 5:45:00 AM 16.35 61.43 0.082 10.35 12.74 9.15
6/27/2021 6:00:00 AM 16.34 61.412 0.081 10.35 13.46 9.16
6/27/2021 6:15:00 AM 16.33 61.394 0.081 10.35 13.39 9.18
6/27/2021 6:30:00 AM 16.32 61.376 0.081 10.35 13.97 9.19
6/27/2021 6:45:00 AM 16.32 61.376 0.081 10.35 14.63 9.21
6/27/2021 7:00:00 AM 16.35 61.43 0.081 10.36 14.2 9.22
6/27/2021 7:15:00 AM 16.36 61.448 0.081 10.36 13.84 9.24
6/27/2021 7:30:00 AM 16.38 61.484 0.081 10.38 13.85 9.25
6/27/2021 7:45:00 AM 16.43 61.574 0.081 10.38 13.71 9.27
6/27/2021 8:00:00 AM 16.47 61.646 0.081 10.4 14.08 9.27
6/27/2021 8:15:00 AM 16.5 61.7 0.081 10.39 13.84 9.26
6/27/2021 8:30:00 AM 16.55 61.79 0.081 10.41 14.14 9.28
6/27/2021 8:45:00 AM 16.65 61.97 0.081 10.44 13.6 9.28
6/27/2021 9:00:00 AM 16.74 62.132 0.081 10.46 14.41 9.28
6/27/2021 9:15:00 AM 16.88 62.384 0.081 10.41 13.77 9.27
6/27/2021 9:30:00 AM 17.07 62.726 0.081 10.5 14.16 9.26
6/27/2021 9:45:00 AM 17.23 63.014 0.081 10.54 14.3 9.27
6/27/2021 10:00:00 AM 17.3 63.14 0.081 10.53 13.71 9.25
6/27/2021 10:15:00 AM 17.44 63.392 0.08 10.55 13.72 9.27
6/27/2021 10:30:00 AM 17.57 63.626 0.08 10.56 13.66 9.27
6/27/2021 10:45:00 AM 17.79 64.022 0.08 10.57 13.93 9.26
6/27/2021 11:00:00 AM 17.89 64.202 0.08 10.58 13.82 9.21
6/27/2021 11:15:00 AM 18.14 64.652 0.08 10.6 13.52 9.2
6/27/2021 11:30:00 AM 18.36 65.048 0.08 10.6 13.71 9.15
6/27/2021 11:45:00 AM 18.55 65.39 0.08 10.6 13.34 9.11
6/27/2021 12:00:00 PM 18.75 65.75 0.08 10.6 15.18 9.07
6/27/2021 12:15:00 PM 18.94 66.092 0.08 10.61 13.95 9.04
6/27/2021 12:30:00 PM 19.11 66.398 0.08 10.61 13.11 8.99
6/27/2021 12:45:00 PM 19.18 66.524 0.078 10.58 13.86 8.94
6/27/2021 1:00:00 PM 19.22 66.596 0.08 10.61 13.17 8.93
6/27/2021 1:15:00 PM 19.22 66.596 0.08 10.6 13.3 8.92
6/27/2021 1:30:00 PM 19.33 66.794 0.08 10.61 12.73 8.94
6/27/2021 1:45:00 PM 19.36 66.848 0.08 10.61 13.54 8.89
6/27/2021 2:00:00 PM 19.27 66.686 0.08 10.59 12.99 8.85
6/27/2021 2:15:00 PM 19.31 66.758 0.08 10.59 12.62 8.9
6/27/2021 2:30:00 PM 19.31 66.758 0.08 10.59 12.62 8.88
6/27/2021 2:45:00 PM 19.32 66.776 0.08 10.58 12.56 8.85
6/27/2021 3:00:00 PM 19.39 66.902 0.08 10.59 13.21 8.85
6/27/2021 3:15:00 PM 19.47 67.046 0.08 10.59 12.67 8.85
6/27/2021 3:30:00 PM 19.45 67.01 0.08 10.45 12.76 8.81
6/27/2021 3:45:00 PM 19.46 67.028 0.081 10.59 13.44 8.8
6/27/2021 4:00:00 PM 19.45 67.01 0.081 10.57 13.04 8.8
6/27/2021 4:15:00 PM 19.46 67.028 0.081 10.57 13.4 8.79
6/27/2021 4:30:00 PM 19.39 66.902 0.081 10.44 13.49 8.73
6/27/2021 4:45:00 PM 19.35 66.83 0.081 10.56 13.38 8.72
6/27/2021 5:00:00 PM 19.31 66.758 0.081 10.54 13.18 8.75
6/27/2021 5:15:00 PM 19.29 66.722 0.081 10.54 13.54 8.74
6/27/2021 5:30:00 PM 19.25 66.65 0.081 10.52 13.07 8.74
6/27/2021 5:45:00 PM 19.17 66.506 0.081 10.5 12.74 8.72
6/27/2021 6:00:00 PM 19.14 66.452 0.081 10.49 13.35 8.72
6/27/2021 6:15:00 PM 19.09 66.362 0.082 10.48 13.1 8.7
6/27/2021 6:30:00 PM 19.07 66.326 0.082 10.48 13.66 8.72
6/27/2021 6:45:00 PM 19 66.2 0.082 10.45 14 8.69
6/27/2021 7:00:00 PM 18.94 66.092 0.082 10.45 13.51 8.68
6/27/2021 7:15:00 PM 18.9 66.02 0.082 10.43 13.34 8.68
6/27/2021 7:30:00 PM 18.84 65.912 0.082 10.33 13.74 8.68
6/27/2021 7:45:00 PM 18.8 65.84 0.082 10.42 13.5 8.68
6/27/2021 8:00:00 PM 18.75 65.75 0.082 10.4 13.88 8.68
6/27/2021 8:15:00 PM 18.7 65.66 0.082 10.27 13.62 8.68
6/27/2021 8:30:00 PM 18.65 65.57 0.082 10.38 13.94 8.68
6/27/2021 8:45:00 PM 18.61 65.498 0.082 10.4 13.65 8.68
6/27/2021 9:00:00 PM 18.56 65.408 0.08 10.36 14.27 8.68
6/27/2021 9:15:00 PM 18.52 65.336 0.082 10.38 14.96 8.69
6/27/2021 9:30:00 PM 18.47 65.246 0.083 10.38 15.61 8.69
6/27/2021 9:45:00 PM 18.43 65.174 0.083 10.38 15.24 8.71
6/27/2021 10:00:00 PM 18.39 65.102 0.083 10.39 15.17 8.71
6/27/2021 10:15:00 PM 18.35 65.03 0.083 10.38 15 8.73
6/27/2021 10:30:00 PM 18.31 64.958 0.083 10.39 14.74 8.73
6/27/2021 10:45:00 PM 18.27 64.886 0.083 10.38 14.49 8.74
6/27/2021 11:00:00 PM 18.23 64.814 0.083 10.37 14.15 8.75
6/27/2021 11:15:00 PM 18.19 64.742 0.083 10.37 14.07 8.76
6/27/2021 11:30:00 PM 18.15 64.67 0.083 10.37 14.07 8.76
6/27/2021 11:45:00 PM 18.11 64.598 0.083 10.37 14.5 8.77
6/28/2021 12:00:00 AM 18.08 64.544 0.083 10.37 14.71 8.78
6/28/2021 12:15:00 AM 18.04 64.472 0.083 10.37 14.34 8.79
6/28/2021 12:30:00 AM 18 64.4 0.083 10.36 14.57 8.8
6/28/2021 12:45:00 AM 17.96 64.328 0.083 10.36 14.23 8.81
6/28/2021 1:00:00 AM 17.92 64.256 0.083 10.36 14.38 8.81
6/28/2021 1:15:00 AM 17.89 64.202 0.084 10.33 14.4 8.82
6/28/2021 1:30:00 AM 17.85 64.13 0.084 10.37 14.12 8.83
6/28/2021 1:45:00 AM 17.82 64.076 0.084 10.35 14.57 8.84
6/28/2021 2:00:00 AM 17.78 64.004 0.084 10.35 14.52 8.84
6/28/2021 2:15:00 AM 17.75 63.95 0.084 10.36 15.21 8.85
6/28/2021 2:30:00 AM 17.71 63.878 0.084 10.35 14.3 8.86
6/28/2021 2:45:00 AM 17.67 63.806 0.084 10.36 14.57 8.87
6/28/2021 3:00:00 AM 17.63 63.734 0.084 10.36 14.61 8.88
6/28/2021 3:15:00 AM 17.6 63.68 0.084 10.36 14.55 8.89
6/28/2021 3:30:00 AM 17.56 63.608 0.084 10.36 17.96 8.9
6/28/2021 3:45:00 AM 17.52 63.536 0.084 10.37 14.42 8.91
6/28/2021 4:00:00 AM 17.48 63.464 0.084 10.23 14.57 8.92
6/28/2021 4:15:00 AM 17.45 63.41 0.08 10.36 13.49 8.93
6/28/2021 4:30:00 AM 17.41 63.338 0.084 10.28 14.94 8.94
6/28/2021 4:45:00 AM 17.37 63.266 0.084 10.38 14.64 8.95
6/28/2021 5:00:00 AM 17.33 63.194 0.084 10.38 15.01 8.96
6/28/2021 5:15:00 AM 17.29 63.122 0.084 10.38 15.42 8.97
6/28/2021 5:30:00 AM 17.25 63.05 0.084 10.37 15.14 8.98
6/28/2021 5:45:00 AM 17.22 62.996 0.084 10.37 16.49 8.99
6/28/2021 6:00:00 AM 17.19 62.942 0.084 10.37 15.86 9
6/28/2021 6:15:00 AM 17.16 62.888 0.083 10.38 14.49 9.02
6/28/2021 6:30:00 AM 17.14 62.852 0.083 10.37 15.87 9.03
6/28/2021 6:45:00 AM 17.13 62.834 0.083 10.38 15.35 9.05
6/28/2021 7:00:00 AM 17.12 62.816 0.083 10.38 15.28 9.06
6/28/2021 7:15:00 AM 17.12 62.816 0.083 10.25 15.94 9.07
6/28/2021 7:30:00 AM 17.13 62.834 0.083 10.33 16.48 9.08
6/28/2021 7:45:00 AM 17.16 62.888 0.083 10.4 16.41 9.09
6/28/2021 8:00:00 AM 17.2 62.96 0.083 10.39 15.72 9.1
6/28/2021 8:15:00 AM 17.24 63.032 0.083 10.39 15.31 9.11
6/28/2021 8:30:00 AM 17.31 63.158 0.083 10.41 15.6 9.11
6/28/2021 8:45:00 AM 17.4 63.32 0.083 10.42 17.45 9.13
6/28/2021 9:00:00 AM 17.51 63.518 0.083 10.44 12.38 9.13
6/28/2021 9:15:00 AM 17.64 63.752 0.083 10.47 15.35 9.14
6/28/2021 9:30:00 AM 17.78 64.004 0.083 10.49 16.15 9.14
6/28/2021 9:45:00 AM 17.94 64.292 0.083 10.51 16.65 9.13
6/28/2021 10:00:00 AM 18.12 64.616 0.083 10.53 15.54 9.13
6/28/2021 10:15:00 AM 18.32 64.976 0.082 10.49 14.89 9.11
6/28/2021 10:30:00 AM 18.52 65.336 0.082 10.57 15.51 9.09
6/28/2021 10:45:00 AM 18.71 65.67799 0.082 10.57 13.44 9.07
6/28/2021 11:00:00 AM 18.93 66.074 0.082 10.59 14.78 9.04
6/28/2021 11:15:00 AM 19.18 66.524 0.082 10.59 14.9 9.02
6/28/2021 11:30:00 AM 19.39 66.902 0.082 10.6 15.76 8.98
6/28/2021 11:45:00 AM 19.61 67.298 0.082 10.61 15.03 8.94
6/28/2021 12:00:00 PM 19.71 67.478 0.082 10.61 15.36 8.9
6/28/2021 12:15:00 PM 19.84 67.712 0.082 10.61 14.8 8.88
6/28/2021 12:30:00 PM 19.98 67.964 0.082 10.62 15.17 8.86
6/28/2021 12:45:00 PM 19.98 67.964 0.082 10.47 14.8 8.81
6/28/2021 1:00:00 PM 19.89 67.802 0.082 10.52 15.05 8.76
6/28/2021 1:15:00 PM 19.98 67.964 0.079 10.58 15.02 8.81
6/28/2021 1:30:00 PM 19.82 67.676 0.082 10.46 14.75 8.75
6/28/2021 1:45:00 PM 19.87 67.766 0.079 10.56 15.32 8.79
6/28/2021 2:00:00 PM 20 68 0.082 10.6 14.83 8.77
6/28/2021 2:15:00 PM 20.1 68.18 0.082 10.48 16.21 8.77
6/28/2021 2:30:00 PM 20.19 68.342 0.082 10.62 14.92 8.75
6/28/2021 2:45:00 PM 20.13 68.234 0.082 10.59 15 8.66
6/28/2021 3:00:00 PM 20.23 68.414 0.082 10.59 14.55 8.71
6/28/2021 3:15:00 PM 20.19 68.342 0.082 10.59 15.11 8.7
6/28/2021 3:30:00 PM 20.22 68.396 0.082 10.59 15.15 8.68
6/28/2021 3:45:00 PM 20.17 68.306 0.082 10.58 15.11 8.65
6/28/2021 4:00:00 PM 20.19 68.342 0.082 10.57 14.84 8.66
6/28/2021 4:15:00 PM 20.2 68.36 0.082 10.57 14.75 8.68
6/28/2021 4:30:00 PM 20.12 68.216 0.082 10.54 15.21 8.65
6/28/2021 4:45:00 PM 20.05 68.09 0.083 10.52 15.29 8.64
6/28/2021 5:00:00 PM 19.98 67.964 0.083 10.52 15.3 8.63
6/28/2021 5:15:00 PM 19.89 67.802 0.083 10.48 16.45 8.57
6/28/2021 5:30:00 PM 19.81 67.658 0.081 10.45 13.48 8.57
6/28/2021 5:45:00 PM 19.72 67.496 0.083 10.46 16.06 8.57
6/28/2021 6:00:00 PM 19.64 67.352 0.083 10.43 12.72 8.54
6/28/2021 6:15:00 PM 20.22 68.396 0.069 10.38 68.55 8.55
6/28/2021 6:30:00 PM 20.75 69.35 0.07 10.33 246.95 8.36
6/28/2021 6:45:00 PM 20.51 68.918 0.084 10.4 481.75 8.41
6/28/2021 7:00:00 PM 20.39 68.702 0.085 10.41 324.09 8.4
6/28/2021 7:15:00 PM 20.15 68.27 0.081 10.41 110.41 8.42
6/28/2021 7:30:00 PM 19.95 67.91 0.083 10.4 80.42 8.44
6/28/2021 7:45:00 PM 19.8 67.64 0.091 10.39 63.29 8.42
6/28/2021 8:00:00 PM 19.73 67.514 0.089 10.39 57.87 8.42
6/28/2021 8:15:00 PM 19.67 67.406 0.087 10.4 39.62 8.43
6/28/2021 8:30:00 PM 19.61 67.298 0.087 10.4 30.76 8.47
6/28/2021 8:45:00 PM 19.54 67.172 0.094 10.38 26.61 8.48
6/28/2021 9:00:00 PM 19.46 67.028 0.094 10.38 23.76 8.5
6/28/2021 9:15:00 PM 19.4 66.92 0.089 10.38 22.31 8.51
6/28/2021 9:30:00 PM 19.33 66.794 0.088 10.37 19.82 8.52
6/28/2021 9:45:00 PM 19.26 66.668 0.088 10.36 18.67 8.53
6/28/2021 10:00:00 PM 19.19 66.542 0.088 10.37 16.75 8.55
6/28/2021 10:15:00 PM 19.14 66.452 0.086 10.37 15.71 8.57
6/28/2021 10:30:00 PM 19.08 66.344 0.088 10.42 14.95 8.58
6/28/2021 10:45:00 PM 19.02 66.236 0.088 10.42 14.62 8.59
6/28/2021 11:00:00 PM 18.96 66.128 0.088 10.41 14.04 8.61
6/28/2021 11:15:00 PM 18.9 66.02 0.088 10.41 13.43 8.62
6/28/2021 11:30:00 PM 18.84 65.912 0.088 10.41 13.11 8.64
6/28/2021 11:45:00 PM 18.79 65.82201 0.088 10.41 12.4 8.64
6/29/2021 12:00:00 AM 18.74 65.732 0.088 10.41 12.23 8.66
6/29/2021 12:15:00 AM 18.69 65.642 0.088 10.41 12.59 8.67
6/29/2021 12:30:00 AM 18.63 65.534 0.088 10.41 12.21 8.69
6/29/2021 12:45:00 AM 18.57 65.426 0.089 10.41 11.91 8.7
6/29/2021 1:00:00 AM 18.52 65.336 0.089 10.41 11.84 8.71
6/29/2021 1:15:00 AM 18.47 65.246 0.089 10.28 11.79 8.72
6/29/2021 1:30:00 AM 18.42 65.156 0.089 10.42 12.06 8.74
6/29/2021 1:45:00 AM 18.38 65.084 0.089 10.41 13.09 8.75
6/29/2021 2:00:00 AM 18.34 65.012 0.089 10.29 12.55 8.75
6/29/2021 2:15:00 AM 18.3 64.94 0.089 10.41 17.39 8.76
6/29/2021 2:30:00 AM 18.27 64.886 0.089 10.4 12.8 8.77
6/29/2021 2:45:00 AM 18.23 64.814 0.089 10.39 12.54 8.78
6/29/2021 3:00:00 AM 18.19 64.742 0.089 10.39 12.49 8.79
6/29/2021 3:15:00 AM 18.16 64.688 0.089 10.39 12.35 8.8
6/29/2021 3:30:00 AM 18.12 64.616 0.089 10.39 12.58 8.81
6/29/2021 3:45:00 AM 18.09 64.562 0.089 10.39 12.53 8.82
6/29/2021 4:00:00 AM 18.05 64.49 0.089 10.39 12.52 8.82
6/29/2021 4:15:00 AM 18.02 64.436 0.089 10.39 12.27 8.83
6/29/2021 4:30:00 AM 17.99 64.382 0.089 10.38 12.55 8.84
6/29/2021 4:45:00 AM 17.96 64.328 0.089 10.26 12.61 8.85
6/29/2021 5:00:00 AM 17.92 64.256 0.089 10.4 12.62 8.85
6/29/2021 5:15:00 AM 17.89 64.202 0.089 10.37 12.9 8.85
6/29/2021 5:30:00 AM 17.86 64.148 0.089 10.37 12.84 8.86
6/29/2021 5:45:00 AM 17.84 64.112 0.089 10.37 14.19 8.87
6/29/2021 6:00:00 AM 17.81 64.058 0.089 10.36 12.98 8.89
6/29/2021 6:15:00 AM 17.79 64.022 0.089 10.36 13.56 8.89
6/29/2021 6:30:00 AM 17.77 63.986 0.088 10.36 13.64 8.91
6/29/2021 6:45:00 AM 17.75 63.95 0.088 10.36 13.02 8.92
6/29/2021 7:00:00 AM 17.74 63.932 0.088 10.31 12.69 8.94
6/29/2021 7:15:00 AM 17.74 63.932 0.088 10.39 13.21 8.96
6/29/2021 7:30:00 AM 17.75 63.95 0.088 10.27 13.21 8.98
6/29/2021 7:45:00 AM 17.76 63.968 0.088 10.34 13.71 9
6/29/2021 8:00:00 AM 17.78 64.004 0.088 10.45 13.64 9.02
6/29/2021 8:15:00 AM 17.81 64.058 0.088 10.45 12.79 9.03
6/29/2021 8:30:00 AM 17.83 64.094 0.088 10.44 13.48 9.02
6/29/2021 8:45:00 AM 17.89 64.202 0.088 10.44 13.58 9.01
6/29/2021 9:00:00 AM 17.99 64.382 0.088 10.47 13.67 9.02
6/29/2021 9:15:00 AM 18.07 64.526 0.088 10.47 13.39 9.02
6/29/2021 9:30:00 AM 18.17 64.706 0.088 10.47 13.62 9.03
6/29/2021 9:45:00 AM 18.3 64.94 0.088 10.48 13.76 9.03
6/29/2021 10:00:00 AM 18.43 65.174 0.087 10.48 13.37 9.03
6/29/2021 10:15:00 AM 18.6 65.48 0.087 10.49 13.73 9.02
6/29/2021 10:30:00 AM 18.77 65.786 0.087 10.5 13.88 9
6/29/2021 10:45:00 AM 18.96 66.128 0.087 10.51 13.54 8.98
6/29/2021 11:00:00 AM 19.2 66.56 0.087 10.53 13.61 8.94
6/29/2021 11:15:00 AM 19.41 66.938 0.087 10.45 13.16 8.91
6/29/2021 11:30:00 AM 19.64 67.352 0.087 10.6 13.62 8.88
6/29/2021 11:45:00 AM 19.87 67.766 0.087 10.59 13.29 8.83
6/29/2021 12:00:00 PM 20.03 68.054 0.087 10.59 13.39 8.8
6/29/2021 12:15:00 PM 19.96 67.92799 0.087 10.45 13.52 8.75
6/29/2021 12:30:00 PM 20.11 68.198 0.087 10.6 13.58 8.78
6/29/2021 12:45:00 PM 20.26 68.468 0.087 10.6 13.37 8.74
6/29/2021 1:00:00 PM 20.42 68.756 0.087 10.6 13.89 8.72
6/29/2021 1:15:00 PM 20.54 68.972 0.087 10.6 13.57 8.68
6/29/2021 1:30:00 PM 20.6 69.08 0.086 10.6 12.96 8.66
6/29/2021 1:45:00 PM 20.66 69.188 0.086 10.6 13.56 8.64
6/29/2021 2:00:00 PM 20.73 69.314 0.086 10.61 13.71 8.62
6/29/2021 2:15:00 PM 20.77 69.386 0.086 10.6 13.29 8.6
6/29/2021 2:30:00 PM 20.82 69.476 0.086 10.61 13.42 8.58
6/29/2021 2:45:00 PM 20.83 69.494 0.086 10.6 13.25 8.56
6/29/2021 3:00:00 PM 20.84 69.512 0.086 10.56 12.89 8.55
6/29/2021 3:15:00 PM 20.88 69.584 0.086 10.6 14.05 8.55
6/29/2021 3:30:00 PM 20.82 69.476 0.085 10.56 14.15 8.51
6/29/2021 3:45:00 PM 20.82 69.476 0.086 10.57 13.03 8.53
6/29/2021 4:00:00 PM 20.72 69.296 0.086 10.55 13.73 8.54
6/29/2021 4:15:00 PM 20.68 69.224 0.086 10.54 13.79 8.53
6/29/2021 4:30:00 PM 20.63 69.134 0.086 10.54 13.26 8.52
6/29/2021 4:45:00 PM 20.54 68.972 0.086 10.54 13.61 8.48
6/29/2021 5:00:00 PM 20.56 69.008 0.086 10.53 13.3 8.52
6/29/2021 5:15:00 PM 20.44 68.792 0.083 10.48 13.43 8.47
6/29/2021 5:30:00 PM 20.44 68.792 0.086 10.5 13.91 8.49
6/29/2021 5:45:00 PM 20.37 68.666 0.086 10.49 14.33 8.48
6/29/2021 6:00:00 PM 20.32 68.576 0.085 10.47 14.1 8.48
6/29/2021 6:15:00 PM 20.25 68.45 0.086 10.47 14.18 8.47
6/29/2021 6:30:00 PM 20.21 68.378 0.087 10.47 13.47 8.48
6/29/2021 6:45:00 PM 20.14 68.252 0.085 10.42 14.06 8.45
6/29/2021 7:00:00 PM 20.08 68.144 0.087 10.44 14.3 8.44
6/29/2021 7:15:00 PM 20.03 68.054 0.085 10.41 14.44 8.45
6/29/2021 7:30:00 PM 19.99 67.982 0.087 10.44 14.29 8.44
6/29/2021 7:45:00 PM 19.95 67.91 0.087 10.43 14.42 8.45
6/29/2021 8:00:00 PM 19.9 67.82 0.087 10.43 14.47 8.45
6/29/2021 8:15:00 PM 19.85 67.73 0.087 10.42 13.98 8.45
6/29/2021 8:30:00 PM 19.8 67.64 0.087 10.42 15.64 8.45
6/29/2021 8:45:00 PM 19.75 67.55 0.087 10.41 15.08 8.45
6/29/2021 9:00:00 PM 19.73 67.514 0.087 10.41 15.96 8.45
6/29/2021 9:15:00 PM 19.7 67.46 0.087 10.43 16.27 8.46
6/29/2021 9:30:00 PM 19.69 67.442 0.087 10.45 18.55 8.46
6/29/2021 9:45:00 PM 19.63 67.334 0.087 10.44 16.05 8.47
6/29/2021 10:00:00 PM 19.59 67.262 0.088 10.44 14.85 8.48
6/29/2021 10:15:00 PM 19.53 67.154 0.088 10.4 15.35 8.49
6/29/2021 10:30:00 PM 19.48 67.064 0.088 10.39 15.27 8.5
6/29/2021 10:45:00 PM 19.43 66.974 0.088 10.32 16.52 8.5
6/29/2021 11:00:00 PM 19.4 66.92 0.088 10.4 15.08 8.51
6/29/2021 11:15:00 PM 19.36 66.848 0.088 10.39 15.05 8.53
6/29/2021 11:30:00 PM 19.32 66.776 0.088 10.37 14.41 8.53
6/29/2021 11:45:00 PM 19.29 66.722 0.088 10.38 14.74 8.54
6/30/2021 12:00:00 AM 19.48 67.064 0.073 10.37 74.14 8.55
6/30/2021 12:15:00 AM 19.73 67.514 0.071 10.37 222.46 8.51
6/30/2021 12:30:00 AM 19.62 67.316 0.083 10.43 323.74 8.56
6/30/2021 12:45:00 AM 19.51 67.118 0.085 10.46 162.16 8.58
6/30/2021 1:00:00 AM 19.37 66.866 0.084 10.47 67.81 8.61
6/30/2021 1:15:00 AM 19.23 66.614 0.083 10.47 75.22 8.65
6/30/2021 1:30:00 AM 19.1 66.38 0.084 10.48 55.68 8.68
6/30/2021 1:45:00 AM 19.01 66.218 0.084 10.48 37.88 8.71
6/30/2021 2:00:00 AM 18.91 66.038 0.083 10.49 62.91 8.79
6/30/2021 2:15:00 AM 18.81 65.858 0.08 10.48 43.87 8.82
6/30/2021 2:30:00 AM 18.72 65.696 0.078 10.35 44.36 8.84
6/30/2021 2:45:00 AM 18.65 65.57 0.077 10.48 29.74 8.84
6/30/2021 3:00:00 AM 18.6 65.48 0.077 10.46 35.34 8.84
6/30/2021 3:15:00 AM 18.57 65.426 0.078 10.46 28.95 8.84
6/30/2021 3:30:00 AM 18.54 65.372 0.078 10.45 23.54 8.83
6/30/2021 3:45:00 AM 18.51 65.318 0.078 10.45 27.52 8.83
6/30/2021 4:00:00 AM 18.49 65.282 0.078 10.44 27.99 8.83
6/30/2021 4:15:00 AM 18.46 65.228 0.079 10.44 23.75 8.84
6/30/2021 4:30:00 AM 18.44 65.192 0.08 10.44 24.02 8.84
6/30/2021 4:45:00 AM 18.41 65.138 0.08 10.45 23.46 8.84
6/30/2021 5:00:00 AM 18.38 65.084 0.08 10.44 22.5 8.84
6/30/2021 5:15:00 AM 18.35 65.03 0.08 10.43 21.36 8.84
6/30/2021 5:30:00 AM 18.33 64.994 0.081 10.42 21.36 8.84
6/30/2021 5:45:00 AM 18.3 64.94 0.081 10.41 20.16 8.84
6/30/2021 6:00:00 AM 18.28 64.904 0.081 10.41 27.24 8.84
6/30/2021 6:15:00 AM 18.25 64.85 0.082 10.41 20.94 8.85
6/30/2021 6:30:00 AM 18.24 64.832 0.082 10.41 20.12 8.86
6/30/2021 6:45:00 AM 18.23 64.814 0.083 10.45 19.04 8.87
6/30/2021 7:00:00 AM 18.22 64.796 0.083 10.45 18.5 8.88
6/30/2021 7:15:00 AM 18.22 64.796 0.084 10.46 17.58 8.88
6/30/2021 7:30:00 AM 18.23 64.814 0.084 10.47 16.81 8.9
6/30/2021 7:45:00 AM 18.24 64.832 0.085 10.48 17.72 8.91
6/30/2021 8:00:00 AM 18.3 64.94 0.085 10.5 17.5 8.93
6/30/2021 8:15:00 AM 18.3 64.94 0.085 10.5 17.26 8.89
6/30/2021 8:30:00 AM 18.33 64.994 0.086 10.5 17.56 8.9
6/30/2021 8:45:00 AM 18.38 65.084 0.086 10.5 16.63 8.92
6/30/2021 9:00:00 AM 18.44 65.192 0.086 10.51 16.67 8.91
6/30/2021 9:15:00 AM 18.52 65.336 0.087 10.51 16.54 8.9
6/30/2021 9:30:00 AM 18.63 65.534 0.087 10.53 16.67 8.92
6/30/2021 9:45:00 AM 18.71 65.67799 0.087 10.55 14.49 8.94
6/30/2021 10:00:00 AM 18.66 65.588 0.087 10.54 14.86 8.88
6/30/2021 10:15:00 AM 18.72 65.696 0.087 10.53 15.11 8.91
6/30/2021 10:30:00 AM 18.86 65.948 0.087 10.57 15.27 8.91
6/30/2021 10:45:00 AM 18.97 66.146 0.087 10.59 15.24 8.92
6/30/2021 11:00:00 AM 19.17 66.506 0.084 10.4 15.29 8.9
6/30/2021 11:15:00 AM 19.42 66.956 0.087 10.62 15.19 8.88
6/30/2021 11:30:00 AM 19.62 67.316 0.087 10.61 14.94 8.83
6/30/2021 11:45:00 AM 19.8 67.64 0.088 10.62 14.85 8.82
6/30/2021 12:00:00 PM 19.86 67.748 0.088 10.62 14.32 8.78
6/30/2021 12:15:00 PM 20.05 68.09 0.088 10.63 14.67 8.76
6/30/2021 12:30:00 PM 20.08 68.144 0.088 10.63 14.78 8.74
6/30/2021 12:45:00 PM 20.08 68.144 0.088 10.63 14.78 8.74
6/30/2021 1:00:00 PM 20.3 68.54 0.088 7.51 12.42 8.79
6/30/2021 1:15:00 PM 20.3 68.54 0.088 7.58 12.92 8.82
6/30/2021 1:30:00 PM 20.26 68.468 0.088 7.58 12.57 8.85
6/30/2021 1:45:00 PM 20.33 68.594 0.088 7.54 13.05 8.87
6/30/2021 2:00:00 PM 20.29 68.522 0.088 7.56 12.44 8.8
6/30/2021 2:15:00 PM 20.3 68.54 0.088 7.52 12.86 8.78
6/30/2021 2:30:00 PM 20.24 68.432 0.088 7.5 12.45 8.75
6/30/2021 2:45:00 PM 20.14 68.252 0.088 7.49 12.81 8.74
6/30/2021 3:00:00 PM 20.12 68.216 0.083 7.5 12.6 8.79
6/30/2021 3:15:00 PM 20.13 68.234 0.088 7.51 11.94 8.81
6/30/2021 3:30:00 PM 20.11 68.198 0.088 7.52 12.71 8.79
6/30/2021 3:45:00 PM 20.21 68.378 0.088 7.55 12.58 8.8
6/30/2021 4:00:00 PM 20.29 68.522 0.088 7.54 12.93 8.77
6/30/2021 4:15:00 PM 20.22 68.396 0.088 7.52 13.01 8.69
6/30/2021 4:30:00 PM 20.15 68.27 0.088 7.55 13.59 8.74
6/30/2021 4:45:00 PM 20.01 68.018 0.082 7.53 14.22 8.71
6/30/2021 5:00:00 PM 19.91 67.838 0.088 7.53 16.42 8.73
6/30/2021 5:15:00 PM 19.82 67.676 0.088 7.47 15.2 8.73
6/30/2021 5:30:00 PM 19.72 67.496 0.088 7.51 19.63 8.75
6/30/2021 5:45:00 PM 19.63 67.334 0.088 7.48 12.99 8.74
6/30/2021 6:00:00 PM 19.54 67.172 0.089 7.46 12.83 8.74
6/30/2021 6:15:00 PM 19.46 67.028 0.088 7.45 13.61 8.75
6/30/2021 6:30:00 PM 19.4 66.92 0.088 7.45 14.35 8.75
6/30/2021 6:45:00 PM 19.34 66.812 0.082 7.45 15.46 8.76
6/30/2021 7:00:00 PM 19.29 66.722 0.088 7.44 21.8 8.78
6/30/2021 7:15:00 PM 19.24 66.632 0.088 7.45 22.8 8.78
6/30/2021 7:30:00 PM 19.18 66.524 0.088 7.42 24.54 8.79
6/30/2021 7:45:00 PM 19.13 66.434 0.089 7.41 22.36 8.8
6/30/2021 8:00:00 PM 19.08 66.344 0.09 7.41 21.66 8.81
6/30/2021 8:15:00 PM 19.03 66.254 0.09 7.42 18.43 8.81
6/30/2021 8:30:00 PM 18.98 66.164 0.091 7.47 16.26 8.82
6/30/2021 8:45:00 PM 18.93 66.074 0.091 7.45 17.26 8.83
6/30/2021 9:00:00 PM 18.88 65.984 0.091 7.45 15.99 8.84
6/30/2021 9:15:00 PM 18.82 65.876 0.092 7.46 16.16 8.85
6/30/2021 9:30:00 PM 18.77 65.786 0.092 7.45 15.88 8.87
6/30/2021 9:45:00 PM 18.73 65.714 0.091 7.45 15.04 8.88
6/30/2021 10:00:00 PM 18.68 65.624 0.091 7.46 14 8.89
6/30/2021 10:15:00 PM 18.64 65.552 0.091 7.41 13.72 8.9
6/30/2021 10:30:00 PM 18.6 65.48 0.091 7.44 12.97 8.9
6/30/2021 10:45:00 PM 18.56 65.408 0.09 7.44 12.76 8.91
6/30/2021 11:00:00 PM 18.53 65.354 0.091 7.44 12.98 8.92
6/30/2021 11:15:00 PM 18.48 65.264 0.09 7.45 12.7 8.92
6/30/2021 11:30:00 PM 18.44 65.192 0.09 7.43 12.92 8.93
6/30/2021 11:45:00 PM 18.4 65.12 0.09 7.43 12.66 8.94
7/1/2021 12:00:00 AM 18.37 65.066 0.09 7.42 12.61 8.95
7/1/2021 12:15:00 AM 18.33 64.994 0.09 7.42 11.94 8.96
7/1/2021 12:30:00 AM 18.3 64.94 0.09 7.41 12.24 8.96
7/1/2021 12:45:00 AM 18.27 64.886 0.09 7.41 12.26 8.97
7/1/2021 1:00:00 AM 18.25 64.85 0.089 7.42 12.43 8.98
7/1/2021 1:15:00 AM 18.22 64.796 0.089 7.42 12.12 8.99
7/1/2021 1:30:00 AM 18.19 64.742 0.089 7.42 12.2 8.99
7/1/2021 1:45:00 AM 18.16 64.688 0.089 7.41 12.03 8.99
7/1/2021 2:00:00 AM 18.13 64.634 0.084 7.42 12.36 9
7/1/2021 2:15:00 AM 18.1 64.58 0.089 7.4 12.76 9
7/1/2021 2:30:00 AM 18.08 64.544 0.083 7.42 11.93 9.01
7/1/2021 2:45:00 AM 18.06 64.508 0.089 7.4 14.45 9.01
7/1/2021 3:00:00 AM 18.03 64.454 0.088 7.39 13.21 9.01
7/1/2021 3:15:00 AM 18.01 64.418 0.082 7.41 15.04 9.01
7/1/2021 3:30:00 AM 17.99 64.382 0.082 7.4 21.16 9
7/1/2021 3:45:00 AM 17.97 64.346 0.083 7.37 25.35 9.02
7/1/2021 4:00:00 AM 17.95 64.31 0.083 7.39 27.25 9.03
7/1/2021 4:15:00 AM 17.93 64.274 0.083 7.39 27.35 9.03
7/1/2021 4:30:00 AM 17.91 64.238 0.084 7.39 26.8 9.04
7/1/2021 4:45:00 AM 17.89 64.202 0.09 7.41 28.53 9.05
7/1/2021 5:00:00 AM 17.88 64.184 0.085 7.39 26.36 9.05
7/1/2021 5:15:00 AM 17.88 64.184 0.084 7.4 28.61 9.06
7/1/2021 5:30:00 AM 17.88 64.184 0.09 7.39 38.3 9.07
7/1/2021 5:45:00 AM 17.86 64.148 0.091 7.39 55.05 9.08
7/1/2021 6:00:00 AM 17.86 64.148 0.092 7.41 59.04 9.1
7/1/2021 6:15:00 AM 17.87 64.166 0.093 7.45 54.62 9.1
7/1/2021 6:30:00 AM 17.88 64.184 0.093 7.42 44.35 9.11
7/1/2021 6:45:00 AM 17.88 64.184 0.092 7.44 33.69 9.12
7/1/2021 7:00:00 AM 17.87 64.166 0.091 7.47 28.39 9.14
7/1/2021 7:15:00 AM 17.84 64.112 0.084 7.49 25.96 9.14
7/1/2021 7:30:00 AM 17.8 64.04 0.082 7.49 25.55 9.15
7/1/2021 7:45:00 AM 17.78 64.004 0.082 7.5 28.17 9.16
7/1/2021 8:00:00 AM 17.75 63.95 0.081 7.51 28.12 9.17
7/1/2021 8:15:00 AM 17.72 63.896 0.081 7.48 26.08 9.18
7/1/2021 8:30:00 AM 17.7 63.86 0.081 7.48 24.57 9.19
7/1/2021 8:45:00 AM 17.69 63.842 0.08 7.48 21.86 9.22
7/1/2021 9:00:00 AM 17.66 63.788 0.079 7.47 23.1 9.21
7/1/2021 9:15:00 AM 17.62 63.716 0.079 7.45 22.73 9.22
7/1/2021 9:30:00 AM 17.59 63.662 0.078 7.44 21.31 9.22
7/1/2021 9:45:00 AM 17.57 63.626 0.078 7.45 20 9.23
7/1/2021 10:00:00 AM 17.55 63.59 0.077 7.43 19 9.25
7/1/2021 10:15:00 AM 17.55 63.59 0.077 7.42 18.13 9.26
7/1/2021 10:30:00 AM 17.55 63.59 0.077 7.44 16.39 9.25
7/1/2021 10:45:00 AM 17.55 63.59 0.077 7.41 16.4 9.25
7/1/2021 11:00:00 AM 17.53 63.554 0.077 7.41 16.76 9.24
7/1/2021 11:15:00 AM 17.53 63.554 0.077 7.4 15.6 9.26
7/1/2021 11:30:00 AM 17.55 63.59 0.077 7.4 16.15 9.27
7/1/2021 11:45:00 AM 17.55 63.59 0.078 7.41 15.41 9.25
7/1/2021 12:00:00 PM 17.55 63.59 0.078 7.41 15.2 9.26
7/1/2021 12:15:00 PM 17.57 63.626 0.077 7.43 14.06 9.27
7/1/2021 12:30:00 PM 17.57 63.626 0.078 7.44 15.38 9.26
7/1/2021 12:45:00 PM 17.6 63.68 0.078 7.47 15.66 9.27
7/1/2021 1:00:00 PM 17.68 63.824 0.078 7.5 15.31 9.3
7/1/2021 1:15:00 PM 17.7 63.86 0.078 7.48 14.3 9.26
7/1/2021 1:30:00 PM 17.67 63.806 0.078 7.5 13.86 9.22
7/1/2021 1:45:00 PM 17.63 63.734 0.078 7.48 14.29 9.2
7/1/2021 2:00:00 PM 17.63 63.734 0.078 7.5 13.69 9.24
7/1/2021 2:15:00 PM 17.63 63.734 0.078 7.5 13.45 9.25
7/1/2021 2:30:00 PM 17.66 63.788 0.078 7.54 14.5 9.27
7/1/2021 2:45:00 PM 17.71 63.878 0.078 7.54 16.28 9.28
7/1/2021 3:00:00 PM 17.72 63.896 0.079 7.5 13.65 9.25
7/1/2021 3:15:00 PM 17.73 63.914 0.078 7.51 13 9.26
7/1/2021 3:30:00 PM 17.74 63.932 0.078 7.51 13.03 9.25
7/1/2021 3:45:00 PM 17.72 63.896 0.078 7.5 13.64 9.22
7/1/2021 4:00:00 PM 17.69 63.842 0.078 7.52 13.08 9.21
7/1/2021 4:15:00 PM 17.65 63.77 0.078 7.46 13.28 9.18
7/1/2021 4:30:00 PM 17.64 63.752 0.077 7.47 17.27 9.19
7/1/2021 4:45:00 PM 17.66 63.788 0.077 7.47 20.2 9.21
7/1/2021 5:00:00 PM 17.64 63.752 0.077 7.49 27.1 9.22
7/1/2021 5:15:00 PM 17.62 63.716 0.078 7.52 21.14 9.22
7/1/2021 5:30:00 PM 17.61 63.698 0.078 7.49 18.29 9.23
7/1/2021 5:45:00 PM 17.58 63.644 0.077 7.48 14.89 9.22
7/1/2021 6:00:00 PM 17.55 63.59 0.077 7.48 14.44 9.22
7/1/2021 6:15:00 PM 17.52 63.536 0.078 7.48 16.86 9.23
7/1/2021 6:30:00 PM 17.49 63.482 0.078 7.48 14.29 9.23
7/1/2021 6:45:00 PM 17.46 63.428 0.078 7.45 13.97 9.23
7/1/2021 7:00:00 PM 17.43 63.374 0.077 7.43 13.33 9.22
7/1/2021 7:15:00 PM 17.39 63.302 0.077 7.47 13.31 9.22
7/1/2021 7:30:00 PM 17.36 63.248 0.077 7.46 13.57 9.21
7/1/2021 7:45:00 PM 17.33 63.194 0.077 7.46 13.14 9.22
7/1/2021 8:00:00 PM 17.29 63.122 0.077 7.46 12.92 9.23
7/1/2021 8:15:00 PM 17.26 63.068 0.077 7.46 13.88 9.22
7/1/2021 8:30:00 PM 17.23 63.014 0.077 7.46 13.19 9.23
7/1/2021 8:45:00 PM 17.2 62.96 0.077 7.45 13.59 9.23
7/1/2021 9:00:00 PM 17.17 62.906 0.077 7.44 13.94 9.23
7/1/2021 9:15:00 PM 17.14 62.852 0.077 7.42 13.59 9.23
7/1/2021 9:30:00 PM 17.11 62.798 0.077 7.41 15.48 9.24
7/1/2021 9:45:00 PM 17.09 62.762 0.078 7.41 13.93 9.24
7/1/2021 10:00:00 PM 17.06 62.708 0.078 7.44 13.61 9.24
7/1/2021 10:15:00 PM 17.03 62.654 0.078 7.39 13.58 9.25
7/1/2021 10:30:00 PM 17.01 62.618 0.078 7.45 12.49 9.26
7/1/2021 10:45:00 PM 16.99 62.582 0.077 7.42 12.8 9.26
7/1/2021 11:00:00 PM 16.97 62.546 0.078 7.4 12.54 9.27
7/1/2021 11:15:00 PM 16.93 62.474 0.078 7.42 12.25 9.28
7/1/2021 11:30:00 PM 16.81 62.258 0.075 7.44 14.73 9.31
7/1/2021 11:45:00 PM 16.75 62.15 0.074 7.43 27.15 9.32
7/2/2021 12:00:00 AM 16.68 62.024 0.075 7.45 56.93 9.35
7/2/2021 12:15:00 AM 16.63 61.934 0.077 7.45 41.75 9.36
7/2/2021 12:30:00 AM 16.62 61.916 0.077 7.46 35.03 9.36
7/2/2021 12:45:00 AM 16.57 61.826 0.078 7.49 24.51 9.38
7/2/2021 1:00:00 AM 16.51 61.718 0.078 7.48 22.19 9.39
7/2/2021 1:15:00 AM 16.46 61.628 0.078 7.43 25.79 9.4
7/2/2021 1:30:00 AM 16.38 61.484 0.077 7.48 52.26 9.44
7/2/2021 1:45:00 AM 16.29 61.322 0.075 7.45 47.89 9.47
7/2/2021 2:00:00 AM 16.21 61.178 0.074 7.45 37.75 9.48
7/2/2021 2:15:00 AM 16.14 61.052 0.073 7.42 32.57 9.5
7/2/2021 2:30:00 AM 16.09 60.962 0.073 7.46 29.02 9.52
7/2/2021 2:45:00 AM 16.05 60.89 0.072 7.4 27.57 9.52
7/2/2021 3:00:00 AM 16.01 60.818 0.072 7.42 25.11 9.53
7/2/2021 3:15:00 AM 15.97 60.746 0.072 7.41 22.96 9.54
7/2/2021 3:30:00 AM 15.92 60.656 0.072 7.42 22.7 9.55
7/2/2021 3:45:00 AM 15.86 60.548 0.072 7.45 20.93 9.56
7/2/2021 4:00:00 AM 15.82 60.476 0.072 7.41 22.37 9.56
7/2/2021 4:15:00 AM 15.77 60.386 0.072 7.41 19.95 9.56
7/2/2021 4:30:00 AM 15.72 60.296 0.072 7.41 19.69 9.57
7/2/2021 4:45:00 AM 15.68 60.224 0.072 7.44 19.48 9.58
7/2/2021 5:00:00 AM 15.64 60.152 0.072 7.41 19.95 9.59
7/2/2021 5:15:00 AM 15.6 60.08 0.072 7.44 20.08 9.6
7/2/2021 5:30:00 AM 15.56 60.008 0.072 7.42 21.23 9.61
7/2/2021 5:45:00 AM 15.52 59.936 0.072 7.41 19.35 9.62
7/2/2021 6:00:00 AM 15.49 59.882 0.073 7.4 19.04 9.63
7/2/2021 6:15:00 AM 15.45 59.81 0.073 7.4 15.06 9.64
7/2/2021 6:30:00 AM 15.43 59.774 0.073 7.4 16.89 9.65
7/2/2021 6:45:00 AM 15.42 59.756 0.073 7.44 16.84 9.66
7/2/2021 7:00:00 AM 15.41 59.738 0.073 7.41 15.66 9.68
7/2/2021 7:15:00 AM 15.4 59.72 0.073 7.41 15.75 9.67
7/2/2021 7:30:00 AM 15.39 59.702 0.073 7.39 15.92 9.67
7/2/2021 7:45:00 AM 15.38 59.684 0.073 7.4 15.52 9.69
7/2/2021 8:00:00 AM 15.38 59.684 0.073 7.45 14.7 9.7
7/2/2021 8:15:00 AM 15.37 59.666 0.073 7.45 14.25 9.7
7/2/2021 8:30:00 AM 15.39 59.702 0.073 7.46 15.2 9.71
7/2/2021 8:45:00 AM 15.46 59.828 0.073 7.45 12.77 9.73
7/2/2021 9:00:00 AM 15.53 59.954 0.073 7.44 14.49 9.72
7/2/2021 9:15:00 AM 15.62 60.116 0.074 7.44 14.33 9.7
7/2/2021 9:30:00 AM 15.68 60.224 0.073 7.5 13.22 9.69
7/2/2021 9:45:00 AM 15.73 60.314 0.073 7.47 13.87 9.69
7/2/2021 10:00:00 AM 15.77 60.386 0.073 7.47 13.58 9.7
7/2/2021 10:15:00 AM 15.79 60.422 0.073 7.49 13.73 9.69
7/2/2021 10:30:00 AM 15.8 60.44 0.073 7.48 13.73 9.68
7/2/2021 10:45:00 AM 16.03 60.854 0.073 7.47 13.42 9.69
7/2/2021 11:00:00 AM 16.12 61.016 0.073 7.5 13.35 9.65
7/2/2021 11:15:00 AM 16 60.8 0.074 7.5 13.69 9.65
7/2/2021 11:30:00 AM 15.91 60.638 0.073 7.47 13 9.62
7/2/2021 11:45:00 AM 15.95 60.71 0.073 7.49 12.63 9.67
7/2/2021 12:00:00 PM 15.95 60.71 0.073 7.51 13.59 9.65
7/2/2021 12:15:00 PM 16.16 61.088 0.073 7.49 13.14 9.67
7/2/2021 12:30:00 PM 16.19 61.142 0.073 7.48 12.94 9.62
7/2/2021 12:45:00 PM 16.09 60.962 0.073 7.48 12.99 9.6
7/2/2021 1:00:00 PM 16.16 61.088 0.073 7.46 13.08 9.64
7/2/2021 1:15:00 PM 16.37 61.466 0.073 7.47 13.89 9.61
7/2/2021 1:30:00 PM 16.39 61.502 0.073 7.48 17.89 9.58
7/2/2021 1:45:00 PM 16.52 61.736 0.073 7.49 14.05 9.55
7/2/2021 2:00:00 PM 16.55 61.79 0.073 7.51 12.85 9.52
7/2/2021 2:15:00 PM 16.42 61.556 0.073 7.51 12.69 9.53
7/2/2021 2:30:00 PM 16.54 61.772 0.073 7.49 12.63 9.54
7/2/2021 2:45:00 PM 16.59 61.862 0.073 7.49 12.77 9.51
7/2/2021 3:00:00 PM 16.52 61.736 0.073 7.45 12.63 9.48
7/2/2021 3:15:00 PM 16.44 61.592 0.073 7.46 12.81 9.47
7/2/2021 3:30:00 PM 16.37 61.466 0.073 7.44 12.02 9.47
7/2/2021 3:45:00 PM 16.32 61.376 0.073 7.47 12.7 9.48
7/2/2021 4:00:00 PM 16.29 61.322 0.072 7.42 14.44 9.5
7/2/2021 4:15:00 PM 16.28 61.304 0.073 7.41 12 9.53
7/2/2021 4:30:00 PM 16.27 61.286 0.073 7.45 12.27 9.54
7/2/2021 4:45:00 PM 16.25 61.25 0.073 7.47 12.75 9.54
7/2/2021 5:00:00 PM 16.25 61.25 0.073 7.47 12.69 9.56
7/2/2021 5:15:00 PM 16.23 61.214 0.073 7.46 12.6 9.55
7/2/2021 5:30:00 PM 16.19 61.142 0.073 7.45 12.14 9.54
7/2/2021 5:45:00 PM 16.12 61.016 0.073 7.46 12.32 9.55
7/2/2021 6:00:00 PM 16.08 60.944 0.073 7.46 12.8 9.57
7/2/2021 6:15:00 PM 16.06 60.908 0.073 7.46 13.32 9.57
7/2/2021 6:30:00 PM 16.05 60.89 0.073 7.45 12.15 9.57
7/2/2021 6:45:00 PM 16.01 60.818 0.073 7.44 12.68 9.55
7/2/2021 7:00:00 PM 15.97 60.746 0.073 7.45 12.38 9.55
7/2/2021 7:15:00 PM 15.93 60.674 0.073 7.43 12.52 9.55
7/2/2021 7:30:00 PM 15.9 60.62 0.073 7.43 12.4 9.55
7/2/2021 7:45:00 PM 15.84 60.512 0.073 7.45 12.38 9.55
7/2/2021 8:00:00 PM 15.79 60.422 0.073 7.44 11.91 9.56
7/2/2021 8:15:00 PM 15.73 60.314 0.073 7.4 12.89 9.56
7/2/2021 8:30:00 PM 15.67 60.206 0.073 7.39 12.15 9.58
7/2/2021 8:45:00 PM 15.61 60.098 0.073 7.41 12.69 9.59
7/2/2021 9:00:00 PM 15.56 60.008 0.073 7.4 12.93 9.59
7/2/2021 9:15:00 PM 15.51 59.918 0.073 7.4 13.06 9.6
7/2/2021 9:30:00 PM 15.46 59.828 0.073 7.39 13.4 9.61
7/2/2021 9:45:00 PM 15.43 59.774 0.073 7.39 12.44 9.63
7/2/2021 10:00:00 PM 15.39 59.702 0.073 7.42 13.13 9.64
7/2/2021 10:15:00 PM 15.36 59.648 0.073 7.38 12.65 9.64
7/2/2021 10:30:00 PM 15.32 59.576 0.073 7.38 13.23 9.65
7/2/2021 10:45:00 PM 15.28 59.504 0.073 7.37 11.98 9.66
7/2/2021 11:00:00 PM 15.24 59.432 0.073 7.36 11.6 9.66
7/2/2021 11:15:00 PM 15.19 59.342 0.073 7.37 11.79 9.67
7/2/2021 11:30:00 PM 15.16 59.288 0.073 7.38 11.76 9.68
7/2/2021 11:45:00 PM 15.13 59.234 0.073 7.37 11.45 9.69
7/3/2021 12:00:00 AM 15.1 59.18 0.073 7.38 11.24 9.7
7/3/2021 12:15:00 AM 15.07 59.126 0.073 7.38 11.31 9.7
7/3/2021 12:30:00 AM 15.04 59.072 0.073 7.37 10.81 9.71
7/3/2021 12:45:00 AM 15.01 59.018 0.073 7.37 11.02 9.72
7/3/2021 1:00:00 AM 14.99 58.982 0.073 7.39 11.01 9.72
7/3/2021 1:15:00 AM 14.96 58.928 0.073 7.39 10.7 9.73
7/3/2021 1:30:00 AM 14.93 58.874 0.073 7.4 11.07 9.73
7/3/2021 1:45:00 AM 14.89 58.802 0.073 7.39 11.51 9.75
7/3/2021 2:00:00 AM 14.86 58.748 0.073 7.4 11.05 9.76
7/3/2021 2:15:00 AM 14.83 58.694 0.073 7.39 10.81 9.77
7/3/2021 2:30:00 AM 14.81 58.658 0.073 7.37 10.46 9.77
7/3/2021 2:45:00 AM 14.79 58.622 0.073 7.41 10.88 9.77
7/3/2021 3:00:00 AM 14.77 58.586 0.073 7.37 10.6 9.78
7/3/2021 3:15:00 AM 14.75 58.55 0.073 7.38 10.81 9.78
7/3/2021 3:30:00 AM 14.74 58.532 0.073 7.41 11.02 9.78
7/3/2021 3:45:00 AM 14.72 58.496 0.073 7.38 10.56 9.78
7/3/2021 4:00:00 AM 14.71 58.478 0.073 7.36 10.84 9.79
7/3/2021 4:15:00 AM 14.7 58.46 0.073 7.37 10.64 9.79
7/3/2021 4:30:00 AM 14.69 58.442 0.073 7.35 10.84 9.79
7/3/2021 4:45:00 AM 14.68 58.424 0.073 7.37 10.48 9.8
7/3/2021 5:00:00 AM 14.67 58.406 0.073 7.35 10.89 9.79
7/3/2021 5:15:00 AM 14.66 58.388 0.073 7.32 10.86 9.8
7/3/2021 5:30:00 AM 14.65 58.37 0.073 7.37 11.16 9.8
7/3/2021 5:45:00 AM 14.64 58.352 0.072 7.37 11.13 9.8
7/3/2021 6:00:00 AM 14.62 58.316 0.072 7.37 12.65 9.81
7/3/2021 6:15:00 AM 14.61 58.298 0.072 7.37 11.78 9.82
7/3/2021 6:30:00 AM 14.59 58.262 0.072 7.41 11.92 9.83
7/3/2021 6:45:00 AM 14.58 58.244 0.072 7.42 11.52 9.84
7/3/2021 7:00:00 AM 14.59 58.262 0.072 7.42 11.43 9.85
7/3/2021 7:15:00 AM 14.6 58.28 0.072 7.42 11.21 9.86
7/3/2021 7:30:00 AM 14.61 58.298 0.072 7.38 10.8 9.85
7/3/2021 7:45:00 AM 14.63 58.334 0.072 7.4 11.58 9.86
7/3/2021 8:00:00 AM 14.64 58.352 0.072 7.42 11.41 9.86
7/3/2021 8:15:00 AM 14.65 58.37 0.072 7.38 11.39 9.87
7/3/2021 8:30:00 AM 14.66 58.388 0.072 7.39 11.12 9.86
7/3/2021 8:45:00 AM 14.67 58.406 0.072 7.42 11.02 9.87
7/3/2021 9:00:00 AM 14.69 58.442 0.072 7.39 11.67 9.88
7/3/2021 9:15:00 AM 14.74 58.532 0.072 7.38 11.25 9.9
7/3/2021 9:30:00 AM 14.75 58.55 0.072 7.4 11.1 9.89
7/3/2021 9:45:00 AM 14.76 58.568 0.072 7.41 11.54 9.88
7/3/2021 10:00:00 AM 14.8 58.64 0.072 7.44 11.31 9.9
7/3/2021 10:15:00 AM 14.82 58.676 0.072 7.39 10.99 9.89
7/3/2021 10:30:00 AM 14.86 58.748 0.072 7.43 10.95 9.9
7/3/2021 10:45:00 AM 14.92 58.856 0.072 7.41 10.64 9.9
7/3/2021 11:00:00 AM 14.96 58.928 0.072 7.28 11.08 9.87
7/3/2021 11:15:00 AM 15.01 59.018 0.072 7.46 10.95 9.88
7/3/2021 11:30:00 AM 15.11 59.198 0.072 7.44 10.81 9.87
7/3/2021 11:45:00 AM 15.23 59.414 0.071 7.46 10.41 9.86
7/3/2021 12:00:00 PM 15.23 59.414 0.072 7.47 11.37 9.83
7/3/2021 12:15:00 PM 15.29 59.522 0.071 7.48 11.44 9.84
7/3/2021 12:30:00 PM 15.34 59.612 0.071 7.47 11.28 9.82
7/3/2021 12:45:00 PM 15.3 59.54 0.071 7.43 11.11 9.79
7/3/2021 1:00:00 PM 15.33 59.594 0.071 7.44 11.53 9.81
7/3/2021 1:15:00 PM 15.41 59.738 0.071 7.44 11.35 9.83
7/3/2021 1:30:00 PM 15.51 59.918 0.072 7.44 11.48 9.8
7/3/2021 1:45:00 PM 15.46 59.828 0.071 7.47 12.48 9.75
7/3/2021 2:00:00 PM 15.41 59.738 0.071 7.41 11.53 9.74
7/3/2021 2:15:00 PM 15.44 59.792 0.071 7.46 11.83 9.78
7/3/2021 2:30:00 PM 15.44 59.792 0.071 7.41 10.97 9.77
7/3/2021 2:45:00 PM 15.48 59.864 0.071 7.42 10.87 9.77
7/3/2021 3:00:00 PM 15.55 59.99 0.071 7.41 11.4 9.75
7/3/2021 3:15:00 PM 15.63 60.134 0.071 7.44 11.22 9.74
7/3/2021 3:30:00 PM 15.65 60.17 0.071 7.43 11.08 9.71
7/3/2021 3:45:00 PM 15.63 60.134 0.071 7.42 11.17 9.69
7/3/2021 4:00:00 PM 15.65 60.17 0.071 7.46 11.69 9.71
7/3/2021 4:15:00 PM 15.73 60.314 0.071 7.41 11.14 9.69
7/3/2021 4:30:00 PM 15.75 60.35 0.071 7.45 11.62 9.65
7/3/2021 4:45:00 PM 15.69 60.242 0.071 7.44 12.19 9.65
7/3/2021 5:00:00 PM 15.72 60.296 0.072 7.44 11.74 9.66
7/3/2021 5:15:00 PM 15.75 60.35 0.072 7.4 11.73 9.65
7/3/2021 5:30:00 PM 15.73 60.314 0.071 7.41 12.28 9.63
7/3/2021 5:45:00 PM 15.7 60.26 0.071 7.42 11.53 9.63
7/3/2021 6:00:00 PM 15.66 60.188 0.071 7.38 12.16 9.63
7/3/2021 6:15:00 PM 15.63 60.134 0.071 7.37 11.47 9.62
7/3/2021 6:30:00 PM 15.62 60.116 0.071 7.39 11.83 9.63
7/3/2021 6:45:00 PM 15.64 60.152 0.071 7.38 11.92 9.64
7/3/2021 7:00:00 PM 15.62 60.116 0.071 7.37 11.97 9.62
7/3/2021 7:15:00 PM 15.59 60.062 0.071 7.37 11.97 9.62
7/3/2021 7:30:00 PM 15.57 60.026 0.072 7.39 11.93 9.63
7/3/2021 7:45:00 PM 15.55 59.99 0.072 7.34 11.21 9.62
7/3/2021 8:00:00 PM 15.54 59.972 0.072 7.35 11.49 9.63
7/3/2021 8:15:00 PM 15.51 59.918 0.072 7.35 11.59 9.62
7/3/2021 8:30:00 PM 15.48 59.864 0.072 7.28 11.98 9.62
7/3/2021 8:45:00 PM 15.45 59.81 0.072 7.35 11.76 9.62
7/3/2021 9:00:00 PM 15.42 59.756 0.072 7.34 11.92 9.63
7/3/2021 9:15:00 PM 15.39 59.702 0.072 7.34 12.2 9.64
7/3/2021 9:30:00 PM 15.35 59.63 0.072 7.38 12.29 9.65
7/3/2021 9:45:00 PM 15.32 59.576 0.072 7.36 12.45 9.65
7/3/2021 10:00:00 PM 15.29 59.522 0.072 7.32 12.24 9.66
7/3/2021 10:15:00 PM 15.25 59.45 0.072 7.37 12.1 9.67
7/3/2021 10:30:00 PM 15.21 59.378 0.072 7.35 11.53 9.68
7/3/2021 10:45:00 PM 15.17 59.306 0.072 7.35 11.33 9.69
7/3/2021 11:00:00 PM 15.13 59.234 0.072 7.34 10.8 9.69
7/3/2021 11:15:00 PM 15.1 59.18 0.072 7.38 10.81 9.7
7/3/2021 11:30:00 PM 15.07 59.126 0.072 7.33 10.62 9.7
7/3/2021 11:45:00 PM 15.05 59.09 0.072 7.34 10.65 9.71
7/4/2021 12:00:00 AM 15.02 59.036 0.072 7.33 10.42 9.72
7/4/2021 12:15:00 AM 15 59 0.072 7.34 10.22 9.73
7/4/2021 12:30:00 AM 14.98 58.964 0.072 7.33 10.33 9.74
7/4/2021 12:45:00 AM 14.96 58.928 0.072 7.32 11 9.74
7/4/2021 1:00:00 AM 14.93 58.874 0.072 7.36 10.75 9.75
7/4/2021 1:15:00 AM 14.91 58.838 0.072 7.37 10.66 9.76
7/4/2021 1:30:00 AM 14.89 58.802 0.072 7.36 10.55 9.76
7/4/2021 1:45:00 AM 14.87 58.766 0.072 7.36 10.69 9.77
7/4/2021 2:00:00 AM 14.85 58.73 0.072 7.35 10.6 9.77
7/4/2021 2:15:00 AM 14.83 58.694 0.072 7.37 10.08 9.77
7/4/2021 2:30:00 AM 14.81 58.658 0.072 7.34 10.32 9.78
7/4/2021 2:45:00 AM 14.79 58.622 0.072 7.34 10.22 9.78
7/4/2021 3:00:00 AM 14.77 58.586 0.072 7.37 10.43 9.79
7/4/2021 3:15:00 AM 14.75 58.55 0.072 7.35 10.49 9.79
7/4/2021 3:30:00 AM 14.73 58.514 0.072 7.35 10.17 9.79
7/4/2021 3:45:00 AM 14.71 58.478 0.072 7.35 10.06 9.8
7/4/2021 4:00:00 AM 14.68 58.424 0.072 7.37 10.48 9.8
7/4/2021 4:15:00 AM 14.65 58.37 0.072 7.34 10.23 9.81
7/4/2021 4:30:00 AM 14.62 58.316 0.072 7.37 10.05 9.81
7/4/2021 4:45:00 AM 14.6 58.28 0.072 7.37 10.18 9.82
7/4/2021 5:00:00 AM 14.58 58.244 0.072 7.37 10.66 9.82
7/4/2021 5:15:00 AM 14.56 58.208 0.072 7.35 10.46 9.83
7/4/2021 5:30:00 AM 14.54 58.172 0.072 7.37 10.51 9.83
7/4/2021 5:45:00 AM 14.52 58.136 0.072 7.34 11.1 9.84
7/4/2021 6:00:00 AM 14.5 58.1 0.072 7.36 10.77 9.85
7/4/2021 6:15:00 AM 14.48 58.064 0.072 7.36 10.7 9.85
7/4/2021 6:30:00 AM 14.46 58.028 0.072 7.34 10.52 9.86
7/4/2021 6:45:00 AM 14.45 58.01 0.072 7.32 13.74 9.87
7/4/2021 7:00:00 AM 14.45 58.01 0.072 7.35 11.07 9.88
7/4/2021 7:15:00 AM 14.45 58.01 0.071 7.39 11.2 9.9
7/4/2021 7:30:00 AM 14.45 58.01 0.072 7.36 11.27 9.89
7/4/2021 7:45:00 AM 14.46 58.028 0.071 7.34 11.29 9.91
7/4/2021 8:00:00 AM 14.5 58.1 0.071 7.41 10.53 9.94
7/4/2021 8:15:00 AM 14.54 58.172 0.071 7.4 11.22 9.92
7/4/2021 8:30:00 AM 14.58 58.244 0.071 7.4 11 9.91
7/4/2021 8:45:00 AM 14.64 58.352 0.071 7.38 10.79 9.92
7/4/2021 9:00:00 AM 14.68 58.424 0.071 7.41 11.38 9.93
7/4/2021 9:15:00 AM 14.74 58.532 0.071 7.39 11.2 9.95
7/4/2021 9:30:00 AM 14.77 58.586 0.071 7.44 10.98 9.95
7/4/2021 9:45:00 AM 14.92 58.856 0.071 7.44 10.7 9.93
7/4/2021 10:00:00 AM 15.07 59.126 0.071 7.43 10.8 9.89
7/4/2021 10:15:00 AM 15.19 59.342 0.071 7.43 11.16 9.88
7/4/2021 10:30:00 AM 15.34 59.612 0.071 7.45 11.37 9.87
7/4/2021 10:45:00 AM 15.49 59.882 0.071 7.46 11.5 9.84
7/4/2021 11:00:00 AM 15.63 60.134 0.071 7.43 11.57 9.8
7/4/2021 11:15:00 AM 15.59 60.062 0.071 7.43 11.38 9.77
7/4/2021 11:30:00 AM 15.65 60.17 0.071 7.41 10.92 9.77
7/4/2021 11:45:00 AM 15.77 60.386 0.071 7.41 11.29 9.75
7/4/2021 12:00:00 PM 15.67 60.206 0.071 7.42 11.69 9.73
7/4/2021 12:15:00 PM 15.73 60.314 0.071 7.43 11.15 9.73
7/4/2021 12:30:00 PM 15.8 60.44 0.071 7.44 11.55 9.73
7/4/2021 12:45:00 PM 15.83 60.494 0.071 7.44 11.24 9.71
7/4/2021 1:00:00 PM 15.81 60.458 0.071 7.42 11.15 9.71
7/4/2021 1:15:00 PM 15.94 60.692 0.071 7.48 11.43 9.69
7/4/2021 1:30:00 PM 16.05 60.89 0.071 7.44 11.08 9.7
7/4/2021 1:45:00 PM 16.13 61.034 0.071 7.43 10.74 9.67
7/4/2021 2:00:00 PM 16.21 61.178 0.071 7.48 11.43 9.65
7/4/2021 2:15:00 PM 16.31 61.358 0.071 7.47 11.7 9.63
7/4/2021 2:30:00 PM 16.46 61.628 0.071 7.44 11.92 9.61
7/4/2021 2:45:00 PM 16.4 61.52 0.071 7.47 11.78 9.56
7/4/2021 3:00:00 PM 16.44 61.592 0.071 7.42 11.79 9.58
7/4/2021 3:15:00 PM 16.57 61.826 0.071 7.47 12.04 9.57
7/4/2021 3:30:00 PM 16.65 61.97 0.071 7.47 12.78 9.55
7/4/2021 3:45:00 PM 16.6 61.88 0.071 7.47 11.28 9.52
7/4/2021 4:00:00 PM 16.63 61.934 0.071 7.46 11.49 9.53
7/4/2021 4:15:00 PM 16.66 61.988 0.071 7.46 12.05 9.53
7/4/2021 4:30:00 PM 16.66 61.988 0.071 7.45 11.88 9.51
7/4/2021 4:45:00 PM 16.66 61.988 0.071 7.4 11.58 9.51
7/4/2021 5:00:00 PM 16.63 61.934 0.071 7.4 11.95 9.5
7/4/2021 5:15:00 PM 16.64 61.952 0.071 7.4 12.06 9.51
7/4/2021 5:30:00 PM 16.62 61.916 0.071 7.4 12.35 9.49
7/4/2021 5:45:00 PM 16.58 61.844 0.071 7.41 11.96 9.49
7/4/2021 6:00:00 PM 16.55 61.79 0.071 7.43 12.34 9.48
7/4/2021 6:15:00 PM 16.49 61.682 0.071 7.41 12.21 9.48
7/4/2021 6:30:00 PM 16.48 61.664 0.071 7.38 12.59 9.48
7/4/2021 6:45:00 PM 16.44 61.592 0.071 7.37 12.35 9.48
7/4/2021 7:00:00 PM 16.41 61.538 0.072 7.34 12 9.48
7/4/2021 7:15:00 PM 16.38 61.484 0.072 7.35 11.96 9.49
7/4/2021 7:30:00 PM 16.35 61.43 0.072 7.34 12.28 9.48
7/4/2021 7:45:00 PM 16.32 61.376 0.072 7.37 12.01 9.48
7/4/2021 8:00:00 PM 16.28 61.304 0.072 7.32 12.27 9.47
7/4/2021 8:15:00 PM 16.25 61.25 0.072 7.33 12.48 9.48
7/4/2021 8:30:00 PM 16.21 61.178 0.072 7.33 12.1 9.49
7/4/2021 8:45:00 PM 16.16 61.088 0.072 7.35 11.84 9.5
7/4/2021 9:00:00 PM 16.12 61.016 0.073 7.31 12.51 9.5
7/4/2021 9:15:00 PM 16.07 60.926 0.073 7.35 12.01 9.52
7/4/2021 9:30:00 PM 16.03 60.854 0.073 7.35 12.14 9.53
7/4/2021 9:45:00 PM 15.99 60.782 0.073 7.36 12.49 9.53
7/4/2021 10:00:00 PM 15.94 60.692 0.073 7.34 12.36 9.54
7/4/2021 10:15:00 PM 15.9 60.62 0.073 7.31 12.53 9.55
7/4/2021 10:30:00 PM 15.86 60.548 0.073 7.36 11.71 9.56
7/4/2021 10:45:00 PM 15.81 60.458 0.073 7.35 11.83 9.57
7/4/2021 11:00:00 PM 15.77 60.386 0.073 7.33 11.53 9.58
7/4/2021 11:15:00 PM 15.72 60.296 0.073 7.36 10.95 9.6
7/4/2021 11:30:00 PM 15.67 60.206 0.073 7.36 11.1 9.61
7/4/2021 11:45:00 PM 15.63 60.134 0.073 7.33 10.62 9.62
7/5/2021 12:00:00 AM 15.58 60.044 0.073 7.33 10.68 9.64
7/5/2021 12:15:00 AM 15.53 59.954 0.073 7.35 11.04 9.66
7/5/2021 12:30:00 AM 15.49 59.882 0.073 7.38 11 9.67
7/5/2021 12:45:00 AM 15.43 59.774 0.073 7.35 10.38 9.68
7/5/2021 1:00:00 AM 15.39 59.702 0.073 7.38 10.54 9.69
7/5/2021 1:15:00 AM 15.34 59.612 0.073 7.38 12.43 9.7
7/5/2021 1:30:00 AM 15.29 59.522 0.073 7.37 10.92 9.7
7/5/2021 1:45:00 AM 15.24 59.432 0.073 7.38 10.25 9.71
7/5/2021 2:00:00 AM 15.2 59.36 0.073 7.38 10.92 9.72
7/5/2021 2:15:00 AM 15.15 59.27 0.073 7.34 10.88 9.73
7/5/2021 2:30:00 AM 15.1 59.18 0.073 7.37 10.74 9.74
7/5/2021 2:45:00 AM 15.05 59.09 0.073 7.38 10.53 9.75
7/5/2021 3:00:00 AM 15 59 0.073 7.33 10.68 9.76
7/5/2021 3:15:00 AM 14.95 58.91 0.073 7.37 10.04 9.78
7/5/2021 3:30:00 AM 14.91 58.838 0.073 7.34 10.89 9.79
7/5/2021 3:45:00 AM 14.88 58.784 0.073 7.37 10.49 9.81
7/5/2021 4:00:00 AM 14.85 58.73 0.073 7.35 11.14 9.82
7/5/2021 4:15:00 AM 14.82 58.676 0.073 7.38 9.84 9.82
7/5/2021 4:30:00 AM 14.79 58.622 0.073 7.38 9.97 9.83
7/5/2021 4:45:00 AM 14.77 58.586 0.072 7.37 10.49 9.84
7/5/2021 5:00:00 AM 14.74 58.532 0.072 7.37 10.87 9.84
7/5/2021 5:15:00 AM 14.71 58.478 0.072 7.37 11.01 9.85
7/5/2021 5:30:00 AM 14.68 58.424 0.072 7.36 10.87 9.85
7/5/2021 5:45:00 AM 14.65 58.37 0.072 7.38 10.77 9.87
7/5/2021 6:00:00 AM 14.63 58.334 0.072 7.34 11.73 9.87
7/5/2021 6:15:00 AM 14.6 58.28 0.072 7.38 10.83 9.89
7/5/2021 6:30:00 AM 14.58 58.244 0.072 7.34 11.51 9.89
7/5/2021 6:45:00 AM 14.56 58.208 0.072 7.38 13.08 9.9
7/5/2021 7:00:00 AM 14.55 58.19 0.072 7.38 11.39 9.91
7/5/2021 7:15:00 AM 14.54 58.172 0.072 7.39 11.21 9.92
7/5/2021 7:30:00 AM 14.53 58.154 0.072 7.39 11.02 9.93
7/5/2021 7:45:00 AM 14.53 58.154 0.072 7.39 10.87 9.95
7/5/2021 8:00:00 AM 14.54 58.172 0.072 7.41 11.31 9.96
7/5/2021 8:15:00 AM 14.55 58.19 0.072 7.39 11.06 9.97
7/5/2021 8:30:00 AM 14.59 58.262 0.072 7.4 11.14 9.98
7/5/2021 8:45:00 AM 14.65 58.37 0.072 7.4 11.26 9.99
7/5/2021 9:00:00 AM 14.73 58.514 0.072 7.39 11.35 9.98
7/5/2021 9:15:00 AM 14.82 58.676 0.072 7.4 10.92 9.98
7/5/2021 9:30:00 AM 14.92 58.856 0.071 7.43 11.05 9.97
7/5/2021 9:45:00 AM 15.03 59.054 0.072 7.43 11.38 9.95
7/5/2021 10:00:00 AM 15.12 59.216 0.071 7.42 11.2 9.94
7/5/2021 10:15:00 AM 15.27 59.486 0.071 7.41 11.49 9.93
7/5/2021 10:30:00 AM 15.44 59.792 0.071 7.4 11.96 9.9
7/5/2021 10:45:00 AM 15.6 60.08 0.071 7.45 11.48 9.88
7/5/2021 11:00:00 AM 15.81 60.458 0.071 7.47 11.57 9.84
7/5/2021 11:15:00 AM 16.01 60.818 0.071 7.47 11.26 9.81
7/5/2021 11:30:00 AM 16.18 61.124 0.071 7.46 11.24 9.78
7/5/2021 11:45:00 AM 16.33 61.394 0.071 7.44 11.28 9.73
7/5/2021 12:00:00 PM 16.46 61.628 0.071 7.49 11.51 9.7
7/5/2021 12:15:00 PM 16.58 61.844 0.071 7.47 11.33 9.68
7/5/2021 12:30:00 PM 16.72 62.096 0.071 7.47 11.52 9.65
7/5/2021 12:45:00 PM 16.82 62.276 0.071 7.49 11.7 9.63
7/5/2021 1:00:00 PM 16.93 62.474 0.071 7.48 11.76 9.59
7/5/2021 1:15:00 PM 17.03 62.654 0.071 7.49 11.59 9.57
7/5/2021 1:30:00 PM 17.08 62.744 0.071 7.5 11.39 9.55
7/5/2021 1:45:00 PM 17.15 62.87 0.071 7.47 11.06 9.53
7/5/2021 2:00:00 PM 17.24 63.032 0.071 7.47 10.99 9.52
7/5/2021 2:15:00 PM 17.29 63.122 0.071 7.49 11.56 9.5
7/5/2021 2:30:00 PM 17.35 63.23 0.071 7.48 11.6 9.48
7/5/2021 2:45:00 PM 17.36 63.248 0.071 7.46 11.43 9.47
7/5/2021 3:00:00 PM 17.4 63.32 0.071 7.47 11.43 9.45
7/5/2021 3:15:00 PM 17.44 63.392 0.071 7.45 11.49 9.44
7/5/2021 3:30:00 PM 17.45 63.41 0.071 7.45 11.14 9.42
7/5/2021 3:45:00 PM 17.45 63.41 0.071 7.47 10.8 9.41
7/5/2021 4:00:00 PM 17.48 63.464 0.071 7.45 11.42 9.4
7/5/2021 4:15:00 PM 17.51 63.518 0.071 7.43 11.64 9.38
7/5/2021 4:30:00 PM 17.52 63.536 0.071 7.42 11.6 9.38
7/5/2021 4:45:00 PM 17.55 63.59 0.071 7.45 11.5 9.36
7/5/2021 5:00:00 PM 17.55 63.59 0.071 7.44 11.56 9.34
7/5/2021 5:15:00 PM 17.54 63.572 0.071 7.43 12.01 9.34
7/5/2021 5:30:00 PM 17.52 63.536 0.071 7.41 12.18 9.33
7/5/2021 5:45:00 PM 17.51 63.518 0.071 7.41 11.65 9.32
7/5/2021 6:00:00 PM 17.49 63.482 0.071 7.38 11.93 9.31
7/5/2021 6:15:00 PM 17.48 63.464 0.072 7.37 12.31 9.3
7/5/2021 6:30:00 PM 17.47 63.446 0.072 7.36 12.27 9.29
7/5/2021 6:45:00 PM 17.45 63.41 0.072 7.36 12.46 9.28
7/5/2021 7:00:00 PM 17.42 63.356 0.072 7.36 12.24 9.27
7/5/2021 7:15:00 PM 17.4 63.32 0.072 7.34 12.13 9.27
7/5/2021 7:30:00 PM 17.39 63.302 0.072 7.32 12.39 9.27
7/5/2021 7:45:00 PM 17.37 63.266 0.078 7.32 12.04 9.26
7/5/2021 8:00:00 PM 17.35 63.23 0.073 7.33 12.11 9.26
7/5/2021 8:15:00 PM 17.33 63.194 0.073 7.35 13.05 9.25
7/5/2021 8:30:00 PM 17.3 63.14 0.072 7.3 13.06 9.25
7/5/2021 8:45:00 PM 17.28 63.104 0.086 7.3 12.3 9.25
7/5/2021 9:00:00 PM 17.25 63.05 0.076 7.34 13.22 9.25
7/5/2021 9:15:00 PM 17.23 63.014 0.077 7.32 13.99 9.25
7/5/2021 9:30:00 PM 17.21 62.978 0.073 7.3 13.29 9.26
7/5/2021 9:45:00 PM 17.19 62.942 0.073 7.3 13.61 9.26
7/5/2021 10:00:00 PM 17.16 62.888 0.073 7.29 12.63 9.27
7/5/2021 10:15:00 PM 17.13 62.834 0.073 7.31 12.32 9.27
7/5/2021 10:30:00 PM 17.11 62.798 0.073 7.33 11.97 9.28
7/5/2021 10:45:00 PM 17.08 62.744 0.073 7.3 11.71 9.29
7/5/2021 11:00:00 PM 17.06 62.708 0.073 7.31 11.87 9.29
7/5/2021 11:15:00 PM 17.03 62.654 0.073 7.3 11.7 9.29
7/5/2021 11:30:00 PM 17 62.6 0.073 7.3 11.68 9.3
7/5/2021 11:45:00 PM 16.98 62.564 0.073 7.31 11.53 9.31
7/6/2021 12:00:00 AM 16.95 62.51 0.073 7.3 11.2 9.31
7/6/2021 12:15:00 AM 16.92 62.456 0.073 7.33 10.99 9.32
7/6/2021 12:30:00 AM 16.88 62.384 0.073 7.32 11.26 9.33
7/6/2021 12:45:00 AM 16.84 62.312 0.074 7.32 11.52 9.34
7/6/2021 1:00:00 AM 16.81 62.258 0.073 7.33 11.26 9.35
7/6/2021 1:15:00 AM 16.79 62.222 0.073 7.32 11.3 9.36
7/6/2021 1:30:00 AM 16.76 62.168 0.073 7.33 11.59 9.36
7/6/2021 1:45:00 AM 16.74 62.132 0.073 7.33 11.34 9.36
7/6/2021 2:00:00 AM 16.72 62.096 0.073 7.33 11.34 9.37
7/6/2021 2:15:00 AM 16.69 62.042 0.073 7.32 11.28 9.37
7/6/2021 2:30:00 AM 16.67 62.006 0.073 7.33 11.47 9.38
7/6/2021 2:45:00 AM 16.65 61.97 0.073 7.31 11.08 9.39
7/6/2021 3:00:00 AM 16.62 61.916 0.073 7.32 11.12 9.39
7/6/2021 3:15:00 AM 16.6 61.88 0.073 7.32 11.34 9.4
7/6/2021 3:30:00 AM 16.59 61.862 0.073 7.31 11.13 9.4
7/6/2021 3:45:00 AM 16.57 61.826 0.073 7.32 10.98 9.4
7/6/2021 4:00:00 AM 16.55 61.79 0.073 7.31 11.1 9.4
7/6/2021 4:15:00 AM 16.53 61.754 0.073 7.32 10.81 9.41
7/6/2021 4:30:00 AM 16.51 61.718 0.073 7.3 10.67 9.41
7/6/2021 4:45:00 AM 16.5 61.7 0.073 7.29 11.03 9.41
7/6/2021 5:00:00 AM 16.49 61.682 0.073 7.32 11.52 9.41
7/6/2021 5:15:00 AM 16.47 61.646 0.073 7.32 11.44 9.42
7/6/2021 5:30:00 AM 16.46 61.628 0.073 7.31 12.32 9.42
7/6/2021 5:45:00 AM 16.44 61.592 0.073 7.31 12.02 9.43
7/6/2021 6:00:00 AM 16.44 61.592 0.073 7.31 13.29 9.43
7/6/2021 6:15:00 AM 16.43 61.574 0.073 7.32 12.74 9.44
7/6/2021 6:30:00 AM 16.42 61.556 0.073 7.32 12.62 9.45
7/6/2021 6:45:00 AM 16.42 61.556 0.073 7.33 12.05 9.45
7/6/2021 7:00:00 AM 16.42 61.556 0.073 7.31 11.99 9.46
7/6/2021 7:15:00 AM 16.42 61.556 0.073 7.32 12.21 9.47
7/6/2021 7:30:00 AM 16.44 61.592 0.073 7.27 12.32 9.48
7/6/2021 7:45:00 AM 16.47 61.646 0.073 7.3 12.11 9.49
7/6/2021 8:00:00 AM 16.51 61.718 0.073 7.33 12.73 9.49
7/6/2021 8:15:00 AM 16.56 61.808 0.073 7.33 12.25 9.5
7/6/2021 8:30:00 AM 16.63 61.934 0.073 7.34 11.83 9.5
7/6/2021 8:45:00 AM 16.7 62.06 0.073 7.34 12.11 9.5
7/6/2021 9:00:00 AM 16.79 62.222 0.073 7.41 12.15 9.5
7/6/2021 9:15:00 AM 16.89 62.402 0.073 7.41 13.73 9.5
7/6/2021 9:30:00 AM 17.02 62.636 0.073 7.42 13.03 9.49
7/6/2021 9:45:00 AM 17.14 62.852 0.072 7.42 12.58 9.48
7/6/2021 10:00:00 AM 17.3 63.14 0.072 7.45 12.15 9.47
7/6/2021 10:15:00 AM 17.45 63.41 0.072 7.47 12.04 9.45
7/6/2021 10:30:00 AM 17.56 63.608 0.072 7.49 12.31 9.43
7/6/2021 10:45:00 AM 17.62 63.716 0.072 7.47 12.37 9.4
7/6/2021 11:00:00 AM 17.78 64.004 0.072 7.47 11.87 9.38
7/6/2021 11:15:00 AM 17.92 64.256 0.072 7.48 12.56 9.36
7/6/2021 11:30:00 AM 18.1 64.58 0.072 7.49 11.79 9.34
7/6/2021 11:45:00 AM 18.25 64.85 0.072 7.48 11.99 9.3
7/6/2021 12:00:00 PM 18.44 65.192 0.072 7.49 12.17 9.27
7/6/2021 12:15:00 PM 18.59 65.462 0.072 7.49 12.08 9.23
7/6/2021 12:30:00 PM 18.78 65.804 0.072 7.5 12.05 9.21
7/6/2021 12:45:00 PM 18.84 65.912 0.072 7.5 11.9 9.17
7/6/2021 1:00:00 PM 18.84 65.912 0.072 7.48 11.86 9.13
7/6/2021 1:15:00 PM 18.93 66.074 0.072 7.5 12.75 9.14
7/6/2021 1:30:00 PM 19.06 66.308 0.072 7.51 12.86 9.12
7/6/2021 1:45:00 PM 19.18 66.524 0.072 7.51 12.98 9.1
7/6/2021 2:00:00 PM 19.19 66.542 0.072 7.52 12.78 9.07
7/6/2021 2:15:00 PM 19 66.2 0.072 7.48 12.11 9.01
7/6/2021 2:30:00 PM 18.79 65.82201 0.072 7.48 13.27 9
7/6/2021 2:45:00 PM 18.62 65.516 0.072 7.45 13.19 9.02
7/6/2021 3:00:00 PM 18.49 65.282 0.072 7.44 13.33 9.04
7/6/2021 3:15:00 PM 18.4 65.12 0.072 7.44 13.16 9.08
7/6/2021 3:30:00 PM 18.44 65.192 0.072 7.47 12.58 9.16
7/6/2021 3:45:00 PM 18.52 65.336 0.072 7.47 12.61 9.16
7/6/2021 4:00:00 PM 18.56 65.408 0.072 7.46 12.62 9.14
7/6/2021 4:15:00 PM 18.62 65.516 0.072 7.44 12.62 9.12
7/6/2021 4:30:00 PM 18.64 65.552 0.072 7.44 12.61 9.1
7/6/2021 4:45:00 PM 18.66 65.588 0.072 7.44 12.04 9.09
7/6/2021 5:00:00 PM 18.61 65.498 0.073 7.43 13.17 9.05
7/6/2021 5:15:00 PM 18.57 65.426 0.072 7.44 12.8 9.04
7/6/2021 5:30:00 PM 18.52 65.336 0.072 7.42 12.86 9.05
7/6/2021 5:45:00 PM 18.48 65.264 0.073 7.42 13.11 9.06
7/6/2021 6:00:00 PM 18.44 65.192 0.073 7.4 12.91 9.05
7/6/2021 6:15:00 PM 18.45 65.21 0.073 7.38 12.8 9.09
7/6/2021 6:30:00 PM 18.45 65.21 0.073 7.39 13.09 9.09
7/6/2021 6:45:00 PM 18.45 65.21 0.073 7.41 13.4 9.06
7/6/2021 7:00:00 PM 18.41 65.138 0.073 7.36 13.04 9.05
7/6/2021 7:15:00 PM 18.37 65.066 0.073 7.35 13.03 9.03
7/6/2021 7:30:00 PM 18.33 64.994 0.073 7.34 12.76 9.03
7/6/2021 7:45:00 PM 18.29 64.922 0.073 7.33 12.8 9.04
7/6/2021 8:00:00 PM 18.26 64.868 0.073 7.35 12.49 9.05
7/6/2021 8:15:00 PM 18.23 64.814 0.073 7.34 12.78 9.05
7/6/2021 8:30:00 PM 18.2 64.76 0.073 7.31 13.06 9.05
7/6/2021 8:45:00 PM 18.17 64.706 0.073 7.3 13.3 9.05
7/6/2021 9:00:00 PM 18.14 64.652 0.073 7.29 12.19 9.05
7/6/2021 9:15:00 PM 18.1 64.58 0.073 7.32 13.57 9.06
7/6/2021 9:30:00 PM 18.07 64.526 0.073 7.29 13.51 9.07
7/6/2021 9:45:00 PM 18.03 64.454 0.073 7.28 13.08 9.08
7/6/2021 10:00:00 PM 18 64.4 0.074 7.29 13.34 9.08
7/6/2021 10:15:00 PM 17.96 64.328 0.074 7.3 13.5 9.1
7/6/2021 10:30:00 PM 17.92 64.256 0.074 7.31 12.88 9.1
7/6/2021 10:45:00 PM 17.89 64.202 0.074 7.26 12.62 9.11
7/6/2021 11:00:00 PM 17.85 64.13 0.074 7.29 11.93 9.11
7/6/2021 11:15:00 PM 17.82 64.076 0.074 7.31 11.51 9.12
7/6/2021 11:30:00 PM 17.79 64.022 0.074 7.32 11.92 9.13
7/6/2021 11:45:00 PM 17.75 63.95 0.074 7.32 11.85 9.14
7/7/2021 12:00:00 AM 17.71 63.878 0.074 7.33 11.85 9.14
7/7/2021 12:15:00 AM 17.68 63.824 0.074 7.33 11.59 9.16
7/7/2021 12:30:00 AM 17.64 63.752 0.074 7.33 11.63 9.16
7/7/2021 12:45:00 AM 17.62 63.716 0.074 7.35 11.22 9.17
7/7/2021 1:00:00 AM 17.58 63.644 0.074 7.35 11.75 9.18
7/7/2021 1:15:00 AM 17.55 63.59 0.074 7.34 11.82 9.19
7/7/2021 1:30:00 AM 17.51 63.518 0.074 7.35 11.57 9.2
7/7/2021 1:45:00 AM 17.48 63.464 0.074 7.35 11.18 9.21
7/7/2021 2:00:00 AM 17.44 63.392 0.074 7.35 12.27 9.22
7/7/2021 2:15:00 AM 17.41 63.338 0.074 7.33 11.94 9.22
7/7/2021 2:30:00 AM 17.37 63.266 0.074 7.34 11.7 9.23
7/7/2021 2:45:00 AM 17.34 63.212 0.074 7.34 11.87 9.24
7/7/2021 3:00:00 AM 17.31 63.158 0.074 7.34 12.15 9.24
7/7/2021 3:15:00 AM 17.28 63.104 0.074 7.34 11.41 9.25
7/7/2021 3:30:00 AM 17.25 63.05 0.074 7.35 11.69 9.26
7/7/2021 3:45:00 AM 17.22 62.996 0.074 7.34 11.56 9.26
7/7/2021 4:00:00 AM 17.2 62.96 0.074 7.35 11.44 9.27
7/7/2021 4:15:00 AM 17.18 62.924 0.074 7.35 11.82 9.27
7/7/2021 4:30:00 AM 17.16 62.888 0.074 7.32 11.49 9.27
7/7/2021 4:45:00 AM 17.14 62.852 0.074 7.34 11.8 9.27
7/7/2021 5:00:00 AM 17.13 62.834 0.074 7.32 11.96 9.27
7/7/2021 5:15:00 AM 17.11 62.798 0.074 7.1 12.16 9.28
7/7/2021 5:30:00 AM 17.08 62.744 0.074 7.33 12.29 9.28
7/7/2021 5:45:00 AM 17.07 62.726 0.074 7.32 12.31 9.29
7/7/2021 6:00:00 AM 17.05 62.69 0.074 7.31 12.66 9.3
7/7/2021 6:15:00 AM 17.03 62.654 0.074 7.31 12.68 9.3
7/7/2021 6:30:00 AM 17.01 62.618 0.074 7.31 12.42 9.31
7/7/2021 6:45:00 AM 17 62.6 0.074 7.31 12.59 9.32
7/7/2021 7:00:00 AM 17 62.6 0.074 7.32 12.95 9.34
7/7/2021 7:15:00 AM 17.01 62.618 0.074 7.34 12.89 9.35
7/7/2021 7:30:00 AM 17.02 62.636 0.074 7.37 12.69 9.35
7/7/2021 7:45:00 AM 17.03 62.654 0.074 7.4 12.93 9.36
7/7/2021 8:00:00 AM 17.06 62.708 0.073 7.4 13.06 9.37
7/7/2021 8:15:00 AM 17.09 62.762 0.073 7.39 12.85 9.37
7/7/2021 8:30:00 AM 17.14 62.852 0.073 7.39 13.72 9.37
7/7/2021 8:45:00 AM 17.19 62.942 0.073 7.41 13.22 9.38
7/7/2021 9:00:00 AM 17.25 63.05 0.073 7.4 13.63 9.39
7/7/2021 9:15:00 AM 17.33 63.194 0.073 7.41 13.1 9.39
7/7/2021 9:30:00 AM 17.43 63.374 0.073 7.43 13.08 9.39
7/7/2021 9:45:00 AM 17.53 63.554 0.073 7.42 13.18 9.39
7/7/2021 10:00:00 AM 17.67 63.806 0.073 7.46 13.27 9.37
7/7/2021 10:15:00 AM 17.81 64.058 0.073 7.48 12.96 9.35
7/7/2021 10:30:00 AM 17.95 64.31 0.073 7.49 13.55 9.34
7/7/2021 10:45:00 AM 18.1 64.58 0.073 7.49 14.62 9.32
7/7/2021 11:00:00 AM 18.13 64.634 0.073 7.46 13.22 9.27
7/7/2021 11:15:00 AM 18.32 64.976 0.073 7.48 13.8 9.27
7/7/2021 11:30:00 AM 18.55 65.39 0.073 7.49 13.35 9.24
7/7/2021 11:45:00 AM 18.72 65.696 0.073 7.52 13.46 9.21
7/7/2021 12:00:00 PM 18.85 65.93 0.073 7.53 13.14 9.18
7/7/2021 12:15:00 PM 18.96 66.128 0.072 7.51 12.87 9.15
7/7/2021 12:30:00 PM 19.08 66.344 0.072 7.52 13.26 9.13
7/7/2021 12:45:00 PM 19.22 66.596 0.072 7.55 13.34 9.11
7/7/2021 1:00:00 PM 19.33 66.794 0.073 7.52 12.82 9.09
7/7/2021 1:15:00 PM 19.42 66.956 0.072 7.55 13.56 9.07
7/7/2021 1:30:00 PM 19.39 66.902 0.073 7.53 13.74 9.04
7/7/2021 1:45:00 PM 19.32 66.776 0.073 7.52 13.57 9.02
7/7/2021 2:00:00 PM 19.21 66.578 0.072 7.49 13.68 9.01
7/7/2021 2:15:00 PM 19.19 66.542 0.073 7.48 14.11 9.03
7/7/2021 2:30:00 PM 19.29 66.722 0.072 7.48 15.69 9.04
7/7/2021 2:45:00 PM 19.37 66.866 0.072 7.5 13.78 9.03
7/7/2021 3:00:00 PM 19.43 66.974 0.073 7.51 13.87 9.01
7/7/2021 3:15:00 PM 19.48 67.064 0.073 7.52 13.19 8.99
7/7/2021 3:30:00 PM 19.52 67.136 0.073 7.51 13.55 8.98
7/7/2021 3:45:00 PM 19.51 67.118 0.073 7.49 13.89 8.95
7/7/2021 4:00:00 PM 19.51 67.118 0.073 7.5 14.13 8.95
7/7/2021 4:15:00 PM 19.5 67.1 0.073 7.49 13.88 8.94
7/7/2021 4:30:00 PM 19.49 67.082 0.073 7.5 14.57 8.93
7/7/2021 4:45:00 PM 19.47 67.046 0.073 7.47 14.48 8.92
7/7/2021 5:00:00 PM 19.44 66.992 0.073 7.46 14.08 8.92
7/7/2021 5:15:00 PM 19.4 66.92 0.073 7.47 13.93 8.91
7/7/2021 5:30:00 PM 19.37 66.866 0.073 7.45 14.06 8.91
7/7/2021 5:45:00 PM 19.32 66.776 0.073 7.41 13.64 8.9
7/7/2021 6:00:00 PM 19.27 66.686 0.073 7.42 14.33 8.89
7/7/2021 6:15:00 PM 19.22 66.596 0.073 7.4 12.59 8.89
7/7/2021 6:30:00 PM 19.18 66.524 0.073 7.4 14.7 8.9
7/7/2021 6:45:00 PM 19.13 66.434 0.074 7.38 14.61 8.88
7/7/2021 7:00:00 PM 19.07 66.326 0.074 7.38 15.14 8.86
7/7/2021 7:15:00 PM 19.01 66.218 0.074 7.4 14.05 8.87
7/7/2021 7:30:00 PM 18.96 66.128 0.074 7.35 13.83 8.87
7/7/2021 7:45:00 PM 18.91 66.038 0.074 7.36 13.51 8.88
7/7/2021 8:00:00 PM 18.87 65.966 0.074 7.36 15.38 8.89
7/7/2021 8:15:00 PM 18.85 65.93 0.074 7.39 14.93 8.88
7/7/2021 8:30:00 PM 18.79 65.82201 0.074 7.43 15.31 8.9
7/7/2021 8:45:00 PM 18.72 65.696 0.066 7.39 42.62 9
7/7/2021 9:00:00 PM 18.84 65.912 0.062 7.34 117.8 8.95
7/7/2021 9:15:00 PM 18.7 65.66 0.062 7.36 287.2 8.98
7/7/2021 9:30:00 PM 18.79 65.82201 0.072 7.37 205.96 8.97
7/7/2021 9:45:00 PM 18.69 65.642 0.071 7.39 94.98 8.98
7/7/2021 10:00:00 PM 18.6 65.48 0.071 7.41 72.22 9
7/7/2021 10:15:00 PM 18.5 65.3 0.073 7.4 74.95 9.01
7/7/2021 10:30:00 PM 18.47 65.246 0.075 7.45 61.17 9.02
7/7/2021 10:45:00 PM 18.44 65.192 0.076 7.45 45.25 9.03
7/7/2021 11:00:00 PM 18.39 65.102 0.076 7.44 35.2 9.03
7/7/2021 11:15:00 PM 18.34 65.012 0.076 7.46 30.51 9.05
7/7/2021 11:30:00 PM 18.27 64.886 0.075 7.46 23.73 9.06
7/7/2021 11:45:00 PM 18.21 64.778 0.075 7.45 23.27 9.08
7/8/2021 12:00:00 AM 18.13 64.634 0.074 7.44 21.76 9.09
7/8/2021 12:15:00 AM 18.06 64.508 0.073 7.43 19.8 9.12
7/8/2021 12:30:00 AM 18 64.4 0.074 7.44 19.1 9.14
7/8/2021 12:45:00 AM 17.94 64.292 0.073 7.45 18.39 9.15
7/8/2021 1:00:00 AM 17.89 64.202 0.073 7.41 19.08 9.15
7/8/2021 1:15:00 AM 17.84 64.112 0.073 7.43 18.67 9.16
7/8/2021 1:30:00 AM 17.8 64.04 0.073 7.44 19.82 9.16
7/8/2021 1:45:00 AM 17.75 63.95 0.073 7.45 19.09 9.17
7/8/2021 2:00:00 AM 17.72 63.896 0.073 7.44 16.87 9.18
7/8/2021 2:15:00 AM 17.68 63.824 0.074 7.44 17.36 9.18
7/8/2021 2:30:00 AM 17.65 63.77 0.074 7.43 15.71 9.19
7/8/2021 2:45:00 AM 17.61 63.698 0.074 7.44 13.77 9.2
7/8/2021 3:00:00 AM 17.57 63.626 0.074 7.39 15.1 9.21
7/8/2021 3:15:00 AM 17.54 63.572 0.074 7.43 14.92 9.21
7/8/2021 3:30:00 AM 17.51 63.518 0.074 7.39 13.57 9.22
7/8/2021 3:45:00 AM 17.49 63.482 0.075 7.4 14.07 9.21
7/8/2021 4:00:00 AM 17.46 63.428 0.075 7.42 14.06 9.22
7/8/2021 4:15:00 AM 17.43 63.374 0.075 7.41 13.31 9.22
7/8/2021 4:30:00 AM 17.41 63.338 0.075 7.41 13.1 9.22
7/8/2021 4:45:00 AM 17.38 63.284 0.075 7.41 13.66 9.23
7/8/2021 5:00:00 AM 17.35 63.23 0.075 7.41 13.31 9.24
7/8/2021 5:15:00 AM 17.32 63.176 0.076 7.39 13.78 9.24
7/8/2021 5:30:00 AM 17.29 63.122 0.076 7.41 13.97 9.24
7/8/2021 5:45:00 AM 17.27 63.086 0.076 7.4 13.64 9.25
7/8/2021 6:00:00 AM 17.24 63.032 0.076 7.4 14.55 9.26
7/8/2021 6:15:00 AM 17.22 62.996 0.076 7.39 13.53 9.26
7/8/2021 6:30:00 AM 17.2 62.96 0.076 7.41 13.7 9.28
7/8/2021 6:45:00 AM 17.19 62.942 0.077 7.4 15.13 9.29
7/8/2021 7:00:00 AM 17.18 62.924 0.077 7.4 13.72 9.29
7/8/2021 7:15:00 AM 17.17 62.906 0.077 7.4 13.95 9.29
7/8/2021 7:30:00 AM 17.16 62.888 0.077 7.43 12.13 9.29
7/8/2021 7:45:00 AM 17.14 62.852 0.077 7.39 14.34 9.3
7/8/2021 8:00:00 AM 17.13 62.834 0.077 7.38 13.95 9.31
7/8/2021 8:15:00 AM 17.12 62.816 0.077 7.38 13.51 9.31
7/8/2021 8:30:00 AM 17.1 62.78 0.077 7.37 13.01 9.31
7/8/2021 8:45:00 AM 17.1 62.78 0.077 7.39 13.27 9.33
7/8/2021 9:00:00 AM 17.09 62.762 0.077 7.37 12.89 9.34
7/8/2021 9:15:00 AM 17.11 62.798 0.077 7.41 12.97 9.36
7/8/2021 9:30:00 AM 17.14 62.852 0.077 7.42 13.04 9.39
7/8/2021 9:45:00 AM 17.14 62.852 0.077 7.43 13.12 9.35
7/8/2021 10:00:00 AM 17.13 62.834 0.077 7.4 12.64 9.33
7/8/2021 10:15:00 AM 17.13 62.834 0.077 7.4 13.03 9.34
7/8/2021 10:30:00 AM 17.16 62.888 0.077 7.39 12.78 9.38
7/8/2021 10:45:00 AM 17.19 62.942 0.077 7.43 13.23 9.38
7/8/2021 11:00:00 AM 17.24 63.032 0.077 7.44 12.98 9.39
7/8/2021 11:15:00 AM 17.31 63.158 0.076 7.45 12.19 9.4
7/8/2021 11:30:00 AM 17.41 63.338 0.076 7.46 12.84 9.39
7/8/2021 11:45:00 AM 17.46 63.428 0.076 7.48 13.03 9.37
7/8/2021 12:00:00 PM 17.48 63.464 0.076 7.45 12.8 9.36
7/8/2021 12:15:00 PM 17.5 63.5 0.076 7.44 13.54 9.35
7/8/2021 12:30:00 PM 17.56 63.608 0.076 7.48 12.52 9.37
7/8/2021 12:45:00 PM 17.65 63.77 0.076 7.48 12.97 9.35
7/8/2021 1:00:00 PM 17.76 63.968 0.076 7.49 12.99 9.35
7/8/2021 1:15:00 PM 17.84 64.112 0.076 7.5 13.14 9.31
7/8/2021 1:30:00 PM 17.81 64.058 0.076 7.48 13.5 9.26
7/8/2021 1:45:00 PM 17.79 64.022 0.076 7.47 12.69 9.24
7/8/2021 2:00:00 PM 17.78 64.004 0.076 7.46 12.96 9.25
7/8/2021 2:15:00 PM 17.76 63.968 0.076 7.46 12.67 9.26
7/8/2021 2:30:00 PM 17.8 64.04 0.076 7.48 13.37 9.29
7/8/2021 2:45:00 PM 17.89 64.202 0.076 7.49 13.37 9.3
7/8/2021 3:00:00 PM 17.97 64.346 0.076 7.51 13.02 9.28
7/8/2021 3:15:00 PM 17.98 64.364 0.076 7.47 13.62 9.24
7/8/2021 3:30:00 PM 17.97 64.346 0.076 7.48 13.01 9.2
7/8/2021 3:45:00 PM 17.98 64.364 0.076 7.46 13.46 9.23
7/8/2021 4:00:00 PM 17.98 64.364 0.076 7.45 12.74 9.23
7/8/2021 4:15:00 PM 17.97 64.346 0.076 7.44 13.23 9.2
7/8/2021 4:30:00 PM 17.95 64.31 0.076 7.44 12.83 9.16
7/8/2021 4:45:00 PM 17.94 64.292 0.076 7.43 14.98 9.16
7/8/2021 5:00:00 PM 17.94 64.292 0.076 7.44 13.92 9.18
7/8/2021 5:15:00 PM 17.94 64.292 0.076 7.46 13.4 9.18
7/8/2021 5:30:00 PM 17.92 64.256 0.076 7.44 13.61 9.16
7/8/2021 5:45:00 PM 17.89 64.202 0.076 7.25 13.63 9.16
7/8/2021 6:00:00 PM 17.86 64.148 0.076 7.4 13.92 9.15
7/8/2021 6:15:00 PM 17.84 64.112 0.075 7.38 14.08 9.13
7/8/2021 6:30:00 PM 17.83 64.094 0.075 7.38 15.96 9.12
7/8/2021 6:45:00 PM 17.83 64.094 0.075 7.43 17.63 9.15
7/8/2021 7:00:00 PM 17.82 64.076 0.075 7.44 23.88 9.14
7/8/2021 7:15:00 PM 17.78 64.004 0.076 7.43 25.68 9.14
7/8/2021 7:30:00 PM 17.79 64.022 0.074 7.42 26.49 9.16
7/8/2021 7:45:00 PM 17.91 64.238 0.07 7.4 46.54 9.16
7/8/2021 8:00:00 PM 18.12 64.616 0.07 7.38 381.57 9.17
7/8/2021 8:15:00 PM 18.41 65.138 0.066 7.38 299.73 9.11
7/8/2021 8:30:00 PM 18.43 65.174 0.065 7.4 196.05 9.1
7/8/2021 8:45:00 PM 18.43 65.174 0.065 7.38 122.05 9.11
7/8/2021 9:00:00 PM 18.29 64.922 0.065 7.33 88.31 9.13
7/8/2021 9:15:00 PM 18.14 64.652 0.065 7.32 70.31 9.16
7/8/2021 9:30:00 PM 18.01 64.418 0.065 7.32 55.75 9.19
7/8/2021 9:45:00 PM 17.89 64.202 0.066 7.31 50.04 9.21
7/8/2021 10:00:00 PM 17.78 64.004 0.066 7.3 45.99 9.22
7/8/2021 10:15:00 PM 17.69 63.842 0.066 7.3 43.58 9.24
7/8/2021 10:30:00 PM 17.61 63.698 0.067 7.32 39.59 9.26
7/8/2021 10:45:00 PM 17.55 63.59 0.068 7.3 37.69 9.27
7/8/2021 11:00:00 PM 17.49 63.482 0.068 7.29 33.76 9.28
7/8/2021 11:15:00 PM 17.44 63.392 0.068 7.29 33.47 9.3
7/8/2021 11:30:00 PM 17.4 63.32 0.069 7.31 29.46 9.3
7/8/2021 11:45:00 PM 17.36 63.248 0.069 7.34 28.58 9.3
7/9/2021 12:00:00 AM 17.32 63.176 0.069 7.32 23.6 9.31
7/9/2021 12:15:00 AM 17.29 63.122 0.07 7.32 24.21 9.31
7/9/2021 12:30:00 AM 17.25 63.05 0.07 7.35 24.77 9.32
7/9/2021 12:45:00 AM 17.21 62.978 0.07 7.33 24.72 9.32
7/9/2021 1:00:00 AM 17.17 62.906 0.07 7.35 21.67 9.32
7/9/2021 1:15:00 AM 17.14 62.852 0.071 7.34 21.21 9.33
7/9/2021 1:30:00 AM 17.11 62.798 0.071 7.32 19.69 9.33
7/9/2021 1:45:00 AM 17.08 62.744 0.071 7.34 19.41 9.33
7/9/2021 2:00:00 AM 17.04 62.672 0.071 7.33 21.5 9.34
7/9/2021 2:15:00 AM 17 62.6 0.072 7.35 18.99 9.34
7/9/2021 2:30:00 AM 16.96 62.528 0.072 7.34 18.04 9.35
7/9/2021 2:45:00 AM 16.92 62.456 0.072 7.34 17.07 9.37
7/9/2021 3:00:00 AM 16.88 62.384 0.072 7.35 16.37 9.38
7/9/2021 3:15:00 AM 16.85 62.33 0.072 7.37 15.89 9.38
7/9/2021 3:30:00 AM 16.82 62.276 0.072 7.33 18.28 9.38
7/9/2021 3:45:00 AM 16.8 62.24 0.073 7.35 16.08 9.39
7/9/2021 4:00:00 AM 16.77 62.186 0.073 7.32 15.61 9.39
7/9/2021 4:15:00 AM 16.74 62.132 0.073 7.34 14.6 9.4
7/9/2021 4:30:00 AM 16.72 62.096 0.073 7.33 15.65 9.4
7/9/2021 4:45:00 AM 16.7 62.06 0.073 7.29 14.05 9.4
7/9/2021 5:00:00 AM 16.67 62.006 0.073 7.3 14.72 9.41
7/9/2021 5:15:00 AM 16.65 61.97 0.073 7.32 15.11 9.41
7/9/2021 5:30:00 AM 16.63 61.934 0.073 7.29 15.34 9.42
7/9/2021 5:45:00 AM 16.61 61.898 0.074 7.29 24.6 9.42
7/9/2021 6:00:00 AM 16.58 61.844 0.073 7.29 15.6 9.42
7/9/2021 6:15:00 AM 16.56 61.808 0.074 7.32 15.95 9.43
7/9/2021 6:30:00 AM 16.54 61.772 0.074 7.3 20.14 9.43
7/9/2021 6:45:00 AM 16.53 61.754 0.074 7.29 18.1 9.44
7/9/2021 7:00:00 AM 16.53 61.754 0.074 7.32 16.11 9.46
7/9/2021 7:15:00 AM 16.54 61.772 0.074 7.32 15.08 9.47
7/9/2021 7:30:00 AM 16.53 61.754 0.074 7.31 14.85 9.46
7/9/2021 7:45:00 AM 16.53 61.754 0.074 7.3 14.45 9.46
7/9/2021 8:00:00 AM 16.55 61.79 0.074 7.31 14.08 9.49
7/9/2021 8:15:00 AM 16.57 61.826 0.074 7.32 14.33 9.49
7/9/2021 8:30:00 AM 16.58 61.844 0.074 7.36 14.76 9.49
7/9/2021 8:45:00 AM 16.62 61.916 0.074 7.36 14.03 9.5
7/9/2021 9:00:00 AM 16.64 61.952 0.074 7.36 14.36 9.5
7/9/2021 9:15:00 AM 16.72 62.096 0.073 7.4 13.89 9.52
7/9/2021 9:30:00 AM 16.75 62.15 0.073 7.4 13.35 9.5
7/9/2021 9:45:00 AM 16.8 62.24 0.073 7.4 14.8 9.5
7/9/2021 10:00:00 AM 16.82 62.276 0.073 7.37 15.29 9.49
7/9/2021 10:15:00 AM 16.99 62.582 0.074 7.41 15.29 9.48
7/9/2021 10:30:00 AM 17.16 62.888 0.073 7.42 15.92 9.47
7/9/2021 10:45:00 AM 17.11 62.798 0.073 7.42 14.67 9.4
7/9/2021 11:00:00 AM 17.03 62.654 0.073 7.39 15.51 9.41
7/9/2021 11:15:00 AM 16.99 62.582 0.073 7.36 15.05 9.41
7/9/2021 11:30:00 AM 17.01 62.618 0.073 7.37 15.16 9.44
7/9/2021 11:45:00 AM 17 62.6 0.073 7.37 13.77 9.42
7/9/2021 12:00:00 PM 16.99 62.582 0.073 7.36 13.44 9.42
7/9/2021 12:15:00 PM 17.02 62.636 0.073 7.37 14.12 9.44
7/9/2021 12:30:00 PM 17.04 62.672 0.073 7.33 15.64 9.42
7/9/2021 12:45:00 PM 17.09 62.762 0.073 7.37 14.58 9.43
7/9/2021 1:00:00 PM 17.1 62.78 0.073 7.34 13.69 9.41
7/9/2021 1:15:00 PM 17.12 62.816 0.073 7.36 13.33 9.41
7/9/2021 1:30:00 PM 17.11 62.798 0.073 7.35 14.35 9.38
7/9/2021 1:45:00 PM 17.12 62.816 0.072 7.36 14.32 9.39
7/9/2021 2:00:00 PM 17.27 63.086 0.072 7.4 16.28 9.42
7/9/2021 2:15:00 PM 17.44 63.392 0.072 7.4 14.76 9.38
7/9/2021 2:30:00 PM 17.51 63.518 0.072 7.43 15.82 9.36
7/9/2021 2:45:00 PM 17.4 63.32 0.072 7.4 16.15 9.31
7/9/2021 3:00:00 PM 17.31 63.158 0.072 7.38 14.94 9.31
7/9/2021 3:15:00 PM 17.26 63.068 0.072 7.39 16.1 9.33
7/9/2021 3:30:00 PM 17.32 63.176 0.072 7.42 13.87 9.38
7/9/2021 3:45:00 PM 17.43 63.374 0.072 7.44 13.48 9.37
7/9/2021 4:00:00 PM 17.41 63.338 0.072 7.43 13.39 9.35
7/9/2021 4:15:00 PM 17.43 63.374 0.072 7.43 13.96 9.36
7/9/2021 4:30:00 PM 17.39 63.302 0.072 7.4 13.23 9.34
7/9/2021 4:45:00 PM 17.44 63.392 0.072 7.42 14.1 9.35
7/9/2021 5:00:00 PM 17.47 63.446 0.072 7.41 13.8 9.35
7/9/2021 5:15:00 PM 17.47 63.446 0.072 7.42 13.8 9.33
7/9/2021 5:30:00 PM 17.49 63.482 0.072 7.41 13.66 9.33
7/9/2021 5:45:00 PM 17.48 63.464 0.071 7.4 14.02 9.33
7/9/2021 6:00:00 PM 17.48 63.464 0.072 7.41 14.53 9.33
7/9/2021 6:15:00 PM 17.47 63.446 0.071 7.41 13.85 9.32
7/9/2021 6:30:00 PM 17.45 63.41 0.072 7.38 13.59 9.31
7/9/2021 6:45:00 PM 17.45 63.41 0.071 7.37 13.81 9.31
7/9/2021 7:00:00 PM 17.44 63.392 0.071 7.39 13.73 9.32
7/9/2021 7:15:00 PM 17.41 63.338 0.071 7.39 13.44 9.32
7/9/2021 7:30:00 PM 17.39 63.302 0.071 7.38 13.41 9.31
7/9/2021 7:45:00 PM 17.36 63.248 0.071 7.35 13.55 9.31
7/9/2021 8:00:00 PM 17.31 63.158 0.071 7.34 13.63 9.3
7/9/2021 8:15:00 PM 17.27 63.086 0.071 7.32 12.56 9.3
7/9/2021 8:30:00 PM 17.22 62.996 0.072 7.29 12.83 9.3
7/9/2021 8:45:00 PM 17.19 62.942 0.072 7.3 14.12 9.31
7/9/2021 9:00:00 PM 17.16 62.888 0.072 7.32 13.42 9.32
7/9/2021 9:15:00 PM 17.12 62.816 0.072 7.36 13.86 9.33
7/9/2021 9:30:00 PM 17.07 62.726 0.071 7.36 13.55 9.33
7/9/2021 9:45:00 PM 17.04 62.672 0.071 7.33 13.65 9.34
7/9/2021 10:00:00 PM 17 62.6 0.072 7.35 13.26 9.36
7/9/2021 10:15:00 PM 16.96 62.528 0.072 7.34 13.3 9.37
7/9/2021 10:30:00 PM 16.92 62.456 0.071 7.34 13.18 9.38
7/9/2021 10:45:00 PM 16.88 62.384 0.071 7.35 12.68 9.4
7/9/2021 11:00:00 PM 16.84 62.312 0.071 7.32 12.96 9.4
7/9/2021 11:15:00 PM 16.8 62.24 0.071 7.33 12.88 9.42
7/9/2021 11:30:00 PM 16.76 62.168 0.072 7.33 12.67 9.43
7/9/2021 11:45:00 PM 16.73 62.114 0.071 7.33 12.44 9.44
7/10/2021 12:00:00 AM 16.69 62.042 0.072 7.34 12.77 9.45
7/10/2021 12:15:00 AM 16.64 61.952 0.071 7.34 12.27 9.45
7/10/2021 12:30:00 AM 16.6 61.88 0.071 7.34 12.31 9.46
7/10/2021 12:45:00 AM 16.56 61.808 0.071 7.34 12.68 9.47
7/10/2021 1:00:00 AM 16.52 61.736 0.071 7.34 12.22 9.47
7/10/2021 1:15:00 AM 16.47 61.646 0.071 7.35 12.12 9.48
7/10/2021 1:30:00 AM 16.43 61.574 0.071 7.36 12.08 9.49
7/10/2021 1:45:00 AM 16.38 61.484 0.071 7.36 12.61 9.5
7/10/2021 2:00:00 AM 16.34 61.412 0.071 7.32 12.6 9.51
7/10/2021 2:15:00 AM 16.3 61.34 0.071 7.35 12.32 9.52
7/10/2021 2:30:00 AM 16.25 61.25 0.071 7.35 12.53 9.53
7/10/2021 2:45:00 AM 16.2 61.16 0.071 7.33 12.31 9.55
7/10/2021 3:00:00 AM 16.15 61.07 0.071 7.34 12.04 9.55
7/10/2021 3:15:00 AM 16.1 60.98 0.071 7.24 11.92 9.57
7/10/2021 3:30:00 AM 16.05 60.89 0.071 7.34 12.11 9.58
7/10/2021 3:45:00 AM 15.99 60.782 0.071 7.34 12.53 9.59
7/10/2021 4:00:00 AM 15.94 60.692 0.071 7.35 11.94 9.6
7/10/2021 4:15:00 AM 15.89 60.602 0.071 7.35 12.37 9.6
7/10/2021 4:30:00 AM 15.84 60.512 0.071 7.35 11.77 9.61
7/10/2021 4:45:00 AM 15.79 60.422 0.071 7.36 12.27 9.62
7/10/2021 5:00:00 AM 15.74 60.332 0.071 7.37 12.16 9.63
7/10/2021 5:15:00 AM 15.69 60.242 0.071 7.32 12.38 9.65
7/10/2021 5:30:00 AM 15.64 60.152 0.071 7.33 12.38 9.66
7/10/2021 5:45:00 AM 15.58 60.044 0.07 7.35 14.74 9.68
7/10/2021 6:00:00 AM 15.54 59.972 0.071 7.33 13.37 9.7
7/10/2021 6:15:00 AM 15.51 59.918 0.071 7.35 12.92 9.71
7/10/2021 6:30:00 AM 15.49 59.882 0.07 7.36 13.44 9.73
7/10/2021 6:45:00 AM 15.48 59.864 0.07 7.34 12.98 9.74
7/10/2021 7:00:00 AM 15.46 59.828 0.071 7.34 15.59 9.75
7/10/2021 7:15:00 AM 15.47 59.846 0.07 7.38 13.65 9.76
7/10/2021 7:30:00 AM 15.5 59.9 0.07 7.36 13.15 9.77
7/10/2021 7:45:00 AM 15.5 59.9 0.07 7.35 12.63 9.77
7/10/2021 8:00:00 AM 15.51 59.918 0.07 7.35 12.53 9.77
7/10/2021 8:15:00 AM 15.5 59.9 0.07 7.34 12.68 9.76
7/10/2021 8:30:00 AM 15.5 59.9 0.07 7.37 12.52 9.77
7/10/2021 8:45:00 AM 15.51 59.918 0.07 7.35 13.05 9.77
7/10/2021 9:00:00 AM 15.52 59.936 0.07 7.37 12.88 9.78
7/10/2021 9:15:00 AM 15.58 60.044 0.07 7.4 12.27 9.81
7/10/2021 9:30:00 AM 15.76 60.368 0.07 7.4 12.87 9.8
7/10/2021 9:45:00 AM 15.9 60.62 0.07 7.39 13.07 9.78
7/10/2021 10:00:00 AM 15.96 60.728 0.07 7.43 12.05 9.76
7/10/2021 10:15:00 AM 16.16 61.088 0.07 7.4 12.8 9.75
7/10/2021 10:30:00 AM 16.33 61.394 0.07 7.42 12.83 9.73
7/10/2021 10:45:00 AM 16.52 61.736 0.07 7.43 12.58 9.68
7/10/2021 11:00:00 AM 16.49 61.682 0.07 7.43 12.65 9.65
7/10/2021 11:15:00 AM 16.4 61.52 0.07 7.41 12.2 9.67
7/10/2021 11:30:00 AM 16.31 61.358 0.07 7.43 12.89 9.7
7/10/2021 11:45:00 AM 16.33 61.394 0.07 7.39 12.37 9.69
7/10/2021 12:00:00 PM 16.29 61.322 0.07 7.43 12.65 9.69
7/10/2021 12:15:00 PM 16.27 61.286 0.07 7.41 12.15 9.68
7/10/2021 12:30:00 PM 16.27 61.286 0.07 7.38 12.65 9.68
7/10/2021 12:45:00 PM 16.41 61.538 0.069 7.4 12.73 9.69
7/10/2021 1:00:00 PM 16.42 61.556 0.07 7.43 12.33 9.67
7/10/2021 1:15:00 PM 16.49 61.682 0.069 7.4 12.13 9.64
7/10/2021 1:30:00 PM 16.48 61.664 0.07 7.39 12.49 9.62
7/10/2021 1:45:00 PM 16.56 61.808 0.069 7.43 12.34 9.64
7/10/2021 2:00:00 PM 16.57 61.826 0.069 7.39 12.38 9.6
7/10/2021 2:15:00 PM 16.54 61.772 0.069 7.4 13.09 9.59
7/10/2021 2:30:00 PM 16.49 61.682 0.07 7.39 12.45 9.58
7/10/2021 2:45:00 PM 16.51 61.718 0.069 7.37 12.89 9.61
7/10/2021 3:00:00 PM 16.53 61.754 0.069 7.38 12.27 9.6
7/10/2021 3:15:00 PM 16.54 61.772 0.069 7.4 12.27 9.59
7/10/2021 3:30:00 PM 16.58 61.844 0.069 7.39 12.83 9.6
7/10/2021 3:45:00 PM 16.6 61.88 0.069 7.41 12.61 9.59
7/10/2021 4:00:00 PM 16.61 61.898 0.069 7.36 11.72 9.58
7/10/2021 4:15:00 PM 16.64 61.952 0.069 7.39 12.21 9.58
7/10/2021 4:30:00 PM 16.71 62.078 0.069 7.4 12.59 9.57
7/10/2021 4:45:00 PM 16.73 62.114 0.069 7.4 12.51 9.54
7/10/2021 5:00:00 PM 16.74 62.132 0.069 7.39 11.99 9.53
7/10/2021 5:15:00 PM 16.75 62.15 0.069 7.37 12.61 9.53
7/10/2021 5:30:00 PM 16.73 62.114 0.069 7.39 12.85 9.53
7/10/2021 5:45:00 PM 16.73 62.114 0.069 7.38 13.15 9.53
7/10/2021 6:00:00 PM 16.71 62.078 0.069 7.34 12.77 9.51
7/10/2021 6:15:00 PM 16.69 62.042 0.069 7.35 12.46 9.5
7/10/2021 6:30:00 PM 16.66 61.988 0.07 7.32 12.87 9.49
7/10/2021 6:45:00 PM 16.64 61.952 0.07 7.31 12.94 9.49
7/10/2021 7:00:00 PM 16.63 61.934 0.07 7.31 12.58 9.49
7/10/2021 7:15:00 PM 16.61 61.898 0.07 7.31 12.74 9.49
7/10/2021 7:30:00 PM 16.6 61.88 0.07 7.29 12.52 9.49
7/10/2021 7:45:00 PM 16.57 61.826 0.07 7.31 12.7 9.49
7/10/2021 8:00:00 PM 16.55 61.79 0.07 7.31 12.77 9.49
7/10/2021 8:15:00 PM 16.52 61.736 0.07 7.32 12.86 9.49
7/10/2021 8:30:00 PM 16.48 61.664 0.07 7.31 13.02 9.49
7/10/2021 8:45:00 PM 16.44 61.592 0.07 7.32 13.04 9.49
7/10/2021 9:00:00 PM 16.4 61.52 0.07 7.33 13.05 9.5
7/10/2021 9:15:00 PM 16.35 61.43 0.07 7.35 13.47 9.51
7/10/2021 9:30:00 PM 16.31 61.358 0.07 7.35 13.44 9.52
7/10/2021 9:45:00 PM 16.27 61.286 0.07 7.36 13.34 9.54
7/10/2021 10:00:00 PM 16.22 61.196 0.07 7.36 13.27 9.55
7/10/2021 10:15:00 PM 16.18 61.124 0.07 7.36 13.01 9.56
7/10/2021 10:30:00 PM 16.14 61.052 0.07 7.36 12.35 9.58
7/10/2021 10:45:00 PM 16.09 60.962 0.07 7.33 12.25 9.6
7/10/2021 11:00:00 PM 16.05 60.89 0.07 7.35 11.92 9.6
7/10/2021 11:15:00 PM 16 60.8 0.07 7.33 12.55 9.61
7/10/2021 11:30:00 PM 15.96 60.728 0.07 7.33 12.04 9.62
7/10/2021 11:45:00 PM 15.91 60.638 0.07 7.34 11.41 9.62
7/11/2021 12:00:00 AM 15.86 60.548 0.07 7.34 11.55 9.63
7/11/2021 12:15:00 AM 15.82 60.476 0.07 7.33 11.4 9.64
7/11/2021 12:30:00 AM 15.77 60.386 0.07 7.35 11.46 9.65
7/11/2021 12:45:00 AM 15.72 60.296 0.07 7.32 11.58 9.66
7/11/2021 1:00:00 AM 15.67 60.206 0.07 7.32 11.58 9.67
7/11/2021 1:15:00 AM 15.62 60.116 0.07 7.33 11.35 9.69
7/11/2021 1:30:00 AM 15.57 60.026 0.07 7.35 12.04 9.7
7/11/2021 1:45:00 AM 15.52 59.936 0.069 7.32 11.46 9.72
7/11/2021 2:00:00 AM 15.48 59.864 0.07 7.31 11.57 9.73
7/11/2021 2:15:00 AM 15.43 59.774 0.069 7.32 11.6 9.74
7/11/2021 2:30:00 AM 15.41 59.738 0.07 7.32 11.55 9.74
7/11/2021 2:45:00 AM 15.38 59.684 0.07 7.32 11.73 9.75
7/11/2021 3:00:00 AM 15.35 59.63 0.069 7.32 11.31 9.75
7/11/2021 3:15:00 AM 15.32 59.576 0.07 7.32 11.06 9.76
7/11/2021 3:30:00 AM 15.28 59.504 0.069 7.34 11.32 9.77
7/11/2021 3:45:00 AM 15.25 59.45 0.07 7.34 11.72 9.77
7/11/2021 4:00:00 AM 15.21 59.378 0.069 7.33 11.51 9.78
7/11/2021 4:15:00 AM 15.18 59.324 0.069 7.34 11.31 9.78
7/11/2021 4:30:00 AM 15.15 59.27 0.069 7.34 11.36 9.79
7/11/2021 4:45:00 AM 15.12 59.216 0.069 7.34 11.03 9.8
7/11/2021 5:00:00 AM 15.09 59.162 0.069 7.34 10.85 9.8
7/11/2021 5:15:00 AM 15.07 59.126 0.069 7.34 11 9.81
7/11/2021 5:30:00 AM 15.05 59.09 0.069 7.32 11.32 9.81
7/11/2021 5:45:00 AM 15.03 59.054 0.069 7.33 11.93 9.82
7/11/2021 6:00:00 AM 15.02 59.036 0.07 7.31 11.96 9.83
7/11/2021 6:15:00 AM 15 59 0.069 7.34 11.78 9.84
7/11/2021 6:30:00 AM 14.99 58.982 0.069 7.33 11.81 9.84
7/11/2021 6:45:00 AM 14.99 58.982 0.069 7.35 11.56 9.86
7/11/2021 7:00:00 AM 14.98 58.964 0.069 7.35 12.02 9.87
7/11/2021 7:15:00 AM 14.98 58.964 0.069 7.32 11.79 9.87
7/11/2021 7:30:00 AM 14.98 58.964 0.069 7.36 11.6 9.87
7/11/2021 7:45:00 AM 14.98 58.964 0.069 7.32 11.66 9.88
7/11/2021 8:00:00 AM 15 59 0.069 7.33 12.08 9.89
7/11/2021 8:15:00 AM 15 59 0.069 7.35 11.95 9.88
7/11/2021 8:30:00 AM 15.02 59.036 0.069 7.36 11.94 9.89
7/11/2021 8:45:00 AM 15.03 59.054 0.069 7.35 11.67 9.89
7/11/2021 9:00:00 AM 15.04 59.072 0.069 7.36 11.13 9.88
7/11/2021 9:15:00 AM 15.05 59.09 0.069 7.34 11.75 9.87
7/11/2021 9:30:00 AM 15.06 59.108 0.069 7.34 11.94 9.88
7/11/2021 9:45:00 AM 15.09 59.162 0.069 7.36 11.65 9.89
7/11/2021 10:00:00 AM 15.11 59.198 0.069 7.36 11.75 9.88
7/11/2021 10:15:00 AM 15.14 59.252 0.069 7.34 11.84 9.89
7/11/2021 10:30:00 AM 15.15 59.27 0.069 7.3 12.84 9.85
7/11/2021 10:45:00 AM 15.16 59.288 0.069 7.29 13.03 9.85
7/11/2021 11:00:00 AM 15.18 59.324 0.069 7.32 12.56 9.86
7/11/2021 11:15:00 AM 15.2 59.36 0.069 7.31 11.54 9.87
7/11/2021 11:30:00 AM 15.24 59.432 0.069 7.36 12 9.87
7/11/2021 11:45:00 AM 15.28 59.504 0.069 7.38 11.82 9.88
7/11/2021 12:00:00 PM 15.31 59.558 0.069 7.35 12.14 9.87
7/11/2021 12:15:00 PM 15.33 59.594 0.069 7.35 12.3 9.85
7/11/2021 12:30:00 PM 15.34 59.612 0.069 7.35 12.2 9.84
7/11/2021 12:45:00 PM 15.34 59.612 0.069 7.35 12.23 9.82
7/11/2021 1:00:00 PM 15.36 59.648 0.069 7.36 11.8 9.83
7/11/2021 1:15:00 PM 15.36 59.648 0.069 7.31 11.78 9.81
7/11/2021 1:30:00 PM 15.36 59.648 0.069 7.29 12.12 9.79
7/11/2021 1:45:00 PM 15.36 59.648 0.069 7.29 12.1 9.79
7/11/2021 2:00:00 PM 15.36 59.648 0.069 7.31 12.35 9.79
7/11/2021 2:15:00 PM 15.37 59.666 0.069 7.3 12.01 9.79
7/11/2021 2:30:00 PM 15.38 59.684 0.069 7.3 11.92 9.78
7/11/2021 2:45:00 PM 15.39 59.702 0.069 7.31 11.7 9.78
7/11/2021 3:00:00 PM 15.39 59.702 0.069 7.3 12.1 9.78
7/11/2021 3:15:00 PM 15.4 59.72 0.069 7.27 11.89 9.77
7/11/2021 3:30:00 PM 15.4 59.72 0.069 7.28 11.95 9.77
7/11/2021 3:45:00 PM 15.4 59.72 0.069 7.28 11.55 9.78
7/11/2021 4:00:00 PM 15.42 59.756 0.07 7.28 11.76 9.77
7/11/2021 4:15:00 PM 15.43 59.774 0.069 7.31 12.17 9.78
7/11/2021 4:30:00 PM 15.44 59.792 0.07 7.29 12.44 9.77
7/11/2021 4:45:00 PM 15.44 59.792 0.07 7.29 12.38 9.76
7/11/2021 5:00:00 PM 15.44 59.792 0.07 7.28 11.83 9.76
7/11/2021 5:15:00 PM 15.45 59.81 0.07 7.3 12.22 9.76
7/11/2021 5:30:00 PM 15.45 59.81 0.07 7.31 13.01 9.75
7/11/2021 5:45:00 PM 15.48 59.864 0.07 7.32 13.96 9.75
7/11/2021 6:00:00 PM 15.49 59.882 0.069 7.3 16.38 9.74
7/11/2021 6:15:00 PM 15.48 59.864 0.069 7.29 16.64 9.73
7/11/2021 6:30:00 PM 15.49 59.882 0.069 7.27 17.01 9.72
7/11/2021 6:45:00 PM 15.53 59.954 0.068 7.27 22.53 9.72
7/11/2021 7:00:00 PM 15.61 60.098 0.067 7.27 42.44 9.7
7/11/2021 7:15:00 PM 15.67 60.206 0.068 7.31 77.21 9.68
7/11/2021 7:30:00 PM 15.73 60.314 0.07 7.32 89.46 9.67
7/11/2021 7:45:00 PM 15.88 60.584 0.07 7.33 79.71 9.65
7/11/2021 8:00:00 PM 16.02 60.836 0.068 7.35 93.66 9.64
7/11/2021 8:15:00 PM 16.16 61.088 0.067 7.35 131.69 9.62
7/11/2021 8:30:00 PM 16.33 61.394 0.065 7.36 144.17 9.6
7/11/2021 8:45:00 PM 16.3 61.34 0.063 7.32 192.53 9.62
7/11/2021 9:00:00 PM 16.25 61.25 0.061 7.29 197.11 9.64
7/11/2021 9:15:00 PM 16.15 61.07 0.06 7.29 167.95 9.66
7/11/2021 9:30:00 PM 16.05 60.89 0.059 7.29 165.29 9.71
7/11/2021 9:45:00 PM 15.95 60.71 0.057 7.26 151.51 9.72
7/11/2021 10:00:00 PM 15.88 60.584 0.057 7.26 132.42 9.74
7/11/2021 10:15:00 PM 15.84 60.512 0.057 7.23 111.99 9.74
7/11/2021 10:30:00 PM 15.82 60.476 0.057 7.23 89.22 9.74
7/11/2021 10:45:00 PM 15.81 60.458 0.057 7.23 78.01 9.74
7/11/2021 11:00:00 PM 15.79 60.422 0.058 7.24 67.02 9.74
7/11/2021 11:15:00 PM 15.78 60.404 0.058 7.23 60.57 9.74
7/11/2021 11:30:00 PM 15.76 60.368 0.059 7.26 56.15 9.74
7/11/2021 11:45:00 PM 15.74 60.332 0.059 7.23 50.95 9.74
7/12/2021 12:00:00 AM 15.72 60.296 0.06 7.23 46.19 9.75
7/12/2021 12:15:00 AM 15.69 60.242 0.06 7.22 42.91 9.75
7/12/2021 12:30:00 AM 15.66 60.188 0.061 7.21 39.34 9.76
7/12/2021 12:45:00 AM 15.64 60.152 0.061 7.21 38.3 9.76
7/12/2021 1:00:00 AM 15.61 60.098 0.061 7.18 33.37 9.76
7/12/2021 1:15:00 AM 15.59 60.062 0.062 7.17 32.24 9.77
7/12/2021 1:30:00 AM 15.57 60.026 0.062 7.18 30.92 9.77
7/12/2021 1:45:00 AM 15.54 59.972 0.062 7.18 28.43 9.78
7/12/2021 2:00:00 AM 15.52 59.936 0.062 7.15 27.99 9.78
7/12/2021 2:15:00 AM 15.5 59.9 0.063 7.16 28.28 9.78
7/12/2021 2:30:00 AM 15.48 59.864 0.063 7.15 27.35 9.79
7/12/2021 2:45:00 AM 15.45 59.81 0.063 7.14 24.03 9.79
7/12/2021 3:00:00 AM 15.44 59.792 0.063 7.14 25.61 9.79
7/12/2021 3:15:00 AM 15.42 59.756 0.063 7.13 25.19 9.79
7/12/2021 3:30:00 AM 15.4 59.72 0.063 7.12 24.67 9.79
7/12/2021 3:45:00 AM 15.38 59.684 0.062 7.11 22.94 9.8
7/12/2021 4:00:00 AM 15.36 59.648 0.064 7.1 22.72 9.8
7/12/2021 4:15:00 AM 15.34 59.612 0.064 7.1 21.76 9.8
7/12/2021 4:30:00 AM 15.33 59.594 0.064 7.11 20.97 9.81
7/12/2021 4:45:00 AM 15.31 59.558 0.064 7.09 20.39 9.81
7/12/2021 5:00:00 AM 15.29 59.522 0.064 7.07 20.76 9.81
7/12/2021 5:15:00 AM 15.28 59.504 0.064 7.07 21.37 9.81
7/12/2021 5:30:00 AM 15.27 59.486 0.064 7.1 20.5 9.81
7/12/2021 5:45:00 AM 15.25 59.45 0.064 7.11 21.53 9.81
7/12/2021 6:00:00 AM 15.24 59.432 0.064 7.1 21.05 9.82
7/12/2021 6:15:00 AM 15.23 59.414 0.064 7.08 19.76 9.82
7/12/2021 6:30:00 AM 15.22 59.396 0.064 7.08 20.83 9.83
7/12/2021 6:45:00 AM 15.21 59.378 0.064 7.1 19.25 9.83
7/12/2021 7:00:00 AM 15.2 59.36 0.064 7.09 19.44 9.84
7/12/2021 7:15:00 AM 15.19 59.342 0.064 7.1 18.88 9.84
7/12/2021 7:30:00 AM 15.2 59.36 0.064 7.12 19.67 9.86
7/12/2021 7:45:00 AM 15.22 59.396 0.064 7.13 18.74 9.86
7/12/2021 8:00:00 AM 15.23 59.414 0.064 7.13 18.4 9.86
7/12/2021 8:15:00 AM 15.23 59.414 0.064 7.13 19.16 9.87
7/12/2021 8:30:00 AM 15.25 59.45 0.064 6.97 18.81 9.88
7/12/2021 8:45:00 AM 15.31 59.558 0.064 7.16 18.37 9.88
7/12/2021 9:00:00 AM 15.33 59.594 0.064 7.15 17.06 9.87
7/12/2021 9:15:00 AM 15.36 59.648 0.064 7.17 18.69 9.88
7/12/2021 9:30:00 AM 15.38 59.684 0.064 7.2 17.45 9.88
7/12/2021 9:45:00 AM 15.39 59.702 0.063 7.2 17.75 9.87
7/12/2021 10:00:00 AM 15.43 59.774 0.063 7.19 17.21 9.87
7/12/2021 10:15:00 AM 15.54 59.972 0.063 7.26 18.51 9.88
7/12/2021 10:30:00 AM 15.63 60.134 0.063 7.24 18.33 9.85
7/12/2021 10:45:00 AM 15.66 60.188 0.063 7.29 17.52 9.83
7/12/2021 11:00:00 AM 15.75 60.35 0.063 7.3 16.86 9.83
7/12/2021 11:15:00 AM 15.98 60.764 0.063 7.33 18.05 9.81
7/12/2021 11:30:00 AM 16.12 61.016 0.063 7.29 17.65 9.78
7/12/2021 11:45:00 AM 16.24 61.232 0.063 7.28 18.63 9.76
7/12/2021 12:00:00 PM 16.33 61.394 0.062 7.33 17.87 9.72
7/12/2021 12:15:00 PM 16.26 61.268 0.062 7.32 17.25 9.74
7/12/2021 12:30:00 PM 16.24 61.232 0.062 7.3 17.42 9.74
7/12/2021 12:45:00 PM 16.32 61.376 0.062 7.31 17.6 9.72
7/12/2021 1:00:00 PM 16.4 61.52 0.062 7.31 17.76 9.69
7/12/2021 1:15:00 PM 16.34 61.412 0.062 7.31 17.98 9.69
7/12/2021 1:30:00 PM 16.37 61.466 0.063 7.3 17.65 9.7
7/12/2021 1:45:00 PM 16.43 61.574 0.062 7.3 17.69 9.68
7/12/2021 2:00:00 PM 16.52 61.736 0.062 7.29 17.42 9.68
7/12/2021 2:15:00 PM 16.53 61.754 0.062 7.31 17.01 9.66
7/12/2021 2:30:00 PM 16.68 62.024 0.062 7.32 17.5 9.66
7/12/2021 2:45:00 PM 16.74 62.132 0.062 7.32 18.07 9.63
7/12/2021 3:00:00 PM 16.73 62.114 0.062 7.3 17.81 9.62
7/12/2021 3:15:00 PM 16.74 62.132 0.062 7.28 17.21 9.62
7/12/2021 3:30:00 PM 16.84 62.312 0.062 7.31 16.66 9.61
7/12/2021 3:45:00 PM 16.91 62.438 0.062 7.31 17.58 9.57
7/12/2021 4:00:00 PM 16.96 62.528 0.062 7.31 16.73 9.56
7/12/2021 4:15:00 PM 16.96 62.528 0.062 7.33 17.43 9.55
7/12/2021 4:30:00 PM 16.94 62.492 0.062 7.3 16.02 9.54
7/12/2021 4:45:00 PM 16.95 62.51 0.062 7.31 16.93 9.54
7/12/2021 5:00:00 PM 16.94 62.492 0.062 7.28 17.33 9.55
7/12/2021 5:15:00 PM 16.94 62.492 0.062 7.31 20.47 9.52
7/12/2021 5:30:00 PM 16.86 62.348 0.062 7.27 17.41 9.52
7/12/2021 5:45:00 PM 16.81 62.258 0.062 7.24 16.49 9.53
7/12/2021 6:00:00 PM 16.84 62.312 0.061 7.23 19.78 9.53
7/12/2021 6:15:00 PM 16.91 62.438 0.06 7.23 50.18 9.52
7/12/2021 6:30:00 PM 17.49 63.482 0.057 7.23 119.58 9.42
7/12/2021 6:45:00 PM 18.04 64.472 0.058 7.27 240.57 9.31
7/12/2021 7:00:00 PM 18.39 65.102 0.059 7.27 210.38 9.24
7/12/2021 7:15:00 PM 18.47 65.246 0.058 7.21 141.54 9.22
7/12/2021 7:30:00 PM 18.42 65.156 0.058 7.21 92.85 9.23
7/12/2021 7:45:00 PM 18.2 64.76 0.059 7.21 67.87 9.27
7/12/2021 8:00:00 PM 17.91 64.238 0.059 7.21 50.02 9.33
7/12/2021 8:15:00 PM 17.67 63.806 0.06 7.17 44.52 9.37
7/12/2021 8:30:00 PM 17.43 63.374 0.06 7.18 42.14 9.43
7/12/2021 8:45:00 PM 17.25 63.05 0.06 7.14 39.45 9.45
7/12/2021 9:00:00 PM 17.18 62.924 0.061 7.16 35.88 9.46
7/12/2021 9:15:00 PM 17.1 62.78 0.061 7.12 34.63 9.47
7/12/2021 9:30:00 PM 17.01 62.618 0.061 7.13 32.27 9.49
7/12/2021 9:45:00 PM 16.92 62.456 0.062 7.09 29.66 9.51
7/12/2021 10:00:00 PM 16.82 62.276 0.062 7.09 29.22 9.54
7/12/2021 10:15:00 PM 16.75 62.15 0.062 7.1 26.63 9.55
7/12/2021 10:30:00 PM 16.68 62.024 0.062 7.1 25.56 9.57
7/12/2021 10:45:00 PM 16.61 61.898 0.062 7.09 23.73 9.58
7/12/2021 11:00:00 PM 16.53 61.754 0.062 7.09 22.42 9.59
7/12/2021 11:15:00 PM 16.48 61.664 0.062 7.09 23.3 9.59
7/12/2021 11:30:00 PM 16.42 61.556 0.063 7.09 22.55 9.6
7/12/2021 11:45:00 PM 16.38 61.484 0.063 7.09 21.63 9.62
7/13/2021 12:00:00 AM 16.33 61.394 0.063 7.09 21.6 9.62
7/13/2021 12:15:00 AM 16.29 61.322 0.063 7.08 21.03 9.63
7/13/2021 12:30:00 AM 16.25 61.25 0.063 7.06 20.55 9.65
7/13/2021 12:45:00 AM 16.21 61.178 0.063 7.09 20.61 9.65
7/13/2021 1:00:00 AM 16.18 61.124 0.063 7.05 21.38 9.67
7/13/2021 1:15:00 AM 16.14 61.052 0.063 7.07 21.15 9.67
7/13/2021 1:30:00 AM 16.11 60.998 0.063 7.09 19.23 9.69
7/13/2021 1:45:00 AM 16.08 60.944 0.063 7.07 19.39 9.69
7/13/2021 2:00:00 AM 16.05 60.89 0.063 7.07 19.4 9.7
7/13/2021 2:15:00 AM 16.02 60.836 0.063 7.07 18.72 9.7
7/13/2021 2:30:00 AM 15.99 60.782 0.063 7.05 18.92 9.7
7/13/2021 2:45:00 AM 15.97 60.746 0.062 7.04 19.5 9.7
7/13/2021 3:00:00 AM 15.94 60.692 0.063 7.06 18.6 9.71
7/13/2021 3:15:00 AM 15.92 60.656 0.062 7.06 20.16 9.71
7/13/2021 3:30:00 AM 15.9 60.62 0.062 7.06 20.37 9.72
7/13/2021 3:45:00 AM 15.88 60.584 0.062 7.06 18.82 9.72
7/13/2021 4:00:00 AM 15.86 60.548 0.062 7.06 18.31 9.73
7/13/2021 4:15:00 AM 15.84 60.512 0.062 7.08 18.26 9.73
7/13/2021 4:30:00 AM 15.82 60.476 0.062 7.09 17.94 9.73
7/13/2021 4:45:00 AM 15.81 60.458 0.062 7.07 18.69 9.73
7/13/2021 5:00:00 AM 15.79 60.422 0.062 7.05 19.7 9.74
7/13/2021 5:15:00 AM 15.78 60.404 0.061 7.05 19.31 9.75
7/13/2021 5:30:00 AM 15.77 60.386 0.062 7.05 18.36 9.75
7/13/2021 5:45:00 AM 15.75 60.35 0.062 7.05 18.7 9.75
7/13/2021 6:00:00 AM 15.74 60.332 0.061 7.08 18.86 9.76
7/13/2021 6:15:00 AM 15.73 60.314 0.061 7.06 22.29 9.76
7/13/2021 6:30:00 AM 15.73 60.314 0.061 7.04 19.03 9.76
7/13/2021 6:45:00 AM 15.73 60.314 0.061 7.1 18.04 9.77
7/13/2021 7:00:00 AM 15.73 60.314 0.061 7.09 19.66 9.77
7/13/2021 7:15:00 AM 15.73 60.314 0.061 7.07 19.11 9.78
7/13/2021 7:30:00 AM 15.74 60.332 0.061 7.08 18.51 9.78
7/13/2021 7:45:00 AM 15.75 60.35 0.061 7.11 18.07 9.79
7/13/2021 8:00:00 AM 15.76 60.368 0.061 7.13 19 9.8
7/13/2021 8:15:00 AM 15.77 60.386 0.061 7.12 19.08 9.78
7/13/2021 8:30:00 AM 15.78 60.404 0.061 7.12 18.71 9.78
7/13/2021 8:45:00 AM 15.8 60.44 0.061 7.15 18.74 9.78
7/13/2021 9:00:00 AM 15.82 60.476 0.061 7.18 20.34 9.78
7/13/2021 9:15:00 AM 15.83 60.494 0.061 7.18 18.43 9.78
7/13/2021 9:30:00 AM 15.84 60.512 0.06 7.17 19.39 9.78
7/13/2021 9:45:00 AM 15.85 60.53 0.06 7.18 18.92 9.77
7/13/2021 10:00:00 AM 15.85 60.53 0.06 7.15 17.89 9.78
7/13/2021 10:15:00 AM 15.87 60.566 0.06 7.18 18.72 9.79
7/13/2021 10:30:00 AM 15.93 60.674 0.06 7.17 19.1 9.81
7/13/2021 10:45:00 AM 16.01 60.818 0.06 7.22 19.41 9.8
7/13/2021 11:00:00 AM 16.07 60.926 0.06 7.2 19.46 9.8
7/13/2021 11:15:00 AM 16.21 61.178 0.06 7.23 18.52 9.79
7/13/2021 11:30:00 AM 16.32 61.376 0.06 7.25 18.47 9.76
7/13/2021 11:45:00 AM 16.32 61.376 0.06 7.26 19.86 9.73
7/13/2021 12:00:00 PM 16.47 61.646 0.059 7.26 18.24 9.72
7/13/2021 12:15:00 PM 16.62 61.916 0.06 7.27 18.81 9.69
7/13/2021 12:30:00 PM 16.66 61.988 0.059 7.28 18.74 9.67
7/13/2021 12:45:00 PM 16.72 62.096 0.059 7.24 17.84 9.66
7/13/2021 1:00:00 PM 16.79 62.222 0.059 7.3 17.29 9.63
7/13/2021 1:15:00 PM 16.77 62.186 0.059 7.29 18.2 9.61
7/13/2021 1:30:00 PM 16.8 62.24 0.059 7.28 18.6 9.62
7/13/2021 1:45:00 PM 16.78 62.204 0.059 7.29 20.12 9.6
7/13/2021 2:00:00 PM 16.82 62.276 0.059 7.28 19.14 9.6
7/13/2021 2:15:00 PM 16.96 62.528 0.059 7.27 18.16 9.6
7/13/2021 2:30:00 PM 17.07 62.726 0.059 7.27 18.22 9.56
7/13/2021 2:45:00 PM 17.09 62.762 0.059 7.27 19.23 9.52
7/13/2021 3:00:00 PM 17.09 62.762 0.059 7.31 17.54 9.53
7/13/2021 3:15:00 PM 17.18 62.924 0.059 7.25 19.58 9.53
7/13/2021 3:30:00 PM 17.19 62.942 0.059 7.28 18.64 9.5
7/13/2021 3:45:00 PM 17.16 62.888 0.059 7.25 18.01 9.5
7/13/2021 4:00:00 PM 17.16 62.888 0.059 7.26 17.52 9.51
7/13/2021 4:15:00 PM 17.2 62.96 0.059 7.26 17.91 9.52
7/13/2021 4:30:00 PM 17.26 63.068 0.059 7.29 17.56 9.51
7/13/2021 4:45:00 PM 17.31 63.158 0.059 7.28 17.56 9.5
7/13/2021 5:00:00 PM 17.29 63.122 0.059 7.26 18.26 9.48
7/13/2021 5:15:00 PM 17.26 63.068 0.059 7.29 17.28 9.48
7/13/2021 5:30:00 PM 17.27 63.086 0.059 7.23 17.86 9.47
7/13/2021 5:45:00 PM 17.27 63.086 0.059 7.27 18.11 9.47
7/13/2021 6:00:00 PM 17.26 63.068 0.059 7.22 17.86 9.45
7/13/2021 6:15:00 PM 17.25 63.05 0.059 7.25 18.09 9.45
7/13/2021 6:30:00 PM 17.25 63.05 0.059 7.24 17.88 9.44
7/13/2021 6:45:00 PM 17.24 63.032 0.059 7.23 19.98 9.44
7/13/2021 7:00:00 PM 17.22 62.996 0.059 7.21 18.05 9.44
7/13/2021 7:15:00 PM 17.19 62.942 0.059 7.2 17.39 9.44
7/13/2021 7:30:00 PM 17.16 62.888 0.06 7.19 17.08 9.44
7/13/2021 7:45:00 PM 17.13 62.834 0.059 7.22 18.76 9.45
7/13/2021 8:00:00 PM 17.34 63.212 0.055 7.15 25.63 9.46
7/13/2021 8:15:00 PM 17.49 63.482 0.054 7.22 236.25 9.43
7/13/2021 8:30:00 PM 17.84 64.112 0.054 7.22 194.26 9.36
7/13/2021 8:45:00 PM 18 64.4 0.054 7.35 202.99 9.33
7/13/2021 9:00:00 PM 17.97 64.346 0.056 7.29 90.39 9.34
7/13/2021 9:15:00 PM 17.76 63.968 0.056 7.3 89.57 9.38
7/13/2021 9:30:00 PM 17.41 63.338 0.055 7.3 96.94 9.46
7/13/2021 9:45:00 PM 17.24 63.032 0.055 7.29 75.53 9.49
7/13/2021 10:00:00 PM 17.14 62.852 0.055 7.29 72.81 9.5
7/13/2021 10:15:00 PM 17.05 62.69 0.055 7.26 61.41 9.52
7/13/2021 10:30:00 PM 16.98 62.564 0.055 7.24 53.82 9.54
7/13/2021 10:45:00 PM 16.92 62.456 0.057 7.23 50.71 9.56
7/13/2021 11:00:00 PM 16.86 62.348 0.057 7.26 45.45 9.58
7/13/2021 11:15:00 PM 16.8 62.24 0.058 7.21 42.96 9.59
7/13/2021 11:30:00 PM 16.74 62.132 0.059 7.21 40.19 9.6
7/13/2021 11:45:00 PM 16.68 62.024 0.059 7.2 34.3 9.61
7/14/2021 12:00:00 AM 16.63 61.934 0.06 7.2 34.65 9.62
7/14/2021 12:15:00 AM 16.57 61.826 0.059 7.21 32.7 9.63
7/14/2021 12:30:00 AM 16.51 61.718 0.059 7.23 31.35 9.63
7/14/2021 12:45:00 AM 16.46 61.628 0.059 7.17 31.18 9.64
7/14/2021 1:00:00 AM 16.41 61.538 0.059 7.22 27.59 9.65
7/14/2021 1:15:00 AM 16.35 61.43 0.059 7.18 28.8 9.66
7/14/2021 1:30:00 AM 16.3 61.34 0.059 7.18 29.96 9.67
7/14/2021 1:45:00 AM 16.25 61.25 0.059 7.21 29.3 9.69
7/14/2021 2:00:00 AM 16.21 61.178 0.059 7.21 27.77 9.71
7/14/2021 2:15:00 AM 16.17 61.106 0.059 7.16 27.2 9.71
7/14/2021 2:30:00 AM 16.13 61.034 0.059 7.2 27.46 9.73
7/14/2021 2:45:00 AM 16.08 60.944 0.059 7.22 26.04 9.73
7/14/2021 3:00:00 AM 16.04 60.872 0.058 7.16 36.96 9.73
7/14/2021 3:15:00 AM 16 60.8 0.058 7.18 32.14 9.75
7/14/2021 3:30:00 AM 15.96 60.728 0.058 7.22 30.74 9.76
7/14/2021 3:45:00 AM 15.92 60.656 0.058 7.18 28.94 9.76
7/14/2021 4:00:00 AM 15.89 60.602 0.058 7.22 28.76 9.76
7/14/2021 4:15:00 AM 15.85 60.53 0.058 7.16 27.37 9.77
7/14/2021 4:30:00 AM 15.81 60.458 0.058 7.17 26.76 9.77
7/14/2021 4:45:00 AM 15.78 60.404 0.058 7.2 26.91 9.78
7/14/2021 5:00:00 AM 15.75 60.35 0.058 7.15 25.52 9.79
7/14/2021 5:15:00 AM 15.72 60.296 0.058 7.17 26.81 9.79
7/14/2021 5:30:00 AM 15.69 60.242 0.058 7.17 26.6 9.8
7/14/2021 5:45:00 AM 15.66 60.188 0.057 7.21 26.25 9.81
7/14/2021 6:00:00 AM 15.64 60.152 0.057 7.19 26.39 9.82
7/14/2021 6:15:00 AM 15.61 60.098 0.058 7.13 27.56 9.82
7/14/2021 6:30:00 AM 15.59 60.062 0.057 7.14 26.78 9.83
7/14/2021 6:45:00 AM 15.57 60.026 0.057 7.16 25.85 9.84
7/14/2021 7:00:00 AM 15.55 59.99 0.057 7.12 26.41 9.85
7/14/2021 7:15:00 AM 15.54 59.972 0.058 7.11 24.89 9.85
7/14/2021 7:30:00 AM 15.53 59.954 0.057 7.16 24.6 9.86
7/14/2021 7:45:00 AM 15.52 59.936 0.057 7.15 24.34 9.86
7/14/2021 8:00:00 AM 15.52 59.936 0.057 7.12 24.94 9.87
7/14/2021 8:15:00 AM 15.55 59.99 0.057 7.15 25.24 9.87
7/14/2021 8:30:00 AM 15.54 59.972 0.057 7.11 24.18 9.87
7/14/2021 8:45:00 AM 15.53 59.954 0.057 7.14 24.01 9.86
7/14/2021 9:00:00 AM 15.54 59.972 0.057 7.16 21.37 9.86
7/14/2021 9:15:00 AM 15.54 59.972 0.057 7.16 23.71 9.86
7/14/2021 9:30:00 AM 15.53 59.954 0.057 7.14 24.41 9.87
7/14/2021 9:45:00 AM 15.54 59.972 0.057 7.14 24.1 9.87
7/14/2021 10:00:00 AM 15.55 59.99 0.057 7.15 21.12 9.87
7/14/2021 10:15:00 AM 15.58 60.044 0.057 7.13 24.09 9.88
7/14/2021 10:30:00 AM 15.62 60.116 0.057 7.15 23.63 9.87
7/14/2021 10:45:00 AM 15.71 60.278 0.057 7.21 24.27 9.87
7/14/2021 11:00:00 AM 15.78 60.404 0.056 7.23 23.53 9.84
7/14/2021 11:15:00 AM 15.93 60.674 0.056 7.22 23.13 9.82
7/14/2021 11:30:00 AM 15.96 60.728 0.056 7.25 20.12 9.82
7/14/2021 11:45:00 AM 15.97 60.746 0.056 7.22 24.29 9.81
7/14/2021 12:00:00 PM 16.11 60.998 0.056 7.23 23.84 9.8
7/14/2021 12:15:00 PM 16.17 61.106 0.056 7.25 23.73 9.77
7/14/2021 12:30:00 PM 16.34 61.412 0.056 7.22 24.44 9.75
7/14/2021 12:45:00 PM 16.46 61.628 0.056 7.27 23.68 9.71
7/14/2021 1:00:00 PM 16.53 61.754 0.056 7.25 23.73 9.7
7/14/2021 1:15:00 PM 16.62 61.916 0.056 7.24 23.98 9.68
7/14/2021 1:30:00 PM 16.7 62.06 0.056 7.23 24.32 9.67
7/14/2021 1:45:00 PM 16.78 62.204 0.056 7.28 22.5 9.65
7/14/2021 2:00:00 PM 16.8 62.24 0.056 7.23 24.08 9.64
7/14/2021 2:15:00 PM 16.81 62.258 0.056 7.22 23.73 9.63
7/14/2021 2:30:00 PM 16.85 62.33 0.056 7.27 23.99 9.62
7/14/2021 2:45:00 PM 16.84 62.312 0.055 7.27 22.41 9.6
7/14/2021 3:00:00 PM 16.82 62.276 0.055 7.23 38.17 9.61
7/14/2021 3:15:00 PM 16.83 62.294 0.055 7.23 37.84 9.6
7/14/2021 3:30:00 PM 16.78 62.204 0.055 7.26 37.72 9.6
7/14/2021 3:45:00 PM 16.81 62.258 0.055 7.25 36.19 9.61
7/14/2021 4:00:00 PM 16.78 62.204 0.055 7.22 35.18 9.63
7/14/2021 4:15:00 PM 16.7 62.06 0.054 7.23 41.1 9.65
7/14/2021 4:30:00 PM 16.66 61.988 0.054 7.26 37.11 9.65
7/14/2021 4:45:00 PM 16.65 61.97 0.054 7.25 33.64 9.66
7/14/2021 5:00:00 PM 16.62 61.916 0.054 7.22 34.06 9.66
7/14/2021 5:15:00 PM 16.55 61.79 0.055 7.21 33.31 9.65
7/14/2021 5:30:00 PM 16.51 61.718 0.055 7.23 31.36 9.65
7/14/2021 5:45:00 PM 16.49 61.682 0.055 7.18 29.12 9.65
7/14/2021 6:00:00 PM 16.48 61.664 0.055 7.2 28.15 9.66
7/14/2021 6:15:00 PM 16.47 61.646 0.055 7.22 27.93 9.66
7/14/2021 6:30:00 PM 16.46 61.628 0.055 7.19 27.23 9.66
7/14/2021 6:45:00 PM 16.43 61.574 0.056 7.2 26.79 9.65
7/14/2021 7:00:00 PM 16.39 61.502 0.056 7.19 26.7 9.66
7/14/2021 7:15:00 PM 16.35 61.43 0.056 7.2 27.01 9.67
7/14/2021 7:30:00 PM 16.32 61.376 0.055 7.19 25.71 9.67
7/14/2021 7:45:00 PM 16.28 61.304 0.055 7.17 25.76 9.69
7/14/2021 8:00:00 PM 16.25 61.25 0.055 7.22 24.85 9.69
7/14/2021 8:15:00 PM 16.21 61.178 0.055 7.22 26.02 9.71
7/14/2021 8:30:00 PM 16.16 61.088 0.055 7.21 24.08 9.71
7/14/2021 8:45:00 PM 16.12 61.016 0.055 7.18 24.65 9.72
7/14/2021 9:00:00 PM 16.07 60.926 0.055 7.19 24.72 9.73
7/14/2021 9:15:00 PM 16.03 60.854 0.055 7.16 24.53 9.74
7/14/2021 9:30:00 PM 15.99 60.782 0.055 7.14 24.71 9.75
7/14/2021 9:45:00 PM 15.95 60.71 0.055 7.2 24.89 9.76
7/14/2021 10:00:00 PM 15.9 60.62 0.055 7.2 24.13 9.77
7/14/2021 10:15:00 PM 15.86 60.548 0.055 7.19 22.6 9.78
7/14/2021 10:30:00 PM 15.81 60.458 0.055 7.16 23.82 9.79
7/14/2021 10:45:00 PM 15.77 60.386 0.055 7.16 23.77 9.79
7/14/2021 11:00:00 PM 15.73 60.314 0.055 7.2 21.05 9.8
7/14/2021 11:15:00 PM 15.7 60.26 0.055 7.19 22.58 9.81
7/14/2021 11:30:00 PM 15.66 60.188 0.055 7.19 22.28 9.82
7/14/2021 11:45:00 PM 15.62 60.116 0.055 7.14 21.35 9.83
7/15/2021 12:00:00 AM 15.58 60.044 0.055 7.2 21.5 9.84
7/15/2021 12:15:00 AM 15.54 59.972 0.055 7.19 22.14 9.86
7/15/2021 12:30:00 AM 15.51 59.918 0.055 7.18 21.27 9.86
7/15/2021 12:45:00 AM 15.48 59.864 0.055 7.18 21.45 9.87
7/15/2021 1:00:00 AM 15.44 59.792 0.055 7.14 22.86 9.87
7/15/2021 1:15:00 AM 15.41 59.738 0.055 7.13 21.01 9.88
7/15/2021 1:30:00 AM 15.38 59.684 0.055 7.13 22.99 9.89
7/15/2021 1:45:00 AM 15.35 59.63 0.055 7.12 21.55 9.89
7/15/2021 2:00:00 AM 15.33 59.594 0.055 7.17 21.06 9.9
7/15/2021 2:15:00 AM 15.31 59.558 0.055 7.18 20.78 9.9
7/15/2021 2:30:00 AM 15.28 59.504 0.055 7.17 21.13 9.9
7/15/2021 2:45:00 AM 15.25 59.45 0.055 7.19 20.75 9.91
7/15/2021 3:00:00 AM 15.22 59.396 0.055 7.18 21.5 9.91
7/15/2021 3:15:00 AM 15.19 59.342 0.055 7.14 21.71 9.92
7/15/2021 3:30:00 AM 15.16 59.288 0.055 7.13 20.96 9.92
7/15/2021 3:45:00 AM 15.14 59.252 0.055 7.14 20.34 9.92
7/15/2021 4:00:00 AM 15.11 59.198 0.055 7.18 32.77 9.93
7/15/2021 4:15:00 AM 15.08 59.144 0.055 7.14 19.52 9.94
7/15/2021 4:30:00 AM 15.06 59.108 0.055 7.19 20.53 9.94
7/15/2021 4:45:00 AM 15.04 59.072 0.055 7.19 20.33 9.94
7/15/2021 5:00:00 AM 15.01 59.018 0.055 7.15 20.88 9.96
7/15/2021 5:15:00 AM 14.99 58.982 0.055 7.15 20.18 9.96
7/15/2021 5:30:00 AM 14.97 58.946 0.055 7.14 20.9 9.96
7/15/2021 5:45:00 AM 14.95 58.91 0.055 7.15 21.2 9.97
7/15/2021 6:00:00 AM 14.93 58.874 0.055 7.2 21 9.98
7/15/2021 6:15:00 AM 14.91 58.838 0.055 7.19 21.1 9.99
7/15/2021 6:30:00 AM 14.9 58.82 0.055 7.19 21.12 10
7/15/2021 6:45:00 AM 14.88 58.784 0.055 7.19 20.36 10
7/15/2021 7:00:00 AM 14.88 58.784 0.055 7.21 22.08 10.01
7/15/2021 7:15:00 AM 14.87 58.766 0.055 7.21 21.02 10.01
7/15/2021 7:30:00 AM 14.86 58.748 0.055 7.21 20.98 10.02
7/15/2021 7:45:00 AM 14.86 58.748 0.055 7.16 21.48 10.02
7/15/2021 8:00:00 AM 14.85 58.73 0.055 7.19 20.59 10.03
7/15/2021 8:15:00 AM 14.86 58.748 0.055 7.22 23.24 10.03
7/15/2021 8:30:00 AM 14.86 58.748 0.055 7.18 20.32 10.03
7/15/2021 8:45:00 AM 14.89 58.802 0.054 7.22 17.9 10.04
7/15/2021 9:00:00 AM 14.91 58.838 0.054 7.18 19.45 10.03
7/15/2021 9:15:00 AM 14.94 58.892 0.054 7.21 19.17 10.02
7/15/2021 9:30:00 AM 14.98 58.964 0.054 7.19 19.89 10.01
7/15/2021 9:45:00 AM 15.05 59.09 0.054 7.22 20.88 10
7/15/2021 10:00:00 AM 15.12 59.216 0.054 7.22 20.26 9.98
7/15/2021 10:15:00 AM 15.19 59.342 0.054 7.17 20.18 9.97
7/15/2021 10:30:00 AM 15.29 59.522 0.054 7.2 19.83 9.97
7/15/2021 10:45:00 AM 15.3 59.54 0.054 7.21 20.01 9.94
7/15/2021 11:00:00 AM 15.43 59.774 0.054 7.18 20.05 9.94
7/15/2021 11:15:00 AM 15.46 59.828 0.054 7.23 20.22 9.91
7/15/2021 11:30:00 AM 15.51 59.918 0.054 7.16 19.57 9.91
7/15/2021 11:45:00 AM 15.59 60.062 0.054 7.21 19.97 9.88
7/15/2021 12:00:00 PM 15.67 60.206 0.054 7.23 21.28 9.86
7/15/2021 12:15:00 PM 15.85 60.53 0.054 7.21 20.03 9.84
7/15/2021 12:30:00 PM 15.98 60.764 0.054 7.26 19.98 9.81
7/15/2021 12:45:00 PM 15.98 60.764 0.054 7.22 19.85 9.79
7/15/2021 1:00:00 PM 16.06 60.908 0.054 7.25 21.54 9.78
7/15/2021 1:15:00 PM 16.15 61.07 0.054 7.19 21.05 9.76
7/15/2021 1:30:00 PM 16.32 61.376 0.054 7.24 19.4 9.74
7/15/2021 1:45:00 PM 16.44 61.592 0.054 7.28 20.52 9.71
7/15/2021 2:00:00 PM 16.45 61.61 0.054 7.21 20.9 9.68
7/15/2021 2:15:00 PM 16.48 61.664 0.054 7.25 19.19 9.67
7/15/2021 2:30:00 PM 16.48 61.664 0.054 7.21 21.05 9.65
7/15/2021 2:45:00 PM 16.57 61.826 0.054 7.21 21.02 9.65
7/15/2021 3:00:00 PM 16.58 61.844 0.054 7.21 20.9 9.63
7/15/2021 3:15:00 PM 16.68 62.024 0.054 7.22 21.03 9.64
7/15/2021 3:30:00 PM 16.72 62.096 0.054 7.23 21.58 9.63
7/15/2021 3:45:00 PM 16.73 62.114 0.054 7.25 21.22 9.61
7/15/2021 4:00:00 PM 16.77 62.186 0.054 7.21 21.98 9.61
7/15/2021 4:15:00 PM 16.79 62.222 0.054 7.26 20.98 9.6
7/15/2021 4:30:00 PM 16.81 62.258 0.054 7.21 20.71 9.59
7/15/2021 4:45:00 PM 16.79 62.222 0.054 7.25 21.95 9.59
7/15/2021 5:00:00 PM 16.77 62.186 0.054 7.2 21.84 9.58
7/15/2021 5:15:00 PM 16.75 62.15 0.054 7.18 22.9 9.58
7/15/2021 5:30:00 PM 16.73 62.114 0.054 7.19 21.9 9.59
7/15/2021 5:45:00 PM 16.74 62.132 0.054 7.19 21.84 9.59
7/15/2021 6:00:00 PM 16.7 62.06 0.054 7.17 22.21 9.57
7/15/2021 6:15:00 PM 16.67 62.006 0.054 7.19 22.85 9.57
7/15/2021 6:30:00 PM 16.64 61.952 0.054 7.16 21.41 9.58
7/15/2021 6:45:00 PM 16.63 61.934 0.054 7.17 22.03 9.59
7/15/2021 7:00:00 PM 16.61 61.898 0.054 7.18 21.43 9.58
7/15/2021 7:15:00 PM 16.58 61.844 0.054 7.17 21.19 9.58
7/15/2021 7:30:00 PM 16.55 61.79 0.055 7.14 22.05 9.58
7/15/2021 7:45:00 PM 16.52 61.736 0.055 7.16 22.23 9.58
7/15/2021 8:00:00 PM 16.49 61.682 0.055 7.14 21.85 9.58
7/15/2021 8:15:00 PM 16.45 61.61 0.055 7.15 21.67 9.58
7/15/2021 8:30:00 PM 16.42 61.556 0.055 7.14 20.59 9.58
7/15/2021 8:45:00 PM 16.38 61.484 0.055 7.13 22.44 9.6
7/15/2021 9:00:00 PM 16.35 61.43 0.055 7.13 22.56 9.61
7/15/2021 9:15:00 PM 16.31 61.358 0.055 7.16 22.43 9.62
7/15/2021 9:30:00 PM 16.27 61.286 0.055 7.17 21.93 9.63
7/15/2021 9:45:00 PM 16.22 61.196 0.055 7.15 21.49 9.65
7/15/2021 10:00:00 PM 16.17 61.106 0.059 7.14 21.65 9.66
7/15/2021 10:15:00 PM 16.13 61.034 0.055 7.14 21.07 9.67
7/15/2021 10:30:00 PM 16.09 60.962 0.055 7.16 20.01 9.68
7/15/2021 10:45:00 PM 16.05 60.89 0.055 7.18 21.3 9.69
7/15/2021 11:00:00 PM 16.01 60.818 0.056 7.14 20.2 9.7
7/15/2021 11:15:00 PM 15.97 60.746 0.055 7.18 20.76 9.7
7/15/2021 11:30:00 PM 15.93 60.674 0.055 7.18 19.01 9.71
7/15/2021 11:45:00 PM 15.89 60.602 0.055 7.15 19.55 9.71
7/16/2021 12:00:00 AM 15.85 60.53 0.055 7.18 18.87 9.72
7/16/2021 12:15:00 AM 15.81 60.458 0.055 7.18 20.02 9.72
7/16/2021 12:30:00 AM 15.77 60.386 0.055 7.15 19.31 9.73
7/16/2021 12:45:00 AM 15.73 60.314 0.055 7.17 18.59 9.74
7/16/2021 1:00:00 AM 15.68 60.224 0.055 7.15 19.44 9.76
7/16/2021 1:15:00 AM 15.64 60.152 0.055 7.17 20.75 9.76
7/16/2021 1:30:00 AM 15.61 60.098 0.055 7.14 19.21 9.77
7/16/2021 1:45:00 AM 15.57 60.026 0.055 7.15 19.32 9.79
7/16/2021 2:00:00 AM 15.53 59.954 0.055 7.17 19.87 9.8
7/16/2021 2:15:00 AM 15.5 59.9 0.055 7.14 19.35 9.81
7/16/2021 2:30:00 AM 15.46 59.828 0.055 7.15 19.55 9.81
7/16/2021 2:45:00 AM 15.43 59.774 0.055 7.14 19.65 9.83
7/16/2021 3:00:00 AM 15.4 59.72 0.055 7.14 18.53 9.83
7/16/2021 3:15:00 AM 15.37 59.666 0.055 7.18 18.65 9.84
7/16/2021 3:30:00 AM 15.34 59.612 0.055 7.17 19 9.84
7/16/2021 3:45:00 AM 15.31 59.558 0.055 7.13 18.76 9.85
7/16/2021 4:00:00 AM 15.28 59.504 0.055 7.14 18.46 9.85
7/16/2021 4:15:00 AM 15.26 59.468 0.055 7.15 19.26 9.85
7/16/2021 4:30:00 AM 15.23 59.414 0.055 7.17 17.64 9.86
7/16/2021 4:45:00 AM 15.21 59.378 0.055 7.15 17.83 9.86
7/16/2021 5:00:00 AM 15.19 59.342 0.055 7.15 18.23 9.86
7/16/2021 5:15:00 AM 15.18 59.324 0.055 7.14 18.49 9.87
7/16/2021 5:30:00 AM 15.15 59.27 0.055 7.14 19.46 9.87
7/16/2021 5:45:00 AM 15.13 59.234 0.055 7.18 25.95 9.88
7/16/2021 6:00:00 AM 15.1 59.18 0.055 7.15 20.44 9.89
7/16/2021 6:15:00 AM 15.08 59.144 0.055 7.17 20.54 9.89
7/16/2021 6:30:00 AM 15.06 59.108 0.055 7.16 19.8 9.9
7/16/2021 6:45:00 AM 15.05 59.09 0.055 7.15 19.81 9.91
7/16/2021 7:00:00 AM 15.03 59.054 0.055 7.14 19.66 9.92
7/16/2021 7:15:00 AM 15.02 59.036 0.055 7.15 19.18 9.93
7/16/2021 7:30:00 AM 15.02 59.036 0.055 7.18 20.14 9.93
7/16/2021 7:45:00 AM 15.04 59.072 0.055 7.2 19.57 9.94
7/16/2021 8:00:00 AM 15.04 59.072 0.055 7.15 19.35 9.94
7/16/2021 8:15:00 AM 15.04 59.072 0.055 7.14 19.27 9.95
7/16/2021 8:30:00 AM 15.06 59.108 0.055 7.14 19.94 9.94
7/16/2021 8:45:00 AM 15.07 59.126 0.055 7.13 22.38 9.94
7/16/2021 9:00:00 AM 15.09 59.162